<?xml version='1.0' encoding='UTF-8'?>
<gpx version="1.1" creator="https://www.komoot.de" xmlns="http://www.topografix.com/GPX/1/1" xmlns:xsi="http://www.w3.org/2001/XMLSchema-instance" xsi:schemaLocation="http://www.topografix.com/GPX/1/1 http://www.topografix.com/GPX/1/1/gpx.xsd">
  <metadata>
    <name>Haltern Bf - Duisburg Hbf 55 km</name>
    <author>
      <link href="https://www.komoot.de">
        <text>komoot</text>
        <type>text/html</type>
      </link>
    </author>
  </metadata>
  <trk>
    <name>Haltern Bf - Duisburg Hbf 55 km</name>
    <trkseg>
      <trkpt lat="51.737167" lon="7.182124">
        <ele>39.162083</ele>
        <time>2026-05-24T05:55:16.744Z</time>
      </trkpt>
      <trkpt lat="51.737338" lon="7.182027">
        <ele>39.162083</ele>
        <time>2026-05-24T05:55:22.226Z</time>
      </trkpt>
      <trkpt lat="51.737442" lon="7.182286">
        <ele>39.162083</ele>
        <time>2026-05-24T05:55:28.017Z</time>
      </trkpt>
      <trkpt lat="51.737592" lon="7.182145">
        <ele>39.162083</ele>
        <time>2026-05-24T05:55:33.316Z</time>
      </trkpt>
      <trkpt lat="51.737711" lon="7.182144">
        <ele>39.162083</ele>
        <time>2026-05-24T05:55:37.001Z</time>
      </trkpt>
      <trkpt lat="51.737820" lon="7.182137">
        <ele>39.162083</ele>
        <time>2026-05-24T05:55:40.400Z</time>
      </trkpt>
      <trkpt lat="51.737849" lon="7.182269">
        <ele>39.162083</ele>
        <time>2026-05-24T05:55:42.470Z</time>
      </trkpt>
      <trkpt lat="51.737994" lon="7.183497">
        <ele>39.136271</ele>
        <time>2026-05-24T05:56:00.418Z</time>
      </trkpt>
      <trkpt lat="51.738061" lon="7.183731">
        <ele>39.130669</ele>
        <time>2026-05-24T05:56:03.849Z</time>
      </trkpt>
      <trkpt lat="51.738132" lon="7.183839">
        <ele>39.127247</ele>
        <time>2026-05-24T05:56:05.915Z</time>
      </trkpt>
      <trkpt lat="51.738312" lon="7.184074">
        <ele>39.119125</ele>
        <time>2026-05-24T05:56:10.852Z</time>
      </trkpt>
      <trkpt lat="51.738227" lon="7.184208">
        <ele>39.114956</ele>
        <time>2026-05-24T05:56:13.363Z</time>
      </trkpt>
      <trkpt lat="51.738180" lon="7.184284">
        <ele>39.112623</ele>
        <time>2026-05-24T05:56:14.771Z</time>
      </trkpt>
      <trkpt lat="51.738135" lon="7.184385">
        <ele>39.109919</ele>
        <time>2026-05-24T05:56:16.385Z</time>
      </trkpt>
      <trkpt lat="51.738140" lon="7.184420">
        <ele>39.109139</ele>
        <time>2026-05-24T05:56:16.863Z</time>
      </trkpt>
      <trkpt lat="51.738152" lon="7.184471">
        <ele>39.107953</ele>
        <time>2026-05-24T05:56:17.584Z</time>
      </trkpt>
      <trkpt lat="51.738211" lon="7.184601">
        <ele>39.104451</ele>
        <time>2026-05-24T05:56:19.666Z</time>
      </trkpt>
      <trkpt lat="51.738371" lon="7.184949">
        <ele>39.118614</ele>
        <time>2026-05-24T05:56:25.388Z</time>
      </trkpt>
      <trkpt lat="51.738418" lon="7.185053">
        <ele>39.132570</ele>
        <time>2026-05-24T05:56:27.108Z</time>
      </trkpt>
      <trkpt lat="51.738455" lon="7.185135">
        <ele>39.143568</ele>
        <time>2026-05-24T05:56:28.436Z</time>
      </trkpt>
      <trkpt lat="51.738818" lon="7.185972">
        <ele>39.254335</ele>
        <time>2026-05-24T05:56:42.473Z</time>
      </trkpt>
      <trkpt lat="51.739200" lon="7.186834">
        <ele>39.369234</ele>
        <time>2026-05-24T05:56:58.407Z</time>
      </trkpt>
      <trkpt lat="51.739302" lon="7.187063">
        <ele>39.399811</ele>
        <time>2026-05-24T05:57:02.648Z</time>
      </trkpt>
      <trkpt lat="51.739372" lon="7.187224">
        <ele>39.414429</ele>
        <time>2026-05-24T05:57:06.383Z</time>
      </trkpt>
      <trkpt lat="51.739486" lon="7.187342">
        <ele>39.416416</ele>
        <time>2026-05-24T05:57:10.574Z</time>
      </trkpt>
      <trkpt lat="51.739722" lon="7.187355">
        <ele>39.419880</ele>
        <time>2026-05-24T05:57:17.884Z</time>
      </trkpt>
      <trkpt lat="51.739710" lon="7.187431">
        <ele>39.420592</ele>
        <time>2026-05-24T05:57:19.337Z</time>
      </trkpt>
      <trkpt lat="51.739657" lon="7.187468">
        <ele>39.421440</ele>
        <time>2026-05-24T05:57:21.099Z</time>
      </trkpt>
      <trkpt lat="51.739617" lon="7.187412">
        <ele>39.422216</ele>
        <time>2026-05-24T05:57:22.712Z</time>
      </trkpt>
      <trkpt lat="51.739303" lon="7.187399">
        <ele>39.426824</ele>
        <time>2026-05-24T05:57:31.894Z</time>
      </trkpt>
      <trkpt lat="51.739216" lon="7.187391">
        <ele>39.428103</ele>
        <time>2026-05-24T05:57:34.369Z</time>
      </trkpt>
      <trkpt lat="51.739133" lon="7.187435">
        <ele>39.429384</ele>
        <time>2026-05-24T05:57:36.868Z</time>
      </trkpt>
      <trkpt lat="51.738927" lon="7.187623">
        <ele>39.432856</ele>
        <time>2026-05-24T05:57:43.584Z</time>
      </trkpt>
      <trkpt lat="51.738914" lon="7.187635">
        <ele>39.433075</ele>
        <time>2026-05-24T05:57:44.005Z</time>
      </trkpt>
      <trkpt lat="51.738769" lon="7.187510">
        <ele>39.435487</ele>
        <time>2026-05-24T05:57:48.636Z</time>
      </trkpt>
      <trkpt lat="51.738564" lon="7.187532">
        <ele>39.438501</ele>
        <time>2026-05-24T05:57:54.379Z</time>
      </trkpt>
      <trkpt lat="51.738487" lon="7.187606">
        <ele>39.439815</ele>
        <time>2026-05-24T05:57:56.899Z</time>
      </trkpt>
      <trkpt lat="51.738369" lon="7.187522">
        <ele>39.421247</ele>
        <time>2026-05-24T05:58:00.516Z</time>
      </trkpt>
      <trkpt lat="51.738339" lon="7.187531">
        <ele>39.415607</ele>
        <time>2026-05-24T05:58:01.169Z</time>
      </trkpt>
      <trkpt lat="51.738258" lon="7.187556">
        <ele>39.400361</ele>
        <time>2026-05-24T05:58:02.919Z</time>
      </trkpt>
      <trkpt lat="51.737967" lon="7.187595">
        <ele>39.346380</ele>
        <time>2026-05-24T05:58:09.520Z</time>
      </trkpt>
      <trkpt lat="51.737928" lon="7.187599">
        <ele>39.339156</ele>
        <time>2026-05-24T05:58:10.396Z</time>
      </trkpt>
      <trkpt lat="51.737802" lon="7.187611">
        <ele>39.315822</ele>
        <time>2026-05-24T05:58:13.247Z</time>
      </trkpt>
      <trkpt lat="51.737532" lon="7.187644">
        <ele>39.265765</ele>
        <time>2026-05-24T05:58:19.299Z</time>
      </trkpt>
      <trkpt lat="51.735687" lon="7.187858">
        <ele>38.920131</ele>
        <time>2026-05-24T05:59:01.236Z</time>
      </trkpt>
      <trkpt lat="51.735508" lon="7.187877">
        <ele>38.886305</ele>
        <time>2026-05-24T05:59:05.270Z</time>
      </trkpt>
      <trkpt lat="51.735185" lon="7.187918">
        <ele>38.825212</ele>
        <time>2026-05-24T05:59:12.476Z</time>
      </trkpt>
      <trkpt lat="51.734867" lon="7.187959">
        <ele>38.767109</ele>
        <time>2026-05-24T05:59:19.297Z</time>
      </trkpt>
      <trkpt lat="51.734546" lon="7.187995">
        <ele>38.742200</ele>
        <time>2026-05-24T05:59:26.339Z</time>
      </trkpt>
      <trkpt lat="51.734024" lon="7.188055">
        <ele>38.701690</ele>
        <time>2026-05-24T05:59:38.344Z</time>
      </trkpt>
      <trkpt lat="51.733908" lon="7.188066">
        <ele>38.692695</ele>
        <time>2026-05-24T05:59:40.948Z</time>
      </trkpt>
      <trkpt lat="51.733778" lon="7.188078">
        <ele>38.682616</ele>
        <time>2026-05-24T05:59:43.898Z</time>
      </trkpt>
      <trkpt lat="51.733683" lon="7.188142">
        <ele>38.674647</ele>
        <time>2026-05-24T05:59:46.220Z</time>
      </trkpt>
      <trkpt lat="51.733610" lon="7.188301">
        <ele>38.665158</ele>
        <time>2026-05-24T05:59:48.966Z</time>
      </trkpt>
      <trkpt lat="51.733468" lon="7.188123">
        <ele>38.651243</ele>
        <time>2026-05-24T05:59:53.046Z</time>
      </trkpt>
      <trkpt lat="51.733278" lon="7.187930">
        <ele>38.633866</ele>
        <time>2026-05-24T05:59:58.205Z</time>
      </trkpt>
      <trkpt lat="51.733021" lon="7.187775">
        <ele>38.530037</ele>
        <time>2026-05-24T06:00:04.605Z</time>
      </trkpt>
      <trkpt lat="51.732994" lon="7.187763">
        <ele>38.517132</ele>
        <time>2026-05-24T06:00:05.225Z</time>
      </trkpt>
      <trkpt lat="51.732562" lon="7.187566">
        <ele>38.310266</ele>
        <time>2026-05-24T06:00:15.718Z</time>
      </trkpt>
      <trkpt lat="51.732422" lon="7.187510">
        <ele>38.243799</ele>
        <time>2026-05-24T06:00:18.808Z</time>
      </trkpt>
      <trkpt lat="51.732122" lon="7.187365">
        <ele>38.099489</ele>
        <time>2026-05-24T06:00:24.827Z</time>
      </trkpt>
      <trkpt lat="51.731810" lon="7.187218">
        <ele>37.949713</ele>
        <time>2026-05-24T06:00:30.759Z</time>
      </trkpt>
      <trkpt lat="51.731679" lon="7.187159">
        <ele>37.887040</ele>
        <time>2026-05-24T06:00:33.327Z</time>
      </trkpt>
      <trkpt lat="51.731371" lon="7.187022">
        <ele>37.838293</ele>
        <time>2026-05-24T06:00:39.651Z</time>
      </trkpt>
      <trkpt lat="51.730888" lon="7.186805">
        <ele>37.982589</ele>
        <time>2026-05-24T06:00:50.396Z</time>
      </trkpt>
      <trkpt lat="51.730033" lon="7.186403">
        <ele>38.238893</ele>
        <time>2026-05-24T06:01:12.133Z</time>
      </trkpt>
      <trkpt lat="51.729936" lon="7.186365">
        <ele>38.267622</ele>
        <time>2026-05-24T06:01:14.832Z</time>
      </trkpt>
      <trkpt lat="51.729954" lon="7.186270">
        <ele>38.285331</ele>
        <time>2026-05-24T06:01:16.627Z</time>
      </trkpt>
      <trkpt lat="51.730006" lon="7.185667">
        <ele>38.373526</ele>
        <time>2026-05-24T06:01:27.336Z</time>
      </trkpt>
      <trkpt lat="51.730014" lon="7.185575">
        <ele>38.385641</ele>
        <time>2026-05-24T06:01:28.920Z</time>
      </trkpt>
      <trkpt lat="51.730002" lon="7.185198">
        <ele>38.434870</ele>
        <time>2026-05-24T06:01:34.866Z</time>
      </trkpt>
      <trkpt lat="51.729946" lon="7.184903">
        <ele>38.475106</ele>
        <time>2026-05-24T06:01:39.388Z</time>
      </trkpt>
      <trkpt lat="51.729213" lon="7.182332">
        <ele>38.384161</ele>
        <time>2026-05-24T06:02:16.354Z</time>
      </trkpt>
      <trkpt lat="51.728693" lon="7.180758">
        <ele>37.890373</ele>
        <time>2026-05-24T06:02:39.088Z</time>
      </trkpt>
      <trkpt lat="51.728299" lon="7.179238">
        <ele>37.387829</ele>
        <time>2026-05-24T06:02:59.847Z</time>
      </trkpt>
      <trkpt lat="51.727931" lon="7.178227">
        <ele>37.030178</ele>
        <time>2026-05-24T06:03:14.753Z</time>
      </trkpt>
      <trkpt lat="51.727363" lon="7.176350">
        <ele>36.620534</ele>
        <time>2026-05-24T06:03:43.308Z</time>
      </trkpt>
      <trkpt lat="51.726829" lon="7.174823">
        <ele>36.310245</ele>
        <time>2026-05-24T06:04:07.548Z</time>
      </trkpt>
      <trkpt lat="51.726392" lon="7.173781">
        <ele>36.107185</ele>
        <time>2026-05-24T06:04:24.779Z</time>
      </trkpt>
      <trkpt lat="51.725896" lon="7.172759">
        <ele>35.916640</ele>
        <time>2026-05-24T06:04:42.603Z</time>
      </trkpt>
      <trkpt lat="51.725350" lon="7.171720">
        <ele>35.746622</ele>
        <time>2026-05-24T06:05:01.620Z</time>
      </trkpt>
      <trkpt lat="51.724777" lon="7.170703">
        <ele>35.612799</ele>
        <time>2026-05-24T06:05:20.719Z</time>
      </trkpt>
      <trkpt lat="51.724008" lon="7.169501">
        <ele>35.582403</ele>
        <time>2026-05-24T06:05:44.976Z</time>
      </trkpt>
      <trkpt lat="51.722154" lon="7.167001">
        <ele>36.084762</ele>
        <time>2026-05-24T06:06:43.553Z</time>
      </trkpt>
      <trkpt lat="51.721556" lon="7.166270">
        <ele>36.224413</ele>
        <time>2026-05-24T06:07:01.689Z</time>
      </trkpt>
      <trkpt lat="51.721511" lon="7.165775">
        <ele>36.282114</ele>
        <time>2026-05-24T06:07:09.023Z</time>
      </trkpt>
      <trkpt lat="51.721390" lon="7.165151">
        <ele>36.357525</ele>
        <time>2026-05-24T06:07:18.543Z</time>
      </trkpt>
      <trkpt lat="51.721139" lon="7.164292">
        <ele>36.524854</ele>
        <time>2026-05-24T06:07:32.567Z</time>
      </trkpt>
      <trkpt lat="51.720763" lon="7.163242">
        <ele>36.784796</ele>
        <time>2026-05-24T06:07:51.969Z</time>
      </trkpt>
      <trkpt lat="51.720728" lon="7.162973">
        <ele>36.843709</ele>
        <time>2026-05-24T06:07:56.239Z</time>
      </trkpt>
      <trkpt lat="51.720736" lon="7.162813">
        <ele>36.878114</ele>
        <time>2026-05-24T06:07:58.711Z</time>
      </trkpt>
      <trkpt lat="51.720765" lon="7.162711">
        <ele>36.902169</ele>
        <time>2026-05-24T06:08:00.428Z</time>
      </trkpt>
      <trkpt lat="51.720825" lon="7.162511">
        <ele>36.949797</ele>
        <time>2026-05-24T06:08:03.759Z</time>
      </trkpt>
      <trkpt lat="51.720856" lon="7.162374">
        <ele>36.981058</ele>
        <time>2026-05-24T06:08:05.919Z</time>
      </trkpt>
      <trkpt lat="51.720863" lon="7.162211">
        <ele>37.016078</ele>
        <time>2026-05-24T06:08:08.310Z</time>
      </trkpt>
      <trkpt lat="51.720642" lon="7.161193">
        <ele>36.668918</ele>
        <time>2026-05-24T06:08:23.237Z</time>
      </trkpt>
      <trkpt lat="51.720490" lon="7.159503">
        <ele>36.095117</ele>
        <time>2026-05-24T06:08:44.584Z</time>
      </trkpt>
      <trkpt lat="51.720442" lon="7.159335">
        <ele>36.047979</ele>
        <time>2026-05-24T06:08:46.992Z</time>
      </trkpt>
      <trkpt lat="51.720267" lon="7.159301">
        <ele>36.058582</ele>
        <time>2026-05-24T06:08:50.771Z</time>
      </trkpt>
      <trkpt lat="51.719665" lon="7.159345">
        <ele>36.094834</ele>
        <time>2026-05-24T06:09:04.645Z</time>
      </trkpt>
      <trkpt lat="51.719328" lon="7.159168">
        <ele>36.116153</ele>
        <time>2026-05-24T06:09:13.536Z</time>
      </trkpt>
      <trkpt lat="51.718831" lon="7.158807">
        <ele>36.148939</ele>
        <time>2026-05-24T06:09:27.315Z</time>
      </trkpt>
      <trkpt lat="51.718596" lon="7.158711">
        <ele>36.160670</ele>
        <time>2026-05-24T06:09:33.166Z</time>
      </trkpt>
      <trkpt lat="51.718169" lon="7.158879">
        <ele>36.178581</ele>
        <time>2026-05-24T06:09:43.560Z</time>
      </trkpt>
      <trkpt lat="51.717800" lon="7.158189">
        <ele>36.201594</ele>
        <time>2026-05-24T06:09:56.534Z</time>
      </trkpt>
      <trkpt lat="51.717501" lon="7.157419">
        <ele>36.224538</ele>
        <time>2026-05-24T06:10:09.338Z</time>
      </trkpt>
      <trkpt lat="51.717251" lon="7.156942">
        <ele>36.172719</ele>
        <time>2026-05-24T06:10:18.145Z</time>
      </trkpt>
      <trkpt lat="51.717010" lon="7.156286">
        <ele>36.086439</ele>
        <time>2026-05-24T06:10:28.934Z</time>
      </trkpt>
      <trkpt lat="51.716688" lon="7.155644">
        <ele>35.992993</ele>
        <time>2026-05-24T06:10:40.187Z</time>
      </trkpt>
      <trkpt lat="51.716611" lon="7.155399">
        <ele>35.961913</ele>
        <time>2026-05-24T06:10:43.873Z</time>
      </trkpt>
      <trkpt lat="51.716584" lon="7.155253">
        <ele>35.944676</ele>
        <time>2026-05-24T06:10:45.924Z</time>
      </trkpt>
      <trkpt lat="51.716587" lon="7.154421">
        <ele>35.983716</ele>
        <time>2026-05-24T06:10:57.408Z</time>
      </trkpt>
      <trkpt lat="51.716562" lon="7.154207">
        <ele>36.026041</ele>
        <time>2026-05-24T06:11:00.554Z</time>
      </trkpt>
      <trkpt lat="51.716428" lon="7.153734">
        <ele>36.127127</ele>
        <time>2026-05-24T06:11:08.315Z</time>
      </trkpt>
      <trkpt lat="51.716350" lon="7.153567">
        <ele>36.167775</ele>
        <time>2026-05-24T06:11:11.562Z</time>
      </trkpt>
      <trkpt lat="51.716318" lon="7.153272">
        <ele>36.225982</ele>
        <time>2026-05-24T06:11:16.373Z</time>
      </trkpt>
      <trkpt lat="51.716257" lon="7.152250">
        <ele>36.425535</ele>
        <time>2026-05-24T06:11:33.217Z</time>
      </trkpt>
      <trkpt lat="51.716259" lon="7.151534">
        <ele>36.396854</ele>
        <time>2026-05-24T06:11:44.016Z</time>
      </trkpt>
      <trkpt lat="51.716222" lon="7.150904">
        <ele>36.315273</ele>
        <time>2026-05-24T06:11:52.934Z</time>
      </trkpt>
      <trkpt lat="51.716280" lon="7.150435">
        <ele>36.253619</ele>
        <time>2026-05-24T06:11:59.369Z</time>
      </trkpt>
      <trkpt lat="51.716267" lon="7.150337">
        <ele>36.240699</ele>
        <time>2026-05-24T06:12:00.696Z</time>
      </trkpt>
      <trkpt lat="51.715932" lon="7.150200">
        <ele>36.168790</ele>
        <time>2026-05-24T06:12:08.009Z</time>
      </trkpt>
      <trkpt lat="51.715553" lon="7.149641">
        <ele>36.094590</ele>
        <time>2026-05-24T06:12:18.666Z</time>
      </trkpt>
      <trkpt lat="51.715076" lon="7.149046">
        <ele>36.117614</ele>
        <time>2026-05-24T06:12:32.359Z</time>
      </trkpt>
      <trkpt lat="51.714877" lon="7.149185">
        <ele>36.125895</ele>
        <time>2026-05-24T06:12:37.640Z</time>
      </trkpt>
      <trkpt lat="51.714799" lon="7.149187">
        <ele>36.128875</ele>
        <time>2026-05-24T06:12:39.531Z</time>
      </trkpt>
      <trkpt lat="51.714735" lon="7.149085">
        <ele>36.132310</ele>
        <time>2026-05-24T06:12:41.734Z</time>
      </trkpt>
      <trkpt lat="51.714244" lon="7.147183">
        <ele>36.209654</ele>
        <time>2026-05-24T06:13:12.978Z</time>
      </trkpt>
      <trkpt lat="51.713846" lon="7.145751">
        <ele>36.293269</ele>
        <time>2026-05-24T06:13:35.406Z</time>
      </trkpt>
      <trkpt lat="51.713701" lon="7.145858">
        <ele>36.306978</ele>
        <time>2026-05-24T06:13:38.968Z</time>
      </trkpt>
      <trkpt lat="51.713080" lon="7.146306">
        <ele>36.488115</ele>
        <time>2026-05-24T06:13:54.208Z</time>
      </trkpt>
      <trkpt lat="51.713074" lon="7.146312">
        <ele>36.490138</ele>
        <time>2026-05-24T06:13:54.372Z</time>
      </trkpt>
      <trkpt lat="51.712955" lon="7.146416">
        <ele>36.528914</ele>
        <time>2026-05-24T06:13:57.425Z</time>
      </trkpt>
      <trkpt lat="51.712913" lon="7.146494">
        <ele>36.547260</ele>
        <time>2026-05-24T06:13:58.881Z</time>
      </trkpt>
      <trkpt lat="51.712879" lon="7.146666">
        <ele>36.579313</ele>
        <time>2026-05-24T06:14:01.389Z</time>
      </trkpt>
      <trkpt lat="51.712902" lon="7.146841">
        <ele>36.611074</ele>
        <time>2026-05-24T06:14:03.934Z</time>
      </trkpt>
      <trkpt lat="51.713033" lon="7.147349">
        <ele>36.708762</ele>
        <time>2026-05-24T06:14:11.984Z</time>
      </trkpt>
      <trkpt lat="51.713023" lon="7.147506">
        <ele>36.736783</ele>
        <time>2026-05-24T06:14:14.355Z</time>
      </trkpt>
      <trkpt lat="51.712854" lon="7.147986">
        <ele>36.863086</ele>
        <time>2026-05-24T06:14:22.806Z</time>
      </trkpt>
      <trkpt lat="51.712809" lon="7.148114">
        <ele>37.002207</ele>
        <time>2026-05-24T06:14:25.198Z</time>
      </trkpt>
      <trkpt lat="51.712751" lon="7.148183">
        <ele>37.112138</ele>
        <time>2026-05-24T06:14:27.061Z</time>
      </trkpt>
      <trkpt lat="51.712687" lon="7.148221">
        <ele>37.216179</ele>
        <time>2026-05-24T06:14:28.874Z</time>
      </trkpt>
      <trkpt lat="51.712454" lon="7.148236">
        <ele>37.571944</ele>
        <time>2026-05-24T06:14:34.995Z</time>
      </trkpt>
      <trkpt lat="51.711981" lon="7.148147">
        <ele>38.298476</ele>
        <time>2026-05-24T06:14:47.731Z</time>
      </trkpt>
      <trkpt lat="51.711681" lon="7.148091">
        <ele>38.759230</ele>
        <time>2026-05-24T06:14:56.467Z</time>
      </trkpt>
      <trkpt lat="51.711476" lon="7.148132">
        <ele>39.074386</ele>
        <time>2026-05-24T06:15:03.043Z</time>
      </trkpt>
      <trkpt lat="51.711119" lon="7.148441">
        <ele>39.664531</ele>
        <time>2026-05-24T06:15:16.260Z</time>
      </trkpt>
      <trkpt lat="51.711043" lon="7.148540">
        <ele>39.778895</ele>
        <time>2026-05-24T06:15:19.440Z</time>
      </trkpt>
      <trkpt lat="51.710849" lon="7.148926">
        <ele>40.139507</ele>
        <time>2026-05-24T06:15:29.230Z</time>
      </trkpt>
      <trkpt lat="51.710602" lon="7.149169">
        <ele>40.478236</ele>
        <time>2026-05-24T06:15:38.237Z</time>
      </trkpt>
      <trkpt lat="51.710513" lon="7.149224">
        <ele>40.589831</ele>
        <time>2026-05-24T06:15:41.098Z</time>
      </trkpt>
      <trkpt lat="51.710300" lon="7.149238">
        <ele>40.839451</ele>
        <time>2026-05-24T06:15:47.482Z</time>
      </trkpt>
      <trkpt lat="51.709223" lon="7.148830">
        <ele>41.181025</ele>
        <time>2026-05-24T06:16:10.931Z</time>
      </trkpt>
      <trkpt lat="51.709114" lon="7.148764">
        <ele>41.032397</ele>
        <time>2026-05-24T06:16:13.031Z</time>
      </trkpt>
      <trkpt lat="51.709208" lon="7.148442">
        <ele>40.750814</ele>
        <time>2026-05-24T06:16:16.986Z</time>
      </trkpt>
      <trkpt lat="51.709097" lon="7.147987">
        <ele>40.363978</ele>
        <time>2026-05-24T06:16:22.416Z</time>
      </trkpt>
      <trkpt lat="51.709021" lon="7.147729">
        <ele>40.137988</ele>
        <time>2026-05-24T06:16:25.563Z</time>
      </trkpt>
      <trkpt lat="51.708986" lon="7.147655">
        <ele>40.064343</ele>
        <time>2026-05-24T06:16:26.613Z</time>
      </trkpt>
      <trkpt lat="51.708720" lon="7.147088">
        <ele>39.501743</ele>
        <time>2026-05-24T06:16:34.419Z</time>
      </trkpt>
      <trkpt lat="51.708613" lon="7.146746">
        <ele>39.282370</ele>
        <time>2026-05-24T06:16:38.830Z</time>
      </trkpt>
      <trkpt lat="51.708517" lon="7.146245">
        <ele>39.056645</ele>
        <time>2026-05-24T06:16:45.167Z</time>
      </trkpt>
      <trkpt lat="51.708494" lon="7.145886">
        <ele>38.901294</ele>
        <time>2026-05-24T06:16:49.678Z</time>
      </trkpt>
      <trkpt lat="51.708509" lon="7.145544">
        <ele>38.753716</ele>
        <time>2026-05-24T06:16:53.973Z</time>
      </trkpt>
      <trkpt lat="51.708593" lon="7.144915">
        <ele>38.476755</ele>
        <time>2026-05-24T06:17:02.171Z</time>
      </trkpt>
      <trkpt lat="51.708604" lon="7.144688">
        <ele>38.378747</ele>
        <time>2026-05-24T06:17:05.136Z</time>
      </trkpt>
      <trkpt lat="51.708562" lon="7.144003">
        <ele>38.115632</ele>
        <time>2026-05-24T06:17:14.274Z</time>
      </trkpt>
      <trkpt lat="51.708429" lon="7.143894">
        <ele>38.080188</ele>
        <time>2026-05-24T06:17:17.486Z</time>
      </trkpt>
      <trkpt lat="51.707733" lon="7.143273">
        <ele>37.891216</ele>
        <time>2026-05-24T06:17:34.557Z</time>
      </trkpt>
      <trkpt lat="51.707062" lon="7.141665">
        <ele>37.710318</ele>
        <time>2026-05-24T06:18:00.110Z</time>
      </trkpt>
      <trkpt lat="51.706949" lon="7.141441">
        <ele>37.712372</ele>
        <time>2026-05-24T06:18:03.993Z</time>
      </trkpt>
      <trkpt lat="51.706869" lon="7.141347">
        <ele>37.713507</ele>
        <time>2026-05-24T06:18:06.108Z</time>
      </trkpt>
      <trkpt lat="51.706165" lon="7.140574">
        <ele>37.723278</ele>
        <time>2026-05-24T06:18:24.406Z</time>
      </trkpt>
      <trkpt lat="51.705892" lon="7.140555">
        <ele>37.758263</ele>
        <time>2026-05-24T06:18:31.076Z</time>
      </trkpt>
      <trkpt lat="51.705765" lon="7.140626">
        <ele>37.939744</ele>
        <time>2026-05-24T06:18:34.560Z</time>
      </trkpt>
      <trkpt lat="51.705385" lon="7.141187">
        <ele>38.635172</ele>
        <time>2026-05-24T06:18:48.659Z</time>
      </trkpt>
      <trkpt lat="51.705343" lon="7.141248">
        <ele>38.711470</ele>
        <time>2026-05-24T06:18:50.191Z</time>
      </trkpt>
      <trkpt lat="51.704899" lon="7.141907">
        <ele>39.526016</ele>
        <time>2026-05-24T06:19:07.296Z</time>
      </trkpt>
      <trkpt lat="51.704617" lon="7.142271">
        <ele>40.013620</ele>
        <time>2026-05-24T06:19:18.336Z</time>
      </trkpt>
      <trkpt lat="51.704543" lon="7.142360">
        <ele>40.138239</ele>
        <time>2026-05-24T06:19:21.169Z</time>
      </trkpt>
      <trkpt lat="51.704379" lon="7.142524">
        <ele>40.315222</ele>
        <time>2026-05-24T06:19:27.102Z</time>
      </trkpt>
      <trkpt lat="51.703691" lon="7.143117">
        <ele>41.007850</ele>
        <time>2026-05-24T06:19:48.480Z</time>
      </trkpt>
      <trkpt lat="51.703543" lon="7.143207">
        <ele>41.148295</ele>
        <time>2026-05-24T06:19:52.353Z</time>
      </trkpt>
      <trkpt lat="51.703125" lon="7.143268">
        <ele>41.520989</ele>
        <time>2026-05-24T06:20:02.446Z</time>
      </trkpt>
      <trkpt lat="51.702953" lon="7.143443">
        <ele>41.701550</ele>
        <time>2026-05-24T06:20:07.067Z</time>
      </trkpt>
      <trkpt lat="51.702845" lon="7.143664">
        <ele>41.674964</ele>
        <time>2026-05-24T06:20:10.871Z</time>
      </trkpt>
      <trkpt lat="51.702461" lon="7.144511">
        <ele>41.249611</ele>
        <time>2026-05-24T06:20:24.061Z</time>
      </trkpt>
      <trkpt lat="51.702395" lon="7.144648">
        <ele>41.179279</ele>
        <time>2026-05-24T06:20:26.168Z</time>
      </trkpt>
      <trkpt lat="51.701830" lon="7.145877">
        <ele>40.559857</ele>
        <time>2026-05-24T06:20:44.551Z</time>
      </trkpt>
      <trkpt lat="51.701659" lon="7.146091">
        <ele>40.425198</ele>
        <time>2026-05-24T06:20:48.719Z</time>
      </trkpt>
      <trkpt lat="51.701299" lon="7.146350">
        <ele>40.179928</ele>
        <time>2026-05-24T06:20:56.432Z</time>
      </trkpt>
      <trkpt lat="51.701004" lon="7.146388">
        <ele>39.995779</ele>
        <time>2026-05-24T06:21:02.328Z</time>
      </trkpt>
      <trkpt lat="51.698482" lon="7.146428">
        <ele>39.049282</ele>
        <time>2026-05-24T06:21:54.909Z</time>
      </trkpt>
      <trkpt lat="51.697479" lon="7.146446">
        <ele>39.810563</ele>
        <time>2026-05-24T06:22:19.338Z</time>
      </trkpt>
      <trkpt lat="51.696416" lon="7.146704">
        <ele>40.960973</ele>
        <time>2026-05-24T06:22:49.170Z</time>
      </trkpt>
      <trkpt lat="51.696269" lon="7.146748">
        <ele>41.269242</ele>
        <time>2026-05-24T06:22:53.594Z</time>
      </trkpt>
      <trkpt lat="51.696079" lon="7.146802">
        <ele>41.667031</ele>
        <time>2026-05-24T06:22:59.384Z</time>
      </trkpt>
      <trkpt lat="51.695931" lon="7.146834">
        <ele>41.974917</ele>
        <time>2026-05-24T06:23:03.924Z</time>
      </trkpt>
      <trkpt lat="51.694944" lon="7.147131">
        <ele>44.045088</ele>
        <time>2026-05-24T06:23:35.431Z</time>
      </trkpt>
      <trkpt lat="51.694509" lon="7.147192">
        <ele>44.838721</ele>
        <time>2026-05-24T06:23:49.278Z</time>
      </trkpt>
      <trkpt lat="51.694401" lon="7.147208">
        <ele>45.019466</ele>
        <time>2026-05-24T06:23:52.691Z</time>
      </trkpt>
      <trkpt lat="51.694159" lon="7.147160">
        <ele>45.425808</ele>
        <time>2026-05-24T06:24:00.334Z</time>
      </trkpt>
      <trkpt lat="51.692774" lon="7.146720">
        <ele>47.341891</ele>
        <time>2026-05-24T06:24:39.911Z</time>
      </trkpt>
      <trkpt lat="51.692351" lon="7.146590">
        <ele>47.260002</ele>
        <time>2026-05-24T06:24:49.537Z</time>
      </trkpt>
      <trkpt lat="51.692307" lon="7.146494">
        <ele>47.245928</ele>
        <time>2026-05-24T06:24:51.244Z</time>
      </trkpt>
      <trkpt lat="51.691213" lon="7.145391">
        <ele>47.102034</ele>
        <time>2026-05-24T06:25:19.468Z</time>
      </trkpt>
      <trkpt lat="51.690464" lon="7.144647">
        <ele>47.320849</ele>
        <time>2026-05-24T06:25:41.567Z</time>
      </trkpt>
      <trkpt lat="51.690381" lon="7.144614">
        <ele>47.342115</ele>
        <time>2026-05-24T06:25:43.961Z</time>
      </trkpt>
      <trkpt lat="51.690336" lon="7.144578">
        <ele>47.354610</ele>
        <time>2026-05-24T06:25:45.432Z</time>
      </trkpt>
      <trkpt lat="51.690287" lon="7.144522">
        <ele>47.369548</ele>
        <time>2026-05-24T06:25:47.033Z</time>
      </trkpt>
      <trkpt lat="51.690221" lon="7.144424">
        <ele>47.391863</ele>
        <time>2026-05-24T06:25:49.384Z</time>
      </trkpt>
      <trkpt lat="51.689376" lon="7.143606">
        <ele>47.786338</ele>
        <time>2026-05-24T06:26:15.424Z</time>
      </trkpt>
      <trkpt lat="51.688132" lon="7.142356">
        <ele>48.437291</ele>
        <time>2026-05-24T06:26:49.455Z</time>
      </trkpt>
      <trkpt lat="51.687638" lon="7.141888">
        <ele>48.522570</ele>
        <time>2026-05-24T06:27:02.486Z</time>
      </trkpt>
      <trkpt lat="51.686208" lon="7.140537">
        <ele>48.469161</ele>
        <time>2026-05-24T06:27:40.520Z</time>
      </trkpt>
      <trkpt lat="51.685681" lon="7.140025">
        <ele>48.289826</ele>
        <time>2026-05-24T06:27:53.013Z</time>
      </trkpt>
      <trkpt lat="51.685066" lon="7.139428">
        <ele>48.135689</ele>
        <time>2026-05-24T06:28:07.240Z</time>
      </trkpt>
      <trkpt lat="51.684328" lon="7.138714">
        <ele>48.104506</ele>
        <time>2026-05-24T06:28:25.570Z</time>
      </trkpt>
      <trkpt lat="51.683718" lon="7.138110">
        <ele>48.078569</ele>
        <time>2026-05-24T06:28:42.836Z</time>
      </trkpt>
      <trkpt lat="51.683669" lon="7.138018">
        <ele>48.115125</ele>
        <time>2026-05-24T06:28:44.733Z</time>
      </trkpt>
      <trkpt lat="51.682253" lon="7.139337">
        <ele>48.990003</ele>
        <time>2026-05-24T06:29:25.300Z</time>
      </trkpt>
      <trkpt lat="51.682113" lon="7.139472">
        <ele>49.043731</ele>
        <time>2026-05-24T06:29:29.184Z</time>
      </trkpt>
      <trkpt lat="51.682015" lon="7.139565">
        <ele>49.048821</ele>
        <time>2026-05-24T06:29:31.887Z</time>
      </trkpt>
      <trkpt lat="51.680730" lon="7.140795">
        <ele>49.115722</ele>
        <time>2026-05-24T06:30:04.952Z</time>
      </trkpt>
      <trkpt lat="51.680456" lon="7.141046">
        <ele>49.090941</ele>
        <time>2026-05-24T06:30:11.486Z</time>
      </trkpt>
      <trkpt lat="51.680280" lon="7.141206">
        <ele>49.059249</ele>
        <time>2026-05-24T06:30:15.810Z</time>
      </trkpt>
      <trkpt lat="51.679977" lon="7.141484">
        <ele>49.004567</ele>
        <time>2026-05-24T06:30:23.602Z</time>
      </trkpt>
      <trkpt lat="51.679774" lon="7.141670">
        <ele>48.967944</ele>
        <time>2026-05-24T06:30:29.029Z</time>
      </trkpt>
      <trkpt lat="51.678829" lon="7.142534">
        <ele>48.470243</ele>
        <time>2026-05-24T06:30:52.990Z</time>
      </trkpt>
      <trkpt lat="51.677248" lon="7.138224">
        <ele>43.863457</ele>
        <time>2026-05-24T06:31:48.665Z</time>
      </trkpt>
      <trkpt lat="51.676942" lon="7.137384">
        <ele>43.606416</ele>
        <time>2026-05-24T06:32:00.254Z</time>
      </trkpt>
      <trkpt lat="51.676742" lon="7.136953">
        <ele>43.695430</ele>
        <time>2026-05-24T06:32:07.778Z</time>
      </trkpt>
      <trkpt lat="51.676668" lon="7.136800">
        <ele>43.727515</ele>
        <time>2026-05-24T06:32:10.761Z</time>
      </trkpt>
      <trkpt lat="51.676561" lon="7.136603">
        <ele>43.770819</ele>
        <time>2026-05-24T06:32:14.906Z</time>
      </trkpt>
      <trkpt lat="51.676503" lon="7.136495">
        <ele>43.794444</ele>
        <time>2026-05-24T06:32:17.243Z</time>
      </trkpt>
      <trkpt lat="51.676401" lon="7.136314">
        <ele>43.834886</ele>
        <time>2026-05-24T06:32:21.250Z</time>
      </trkpt>
      <trkpt lat="51.676301" lon="7.136138">
        <ele>43.874359</ele>
        <time>2026-05-24T06:32:25.190Z</time>
      </trkpt>
      <trkpt lat="51.676293" lon="7.136124">
        <ele>43.877507</ele>
        <time>2026-05-24T06:32:25.496Z</time>
      </trkpt>
      <trkpt lat="51.676001" lon="7.135574">
        <ele>44.005753</ele>
        <time>2026-05-24T06:32:37.477Z</time>
      </trkpt>
      <trkpt lat="51.675918" lon="7.135420">
        <ele>44.064234</ele>
        <time>2026-05-24T06:32:40.817Z</time>
      </trkpt>
      <trkpt lat="51.675767" lon="7.135136">
        <ele>44.171460</ele>
        <time>2026-05-24T06:32:46.797Z</time>
      </trkpt>
      <trkpt lat="51.675597" lon="7.134827">
        <ele>44.289858</ele>
        <time>2026-05-24T06:32:53.168Z</time>
      </trkpt>
      <trkpt lat="51.675488" lon="7.134652">
        <ele>44.360951</ele>
        <time>2026-05-24T06:32:56.884Z</time>
      </trkpt>
      <trkpt lat="51.675315" lon="7.134329">
        <ele>44.483283</ele>
        <time>2026-05-24T06:33:02.884Z</time>
      </trkpt>
      <trkpt lat="51.675082" lon="7.133937">
        <ele>44.638919</ele>
        <time>2026-05-24T06:33:10.086Z</time>
      </trkpt>
      <trkpt lat="51.674883" lon="7.133694">
        <ele>44.754294</ele>
        <time>2026-05-24T06:33:15.535Z</time>
      </trkpt>
      <trkpt lat="51.674408" lon="7.133158">
        <ele>45.253740</ele>
        <time>2026-05-24T06:33:29.574Z</time>
      </trkpt>
      <trkpt lat="51.673002" lon="7.131548">
        <ele>46.905951</ele>
        <time>2026-05-24T06:34:16.817Z</time>
      </trkpt>
      <trkpt lat="51.671758" lon="7.130193">
        <ele>48.187726</ele>
        <time>2026-05-24T06:34:54.499Z</time>
      </trkpt>
      <trkpt lat="51.670810" lon="7.129213">
        <ele>48.888097</ele>
        <time>2026-05-24T06:35:22.993Z</time>
      </trkpt>
      <trkpt lat="51.670738" lon="7.129138">
        <ele>48.941409</ele>
        <time>2026-05-24T06:35:25.137Z</time>
      </trkpt>
      <trkpt lat="51.670368" lon="7.128760">
        <ele>49.213832</ele>
        <time>2026-05-24T06:35:35.558Z</time>
      </trkpt>
      <trkpt lat="51.670265" lon="7.128579">
        <ele>49.276465</ele>
        <time>2026-05-24T06:35:39.201Z</time>
      </trkpt>
      <trkpt lat="51.670234" lon="7.128466">
        <ele>49.291762</ele>
        <time>2026-05-24T06:35:40.959Z</time>
      </trkpt>
      <trkpt lat="51.670278" lon="7.128375">
        <ele>49.306048</ele>
        <time>2026-05-24T06:35:42.782Z</time>
      </trkpt>
      <trkpt lat="51.670286" lon="7.128260">
        <ele>49.320374</ele>
        <time>2026-05-24T06:35:44.490Z</time>
      </trkpt>
      <trkpt lat="51.670233" lon="7.128126">
        <ele>49.340050</ele>
        <time>2026-05-24T06:35:46.981Z</time>
      </trkpt>
      <trkpt lat="51.670149" lon="7.128088">
        <ele>49.357466</ele>
        <time>2026-05-24T06:35:49.092Z</time>
      </trkpt>
      <trkpt lat="51.670054" lon="7.128170">
        <ele>49.378976</ele>
        <time>2026-05-24T06:35:51.780Z</time>
      </trkpt>
      <trkpt lat="51.669889" lon="7.128142">
        <ele>49.412095</ele>
        <time>2026-05-24T06:35:55.588Z</time>
      </trkpt>
      <trkpt lat="51.669692" lon="7.128023">
        <ele>49.454090</ele>
        <time>2026-05-24T06:36:00.230Z</time>
      </trkpt>
      <trkpt lat="51.669453" lon="7.127812">
        <ele>49.508483</ele>
        <time>2026-05-24T06:36:06.079Z</time>
      </trkpt>
      <trkpt lat="51.669199" lon="7.127570">
        <ele>49.567377</ele>
        <time>2026-05-24T06:36:12.659Z</time>
      </trkpt>
      <trkpt lat="51.669055" lon="7.127495">
        <ele>49.597585</ele>
        <time>2026-05-24T06:36:16.072Z</time>
      </trkpt>
      <trkpt lat="51.668810" lon="7.127481">
        <ele>49.680722</ele>
        <time>2026-05-24T06:36:22.092Z</time>
      </trkpt>
      <trkpt lat="51.668493" lon="7.127521">
        <ele>49.827074</ele>
        <time>2026-05-24T06:36:30.064Z</time>
      </trkpt>
      <trkpt lat="51.668462" lon="7.127525">
        <ele>49.841388</ele>
        <time>2026-05-24T06:36:30.874Z</time>
      </trkpt>
      <trkpt lat="51.668329" lon="7.127538">
        <ele>49.902716</ele>
        <time>2026-05-24T06:36:34.229Z</time>
      </trkpt>
      <trkpt lat="51.668068" lon="7.127564">
        <ele>50.023075</ele>
        <time>2026-05-24T06:36:40.894Z</time>
      </trkpt>
      <trkpt lat="51.667463" lon="7.127634">
        <ele>50.302254</ele>
        <time>2026-05-24T06:36:56.721Z</time>
      </trkpt>
      <trkpt lat="51.666912" lon="7.127699">
        <ele>50.359288</ele>
        <time>2026-05-24T06:37:10.528Z</time>
      </trkpt>
      <trkpt lat="51.666751" lon="7.127713">
        <ele>50.298397</ele>
        <time>2026-05-24T06:37:14.068Z</time>
      </trkpt>
      <trkpt lat="51.666252" lon="7.127770">
        <ele>50.109474</ele>
        <time>2026-05-24T06:37:25.327Z</time>
      </trkpt>
      <trkpt lat="51.666058" lon="7.127794">
        <ele>50.035993</ele>
        <time>2026-05-24T06:37:29.862Z</time>
      </trkpt>
      <trkpt lat="51.665666" lon="7.127831">
        <ele>49.887698</ele>
        <time>2026-05-24T06:37:38.064Z</time>
      </trkpt>
      <trkpt lat="51.665725" lon="7.127611">
        <ele>49.831554</ele>
        <time>2026-05-24T06:37:41.883Z</time>
      </trkpt>
      <trkpt lat="51.665748" lon="7.127391">
        <ele>49.779294</ele>
        <time>2026-05-24T06:37:45.376Z</time>
      </trkpt>
      <trkpt lat="51.665735" lon="7.126919">
        <ele>49.719715</ele>
        <time>2026-05-24T06:37:52.634Z</time>
      </trkpt>
      <trkpt lat="51.665692" lon="7.126320">
        <ele>49.650419</ele>
        <time>2026-05-24T06:38:02.224Z</time>
      </trkpt>
      <trkpt lat="51.665587" lon="7.125799">
        <ele>49.587464</ele>
        <time>2026-05-24T06:38:12.117Z</time>
      </trkpt>
      <trkpt lat="51.665453" lon="7.125485">
        <ele>49.543664</ele>
        <time>2026-05-24T06:38:19.150Z</time>
      </trkpt>
      <trkpt lat="51.665389" lon="7.125355">
        <ele>49.524590</ele>
        <time>2026-05-24T06:38:22.225Z</time>
      </trkpt>
      <trkpt lat="51.665279" lon="7.125091">
        <ele>49.488041</ele>
        <time>2026-05-24T06:38:28.014Z</time>
      </trkpt>
      <trkpt lat="51.665220" lon="7.124934">
        <ele>49.466945</ele>
        <time>2026-05-24T06:38:31.598Z</time>
      </trkpt>
      <trkpt lat="51.664988" lon="7.124424">
        <ele>49.653577</ele>
        <time>2026-05-24T06:38:44.783Z</time>
      </trkpt>
      <trkpt lat="51.664690" lon="7.123806">
        <ele>50.126993</ele>
        <time>2026-05-24T06:39:02.027Z</time>
      </trkpt>
      <trkpt lat="51.664520" lon="7.123436">
        <ele>50.405471</ele>
        <time>2026-05-24T06:39:12.449Z</time>
      </trkpt>
      <trkpt lat="51.663961" lon="7.122395">
        <ele>51.195153</ele>
        <time>2026-05-24T06:39:40.094Z</time>
      </trkpt>
      <trkpt lat="51.663879" lon="7.122243">
        <ele>51.209426</ele>
        <time>2026-05-24T06:39:43.702Z</time>
      </trkpt>
      <trkpt lat="51.663804" lon="7.122347">
        <ele>51.220726</ele>
        <time>2026-05-24T06:39:45.880Z</time>
      </trkpt>
      <trkpt lat="51.663710" lon="7.122503">
        <ele>51.236136</ele>
        <time>2026-05-24T06:39:48.805Z</time>
      </trkpt>
      <trkpt lat="51.663585" lon="7.122702">
        <ele>51.256202</ele>
        <time>2026-05-24T06:39:52.687Z</time>
      </trkpt>
      <trkpt lat="51.663255" lon="7.123269">
        <ele>51.311292</ele>
        <time>2026-05-24T06:40:04.102Z</time>
      </trkpt>
      <trkpt lat="51.663026" lon="7.123683">
        <ele>51.350594</ele>
        <time>2026-05-24T06:40:12.331Z</time>
      </trkpt>
      <trkpt lat="51.662914" lon="7.123922">
        <ele>51.371818</ele>
        <time>2026-05-24T06:40:16.609Z</time>
      </trkpt>
      <trkpt lat="51.662748" lon="7.123796">
        <ele>51.392776</ele>
        <time>2026-05-24T06:40:21.932Z</time>
      </trkpt>
      <trkpt lat="51.662563" lon="7.123663">
        <ele>51.436484</ele>
        <time>2026-05-24T06:40:27.774Z</time>
      </trkpt>
      <trkpt lat="51.662369" lon="7.123488">
        <ele>51.486726</ele>
        <time>2026-05-24T06:40:34.370Z</time>
      </trkpt>
      <trkpt lat="51.662334" lon="7.123435">
        <ele>51.497578</ele>
        <time>2026-05-24T06:40:35.815Z</time>
      </trkpt>
      <trkpt lat="51.662271" lon="7.123029">
        <ele>51.556249</ele>
        <time>2026-05-24T06:40:44.037Z</time>
      </trkpt>
      <trkpt lat="51.662174" lon="7.122948">
        <ele>51.580938</ele>
        <time>2026-05-24T06:40:47.558Z</time>
      </trkpt>
      <trkpt lat="51.661778" lon="7.123125">
        <ele>51.673812</ele>
        <time>2026-05-24T06:41:00.249Z</time>
      </trkpt>
      <trkpt lat="51.661666" lon="7.123077">
        <ele>51.700003</ele>
        <time>2026-05-24T06:41:03.675Z</time>
      </trkpt>
      <trkpt lat="51.661624" lon="7.123113">
        <ele>51.710754</ele>
        <time>2026-05-24T06:41:05.032Z</time>
      </trkpt>
      <trkpt lat="51.661558" lon="7.123168">
        <ele>51.727545</ele>
        <time>2026-05-24T06:41:07.809Z</time>
      </trkpt>
      <trkpt lat="51.661422" lon="7.123283">
        <ele>51.762253</ele>
        <time>2026-05-24T06:41:13.355Z</time>
      </trkpt>
      <trkpt lat="51.661147" lon="7.123435">
        <ele>51.858080</ele>
        <time>2026-05-24T06:41:24.032Z</time>
      </trkpt>
      <trkpt lat="51.661000" lon="7.123516">
        <ele>51.933007</ele>
        <time>2026-05-24T06:41:29.871Z</time>
      </trkpt>
      <trkpt lat="51.660974" lon="7.123499">
        <ele>51.946539</ele>
        <time>2026-05-24T06:41:30.919Z</time>
      </trkpt>
      <trkpt lat="51.660694" lon="7.123465">
        <ele>52.081968</ele>
        <time>2026-05-24T06:41:37.772Z</time>
      </trkpt>
      <trkpt lat="51.660165" lon="7.123331">
        <ele>52.340240</ele>
        <time>2026-05-24T06:41:51.110Z</time>
      </trkpt>
      <trkpt lat="51.660064" lon="7.123278">
        <ele>52.391469</ele>
        <time>2026-05-24T06:41:53.657Z</time>
      </trkpt>
      <trkpt lat="51.659920" lon="7.123306">
        <ele>52.461425</ele>
        <time>2026-05-24T06:41:57.142Z</time>
      </trkpt>
      <trkpt lat="51.659617" lon="7.123236">
        <ele>52.609058</ele>
        <time>2026-05-24T06:42:04.614Z</time>
      </trkpt>
      <trkpt lat="51.659539" lon="7.123212">
        <ele>52.647357</ele>
        <time>2026-05-24T06:42:06.635Z</time>
      </trkpt>
      <trkpt lat="51.659491" lon="7.123197">
        <ele>52.673727</ele>
        <time>2026-05-24T06:42:07.858Z</time>
      </trkpt>
      <trkpt lat="51.658760" lon="7.122923">
        <ele>53.529564</ele>
        <time>2026-05-24T06:42:26.717Z</time>
      </trkpt>
      <trkpt lat="51.657847" lon="7.122470">
        <ele>54.618909</ele>
        <time>2026-05-24T06:42:52.656Z</time>
      </trkpt>
      <trkpt lat="51.657189" lon="7.122054">
        <ele>55.999586</ele>
        <time>2026-05-24T06:43:14.125Z</time>
      </trkpt>
      <trkpt lat="51.656723" lon="7.121704">
        <ele>57.063780</ele>
        <time>2026-05-24T06:43:30.623Z</time>
      </trkpt>
      <trkpt lat="51.656541" lon="7.121586">
        <ele>57.469854</ele>
        <time>2026-05-24T06:43:36.944Z</time>
      </trkpt>
      <trkpt lat="51.655248" lon="7.120791">
        <ele>60.023709</ele>
        <time>2026-05-24T06:44:18.787Z</time>
      </trkpt>
      <trkpt lat="51.654846" lon="7.120581">
        <ele>60.754727</ele>
        <time>2026-05-24T06:44:30.766Z</time>
      </trkpt>
      <trkpt lat="51.652898" lon="7.119812">
        <ele>63.377423</ele>
        <time>2026-05-24T06:45:25.557Z</time>
      </trkpt>
      <trkpt lat="51.652887" lon="7.119701">
        <ele>63.459800</ele>
        <time>2026-05-24T06:45:27.383Z</time>
      </trkpt>
      <trkpt lat="51.652833" lon="7.119629">
        <ele>63.542581</ele>
        <time>2026-05-24T06:45:29.199Z</time>
      </trkpt>
      <trkpt lat="51.652768" lon="7.119630">
        <ele>63.619363</ele>
        <time>2026-05-24T06:45:30.899Z</time>
      </trkpt>
      <trkpt lat="51.652704" lon="7.119745">
        <ele>63.711942</ele>
        <time>2026-05-24T06:45:33.359Z</time>
      </trkpt>
      <trkpt lat="51.652458" lon="7.119679">
        <ele>63.892674</ele>
        <time>2026-05-24T06:45:39.717Z</time>
      </trkpt>
      <trkpt lat="51.652096" lon="7.119528">
        <ele>64.163662</ele>
        <time>2026-05-24T06:45:49.147Z</time>
      </trkpt>
      <trkpt lat="51.652063" lon="7.119516">
        <ele>64.188178</ele>
        <time>2026-05-24T06:45:50.005Z</time>
      </trkpt>
      <trkpt lat="51.651853" lon="7.119437">
        <ele>64.344458</ele>
        <time>2026-05-24T06:45:55.400Z</time>
      </trkpt>
      <trkpt lat="51.651432" lon="7.119279">
        <ele>64.657723</ele>
        <time>2026-05-24T06:46:06.119Z</time>
      </trkpt>
      <trkpt lat="51.650959" lon="7.119101">
        <ele>65.024673</ele>
        <time>2026-05-24T06:46:17.931Z</time>
      </trkpt>
      <trkpt lat="51.650810" lon="7.119048">
        <ele>65.196324</ele>
        <time>2026-05-24T06:46:21.709Z</time>
      </trkpt>
      <trkpt lat="51.650346" lon="7.118873">
        <ele>65.732402</ele>
        <time>2026-05-24T06:46:33.852Z</time>
      </trkpt>
      <trkpt lat="51.650153" lon="7.118800">
        <ele>65.955416</ele>
        <time>2026-05-24T06:46:39.035Z</time>
      </trkpt>
      <trkpt lat="51.649525" lon="7.118562">
        <ele>66.681153</ele>
        <time>2026-05-24T06:46:56.796Z</time>
      </trkpt>
      <trkpt lat="51.648977" lon="7.118380">
        <ele>67.377068</ele>
        <time>2026-05-24T06:47:12.951Z</time>
      </trkpt>
      <trkpt lat="51.648898" lon="7.118353">
        <ele>67.487751</ele>
        <time>2026-05-24T06:47:15.308Z</time>
      </trkpt>
      <trkpt lat="51.648456" lon="7.118241">
        <ele>68.100986</ele>
        <time>2026-05-24T06:47:28.205Z</time>
      </trkpt>
      <trkpt lat="51.648333" lon="7.118209">
        <ele>68.271749</ele>
        <time>2026-05-24T06:47:31.769Z</time>
      </trkpt>
      <trkpt lat="51.648198" lon="7.118174">
        <ele>68.459155</ele>
        <time>2026-05-24T06:47:35.625Z</time>
      </trkpt>
      <trkpt lat="51.647887" lon="7.118091">
        <ele>68.891209</ele>
        <time>2026-05-24T06:47:44.445Z</time>
      </trkpt>
      <trkpt lat="51.647446" lon="7.117973">
        <ele>69.491634</ele>
        <time>2026-05-24T06:47:56.301Z</time>
      </trkpt>
      <trkpt lat="51.646302" lon="7.117676">
        <ele>70.483350</ele>
        <time>2026-05-24T06:48:25.272Z</time>
      </trkpt>
      <trkpt lat="51.645300" lon="7.117407">
        <ele>71.377425</ele>
        <time>2026-05-24T06:48:51.947Z</time>
      </trkpt>
      <trkpt lat="51.644062" lon="7.116997">
        <ele>72.537184</ele>
        <time>2026-05-24T06:49:24.585Z</time>
      </trkpt>
      <trkpt lat="51.643590" lon="7.116774">
        <ele>73.001368</ele>
        <time>2026-05-24T06:49:36.964Z</time>
      </trkpt>
      <trkpt lat="51.639891" lon="7.114749">
        <ele>76.902782</ele>
        <time>2026-05-24T06:51:19.703Z</time>
      </trkpt>
      <trkpt lat="51.639709" lon="7.114674">
        <ele>77.095797</ele>
        <time>2026-05-24T06:51:24.471Z</time>
      </trkpt>
      <trkpt lat="51.639296" lon="7.114505">
        <ele>77.533606</ele>
        <time>2026-05-24T06:51:35.439Z</time>
      </trkpt>
      <trkpt lat="51.638817" lon="7.114350">
        <ele>78.035584</ele>
        <time>2026-05-24T06:51:48.201Z</time>
      </trkpt>
      <trkpt lat="51.636901" lon="7.113730">
        <ele>80.481500</ele>
        <time>2026-05-24T06:52:43.641Z</time>
      </trkpt>
      <trkpt lat="51.636538" lon="7.113608">
        <ele>80.475219</ele>
        <time>2026-05-24T06:52:52.459Z</time>
      </trkpt>
      <trkpt lat="51.636623" lon="7.113136">
        <ele>80.470052</ele>
        <time>2026-05-24T06:52:59.234Z</time>
      </trkpt>
      <trkpt lat="51.636727" lon="7.112556">
        <ele>80.463704</ele>
        <time>2026-05-24T06:53:07.155Z</time>
      </trkpt>
      <trkpt lat="51.636799" lon="7.112045">
        <ele>80.458195</ele>
        <time>2026-05-24T06:53:13.681Z</time>
      </trkpt>
      <trkpt lat="51.636291" lon="7.111836">
        <ele>80.510743</ele>
        <time>2026-05-24T06:53:23.514Z</time>
      </trkpt>
      <trkpt lat="51.636248" lon="7.111827">
        <ele>80.521736</ele>
        <time>2026-05-24T06:53:24.426Z</time>
      </trkpt>
      <trkpt lat="51.634847" lon="7.111529">
        <ele>80.880020</ele>
        <time>2026-05-24T06:53:58.766Z</time>
      </trkpt>
      <trkpt lat="51.634197" lon="7.111394">
        <ele>81.268757</ele>
        <time>2026-05-24T06:54:15.409Z</time>
      </trkpt>
      <trkpt lat="51.634100" lon="7.111344">
        <ele>81.336527</ele>
        <time>2026-05-24T06:54:17.991Z</time>
      </trkpt>
      <trkpt lat="51.633992" lon="7.111227">
        <ele>81.423129</ele>
        <time>2026-05-24T06:54:21.283Z</time>
      </trkpt>
      <trkpt lat="51.633945" lon="7.111086">
        <ele>81.489232</ele>
        <time>2026-05-24T06:54:23.761Z</time>
      </trkpt>
      <trkpt lat="51.633647" lon="7.109596">
        <ele>82.142738</ele>
        <time>2026-05-24T06:54:47.779Z</time>
      </trkpt>
      <trkpt lat="51.633517" lon="7.109460">
        <ele>82.269950</ele>
        <time>2026-05-24T06:54:51.634Z</time>
      </trkpt>
      <trkpt lat="51.633369" lon="7.109377">
        <ele>82.398564</ele>
        <time>2026-05-24T06:54:55.576Z</time>
      </trkpt>
      <trkpt lat="51.632563" lon="7.109420">
        <ele>83.060423</ele>
        <time>2026-05-24T06:55:16.689Z</time>
      </trkpt>
      <trkpt lat="51.631433" lon="7.109538">
        <ele>83.672522</ele>
        <time>2026-05-24T06:55:45.562Z</time>
      </trkpt>
      <trkpt lat="51.631401" lon="7.109542">
        <ele>83.678358</ele>
        <time>2026-05-24T06:55:46.273Z</time>
      </trkpt>
      <trkpt lat="51.631259" lon="7.108321">
        <ele>83.818570</ele>
        <time>2026-05-24T06:56:03.264Z</time>
      </trkpt>
      <trkpt lat="51.631215" lon="7.108112">
        <ele>83.843480</ele>
        <time>2026-05-24T06:56:06.121Z</time>
      </trkpt>
      <trkpt lat="51.631152" lon="7.107957">
        <ele>83.864392</ele>
        <time>2026-05-24T06:56:08.501Z</time>
      </trkpt>
      <trkpt lat="51.630813" lon="7.107502">
        <ele>84.002129</ele>
        <time>2026-05-24T06:56:17.773Z</time>
      </trkpt>
      <trkpt lat="51.630226" lon="7.107052">
        <ele>84.312684</ele>
        <time>2026-05-24T06:56:32.807Z</time>
      </trkpt>
      <trkpt lat="51.628565" lon="7.105323">
        <ele>85.202619</ele>
        <time>2026-05-24T06:57:23.865Z</time>
      </trkpt>
      <trkpt lat="51.628539" lon="7.105245">
        <ele>85.225930</ele>
        <time>2026-05-24T06:57:25.132Z</time>
      </trkpt>
      <trkpt lat="51.627917" lon="7.103404">
        <ele>85.446887</ele>
        <time>2026-05-24T06:57:53.172Z</time>
      </trkpt>
      <trkpt lat="51.626954" lon="7.100801">
        <ele>85.121660</ele>
        <time>2026-05-24T06:58:34.059Z</time>
      </trkpt>
      <trkpt lat="51.626625" lon="7.100020">
        <ele>84.991034</ele>
        <time>2026-05-24T06:58:46.751Z</time>
      </trkpt>
      <trkpt lat="51.626072" lon="7.098955">
        <ele>84.675901</ele>
        <time>2026-05-24T06:59:04.741Z</time>
      </trkpt>
      <trkpt lat="51.625080" lon="7.097322">
        <ele>83.801392</ele>
        <time>2026-05-24T06:59:33.064Z</time>
      </trkpt>
      <trkpt lat="51.624785" lon="7.096847">
        <ele>83.730291</ele>
        <time>2026-05-24T06:59:41.228Z</time>
      </trkpt>
      <trkpt lat="51.624038" lon="7.095411">
        <ele>83.632833</ele>
        <time>2026-05-24T07:00:06.802Z</time>
      </trkpt>
      <trkpt lat="51.623719" lon="7.094733">
        <ele>83.667129</ele>
        <time>2026-05-24T07:00:20.045Z</time>
      </trkpt>
      <trkpt lat="51.623575" lon="7.094744">
        <ele>83.701874</ele>
        <time>2026-05-24T07:00:23.801Z</time>
      </trkpt>
      <trkpt lat="51.623571" lon="7.094872">
        <ele>83.721051</ele>
        <time>2026-05-24T07:00:25.864Z</time>
      </trkpt>
      <trkpt lat="51.623520" lon="7.094891">
        <ele>83.733667</ele>
        <time>2026-05-24T07:00:28.074Z</time>
      </trkpt>
      <trkpt lat="51.623610" lon="7.092949">
        <ele>84.025055</ele>
        <time>2026-05-24T07:00:56.878Z</time>
      </trkpt>
      <trkpt lat="51.623657" lon="7.092070">
        <ele>83.296062</ele>
        <time>2026-05-24T07:01:07.445Z</time>
      </trkpt>
      <trkpt lat="51.623986" lon="7.088529">
        <ele>79.417776</ele>
        <time>2026-05-24T07:01:46.536Z</time>
      </trkpt>
      <trkpt lat="51.623933" lon="7.087797">
        <ele>78.500578</ele>
        <time>2026-05-24T07:01:54.476Z</time>
      </trkpt>
      <trkpt lat="51.623647" lon="7.086633">
        <ele>77.273849</ele>
        <time>2026-05-24T07:02:08.188Z</time>
      </trkpt>
      <trkpt lat="51.623458" lon="7.085983">
        <ele>76.819613</ele>
        <time>2026-05-24T07:02:16.487Z</time>
      </trkpt>
      <trkpt lat="51.623385" lon="7.085877">
        <ele>76.719426</ele>
        <time>2026-05-24T07:02:18.348Z</time>
      </trkpt>
      <trkpt lat="51.623255" lon="7.085857">
        <ele>76.586304</ele>
        <time>2026-05-24T07:02:20.899Z</time>
      </trkpt>
      <trkpt lat="51.623261" lon="7.085730">
        <ele>76.505699</ele>
        <time>2026-05-24T07:02:22.454Z</time>
      </trkpt>
      <trkpt lat="51.623270" lon="7.085566">
        <ele>76.401506</ele>
        <time>2026-05-24T07:02:24.480Z</time>
      </trkpt>
      <trkpt lat="51.622628" lon="7.085421">
        <ele>75.763054</ele>
        <time>2026-05-24T07:02:37.936Z</time>
      </trkpt>
      <trkpt lat="51.621921" lon="7.085235">
        <ele>75.418159</ele>
        <time>2026-05-24T07:02:53.462Z</time>
      </trkpt>
      <trkpt lat="51.621052" lon="7.084794">
        <ele>74.979506</ele>
        <time>2026-05-24T07:03:12.222Z</time>
      </trkpt>
      <trkpt lat="51.617157" lon="7.082773">
        <ele>71.405419</ele>
        <time>2026-05-24T07:04:31.687Z</time>
      </trkpt>
      <trkpt lat="51.616908" lon="7.082687">
        <ele>71.227588</ele>
        <time>2026-05-24T07:04:36.898Z</time>
      </trkpt>
      <trkpt lat="51.616636" lon="7.082464">
        <ele>71.014454</ele>
        <time>2026-05-24T07:04:43.138Z</time>
      </trkpt>
      <trkpt lat="51.616604" lon="7.082408">
        <ele>70.981456</ele>
        <time>2026-05-24T07:04:44.105Z</time>
      </trkpt>
      <trkpt lat="51.616559" lon="7.082448">
        <ele>70.945563</ele>
        <time>2026-05-24T07:04:45.152Z</time>
      </trkpt>
      <trkpt lat="51.616521" lon="7.082472">
        <ele>70.917060</ele>
        <time>2026-05-24T07:04:45.999Z</time>
      </trkpt>
      <trkpt lat="51.616499" lon="7.082435">
        <ele>70.894848</ele>
        <time>2026-05-24T07:04:46.870Z</time>
      </trkpt>
      <trkpt lat="51.616441" lon="7.082394">
        <ele>70.850617</ele>
        <time>2026-05-24T07:04:48.594Z</time>
      </trkpt>
      <trkpt lat="51.616425" lon="7.082382">
        <ele>70.838292</ele>
        <time>2026-05-24T07:04:48.967Z</time>
      </trkpt>
      <trkpt lat="51.616381" lon="7.082563">
        <ele>70.754011</ele>
        <time>2026-05-24T07:04:51.458Z</time>
      </trkpt>
      <trkpt lat="51.616244" lon="7.082499">
        <ele>70.654400</ele>
        <time>2026-05-24T07:04:54.401Z</time>
      </trkpt>
      <trkpt lat="51.615722" lon="7.082230">
        <ele>70.147276</ele>
        <time>2026-05-24T07:05:05.493Z</time>
      </trkpt>
      <trkpt lat="51.614498" lon="7.081567">
        <ele>68.400956</ele>
        <time>2026-05-24T07:05:29.897Z</time>
      </trkpt>
      <trkpt lat="51.613373" lon="7.081014">
        <ele>66.052094</ele>
        <time>2026-05-24T07:05:50.068Z</time>
      </trkpt>
      <trkpt lat="51.613286" lon="7.080972">
        <ele>65.849118</ele>
        <time>2026-05-24T07:05:51.566Z</time>
      </trkpt>
      <trkpt lat="51.613314" lon="7.080861">
        <ele>65.682856</ele>
        <time>2026-05-24T07:05:52.797Z</time>
      </trkpt>
      <trkpt lat="51.613273" lon="7.080842">
        <ele>65.587511</ele>
        <time>2026-05-24T07:05:53.505Z</time>
      </trkpt>
      <trkpt lat="51.612106" lon="7.080266">
        <ele>63.753967</ele>
        <time>2026-05-24T07:06:14.642Z</time>
      </trkpt>
      <trkpt lat="51.612017" lon="7.080228">
        <ele>63.716562</ele>
        <time>2026-05-24T07:06:16.495Z</time>
      </trkpt>
      <trkpt lat="51.611946" lon="7.080156">
        <ele>63.682477</ele>
        <time>2026-05-24T07:06:18.150Z</time>
      </trkpt>
      <trkpt lat="51.611918" lon="7.080170">
        <ele>63.670567</ele>
        <time>2026-05-24T07:06:18.764Z</time>
      </trkpt>
      <trkpt lat="51.611833" lon="7.080211">
        <ele>63.634521</ele>
        <time>2026-05-24T07:06:21.239Z</time>
      </trkpt>
      <trkpt lat="51.611708" lon="7.079983">
        <ele>63.557796</ele>
        <time>2026-05-24T07:06:25.312Z</time>
      </trkpt>
      <trkpt lat="51.611374" lon="7.079620">
        <ele>63.394103</ele>
        <time>2026-05-24T07:06:35.275Z</time>
      </trkpt>
      <trkpt lat="51.610873" lon="7.079099">
        <ele>63.344797</ele>
        <time>2026-05-24T07:06:51.709Z</time>
      </trkpt>
      <trkpt lat="51.610144" lon="7.078398">
        <ele>63.949053</ele>
        <time>2026-05-24T07:07:14.705Z</time>
      </trkpt>
      <trkpt lat="51.609943" lon="7.078208">
        <ele>64.114920</ele>
        <time>2026-05-24T07:07:20.873Z</time>
      </trkpt>
      <trkpt lat="51.609508" lon="7.077798">
        <ele>64.473621</ele>
        <time>2026-05-24T07:07:33.326Z</time>
      </trkpt>
      <trkpt lat="51.609264" lon="7.077566">
        <ele>64.520588</ele>
        <time>2026-05-24T07:07:39.890Z</time>
      </trkpt>
      <trkpt lat="51.608976" lon="7.077299">
        <ele>64.546001</ele>
        <time>2026-05-24T07:07:47.466Z</time>
      </trkpt>
      <trkpt lat="51.608886" lon="7.077216">
        <ele>64.553933</ele>
        <time>2026-05-24T07:07:49.875Z</time>
      </trkpt>
      <trkpt lat="51.608856" lon="7.077188">
        <ele>64.556585</ele>
        <time>2026-05-24T07:07:50.691Z</time>
      </trkpt>
      <trkpt lat="51.608823" lon="7.077157">
        <ele>64.559506</ele>
        <time>2026-05-24T07:07:51.576Z</time>
      </trkpt>
      <trkpt lat="51.608559" lon="7.076902">
        <ele>64.583049</ele>
        <time>2026-05-24T07:07:58.855Z</time>
      </trkpt>
      <trkpt lat="51.607579" lon="7.075969">
        <ele>64.785432</ele>
        <time>2026-05-24T07:08:25.347Z</time>
      </trkpt>
      <trkpt lat="51.607563" lon="7.075954">
        <ele>64.792184</ele>
        <time>2026-05-24T07:08:25.801Z</time>
      </trkpt>
      <trkpt lat="51.606859" lon="7.075300">
        <ele>65.088574</ele>
        <time>2026-05-24T07:08:46.382Z</time>
      </trkpt>
      <trkpt lat="51.606664" lon="7.075111">
        <ele>65.171573</ele>
        <time>2026-05-24T07:08:52.160Z</time>
      </trkpt>
      <trkpt lat="51.605991" lon="7.074472">
        <ele>65.316147</ele>
        <time>2026-05-24T07:09:10.520Z</time>
      </trkpt>
      <trkpt lat="51.605844" lon="7.074333">
        <ele>65.324146</ele>
        <time>2026-05-24T07:09:14.378Z</time>
      </trkpt>
      <trkpt lat="51.605820" lon="7.074309">
        <ele>65.325472</ele>
        <time>2026-05-24T07:09:15.022Z</time>
      </trkpt>
      <trkpt lat="51.604490" lon="7.073051">
        <ele>65.520779</ele>
        <time>2026-05-24T07:09:49.953Z</time>
      </trkpt>
      <trkpt lat="51.603866" lon="7.072467">
        <ele>65.785528</ele>
        <time>2026-05-24T07:10:07.522Z</time>
      </trkpt>
      <trkpt lat="51.603452" lon="7.072075">
        <ele>65.961702</ele>
        <time>2026-05-24T07:10:20.075Z</time>
      </trkpt>
      <trkpt lat="51.602245" lon="7.070911">
        <ele>67.001229</ele>
        <time>2026-05-24T07:10:57.753Z</time>
      </trkpt>
      <trkpt lat="51.601716" lon="7.070443">
        <ele>67.487110</ele>
        <time>2026-05-24T07:11:13.484Z</time>
      </trkpt>
      <trkpt lat="51.600886" lon="7.069710">
        <ele>68.049549</ele>
        <time>2026-05-24T07:11:37.632Z</time>
      </trkpt>
      <trkpt lat="51.599618" lon="7.068503">
        <ele>68.793277</ele>
        <time>2026-05-24T07:12:15.046Z</time>
      </trkpt>
      <trkpt lat="51.598832" lon="7.067769">
        <ele>69.140807</ele>
        <time>2026-05-24T07:12:36.878Z</time>
      </trkpt>
      <trkpt lat="51.598169" lon="7.067126">
        <ele>69.626063</ele>
        <time>2026-05-24T07:12:56.162Z</time>
      </trkpt>
      <trkpt lat="51.598061" lon="7.067015">
        <ele>69.723107</ele>
        <time>2026-05-24T07:12:59.439Z</time>
      </trkpt>
      <trkpt lat="51.597633" lon="7.066568">
        <ele>70.109499</ele>
        <time>2026-05-24T07:13:12.978Z</time>
      </trkpt>
      <trkpt lat="51.597229" lon="7.066207">
        <ele>70.459451</ele>
        <time>2026-05-24T07:13:25.599Z</time>
      </trkpt>
      <trkpt lat="51.596752" lon="7.065784">
        <ele>70.833223</ele>
        <time>2026-05-24T07:13:40.382Z</time>
      </trkpt>
      <trkpt lat="51.596208" lon="7.065311">
        <ele>71.233364</ele>
        <time>2026-05-24T07:13:56.475Z</time>
      </trkpt>
      <trkpt lat="51.595056" lon="7.064247">
        <ele>72.046914</ele>
        <time>2026-05-24T07:14:29.702Z</time>
      </trkpt>
      <trkpt lat="51.594617" lon="7.063680">
        <ele>72.359263</ele>
        <time>2026-05-24T07:14:43.511Z</time>
      </trkpt>
      <trkpt lat="51.594295" lon="7.063235">
        <ele>72.594778</ele>
        <time>2026-05-24T07:14:53.959Z</time>
      </trkpt>
      <trkpt lat="51.593976" lon="7.062617">
        <ele>72.935771</ele>
        <time>2026-05-24T07:15:07.075Z</time>
      </trkpt>
      <trkpt lat="51.593623" lon="7.061753">
        <ele>73.512614</ele>
        <time>2026-05-24T07:15:25.868Z</time>
      </trkpt>
      <trkpt lat="51.593491" lon="7.061481">
        <ele>73.705149</ele>
        <time>2026-05-24T07:15:32.327Z</time>
      </trkpt>
      <trkpt lat="51.593227" lon="7.061063">
        <ele>74.037657</ele>
        <time>2026-05-24T07:15:42.794Z</time>
      </trkpt>
      <trkpt lat="51.593022" lon="7.060569">
        <ele>74.369047</ele>
        <time>2026-05-24T07:15:52.249Z</time>
      </trkpt>
      <trkpt lat="51.592881" lon="7.060112">
        <ele>73.802979</ele>
        <time>2026-05-24T07:15:59.481Z</time>
      </trkpt>
      <trkpt lat="51.592594" lon="7.058345">
        <ele>71.616431</ele>
        <time>2026-05-24T07:16:19.898Z</time>
      </trkpt>
      <trkpt lat="51.592581" lon="7.058267">
        <ele>71.519748</ele>
        <time>2026-05-24T07:16:20.745Z</time>
      </trkpt>
      <trkpt lat="51.592504" lon="7.057805">
        <ele>70.947083</ele>
        <time>2026-05-24T07:16:25.783Z</time>
      </trkpt>
      <trkpt lat="51.592473" lon="7.057615">
        <ele>70.650966</ele>
        <time>2026-05-24T07:16:27.868Z</time>
      </trkpt>
      <trkpt lat="51.592275" lon="7.056421">
        <ele>68.732222</ele>
        <time>2026-05-24T07:16:41.152Z</time>
      </trkpt>
      <trkpt lat="51.592068" lon="7.055138">
        <ele>66.674113</ele>
        <time>2026-05-24T07:16:56.175Z</time>
      </trkpt>
      <trkpt lat="51.592027" lon="7.054872">
        <ele>66.316060</ele>
        <time>2026-05-24T07:16:59.343Z</time>
      </trkpt>
      <trkpt lat="51.591893" lon="7.054049">
        <ele>65.509040</ele>
        <time>2026-05-24T07:17:09.320Z</time>
      </trkpt>
      <trkpt lat="51.591763" lon="7.053255">
        <ele>64.730174</ele>
        <time>2026-05-24T07:17:19.435Z</time>
      </trkpt>
      <trkpt lat="51.591693" lon="7.052782">
        <ele>64.268955</ele>
        <time>2026-05-24T07:17:25.536Z</time>
      </trkpt>
      <trkpt lat="51.591684" lon="7.052278">
        <ele>63.790686</ele>
        <time>2026-05-24T07:17:31.614Z</time>
      </trkpt>
      <trkpt lat="51.591734" lon="7.051772">
        <ele>63.003035</ele>
        <time>2026-05-24T07:17:37.568Z</time>
      </trkpt>
      <trkpt lat="51.591747" lon="7.051637">
        <ele>62.768122</ele>
        <time>2026-05-24T07:17:39.128Z</time>
      </trkpt>
      <trkpt lat="51.591780" lon="7.051430">
        <ele>62.400641</ele>
        <time>2026-05-24T07:17:41.550Z</time>
      </trkpt>
      <trkpt lat="51.591793" lon="7.051290">
        <ele>62.157229</ele>
        <time>2026-05-24T07:17:43.074Z</time>
      </trkpt>
      <trkpt lat="51.591850" lon="7.050666">
        <ele>61.072690</ele>
        <time>2026-05-24T07:17:49.723Z</time>
      </trkpt>
      <trkpt lat="51.591943" lon="7.049907">
        <ele>59.742407</ele>
        <time>2026-05-24T07:17:57.541Z</time>
      </trkpt>
      <trkpt lat="51.592035" lon="7.049086">
        <ele>58.328047</ele>
        <time>2026-05-24T07:18:05.707Z</time>
      </trkpt>
      <trkpt lat="51.592100" lon="7.048245">
        <ele>56.946224</ele>
        <time>2026-05-24T07:18:14.015Z</time>
      </trkpt>
      <trkpt lat="51.592020" lon="7.047269">
        <ele>55.341062</ele>
        <time>2026-05-24T07:18:24.125Z</time>
      </trkpt>
      <trkpt lat="51.591938" lon="7.046750">
        <ele>54.467893</ele>
        <time>2026-05-24T07:18:30.318Z</time>
      </trkpt>
      <trkpt lat="51.591770" lon="7.046327">
        <ele>54.040007</ele>
        <time>2026-05-24T07:18:36.567Z</time>
      </trkpt>
      <trkpt lat="51.590545" lon="7.044569">
        <ele>54.870776</ele>
        <time>2026-05-24T07:19:19.722Z</time>
      </trkpt>
      <trkpt lat="51.590247" lon="7.045070">
        <ele>55.503155</ele>
        <time>2026-05-24T07:19:31.993Z</time>
      </trkpt>
      <trkpt lat="51.590032" lon="7.045414">
        <ele>55.971936</ele>
        <time>2026-05-24T07:19:40.681Z</time>
      </trkpt>
      <trkpt lat="51.589891" lon="7.045637">
        <ele>56.277613</ele>
        <time>2026-05-24T07:19:46.326Z</time>
      </trkpt>
      <trkpt lat="51.589719" lon="7.045060">
        <ele>56.892457</ele>
        <time>2026-05-24T07:19:57.956Z</time>
      </trkpt>
      <trkpt lat="51.589691" lon="7.044954">
        <ele>57.003117</ele>
        <time>2026-05-24T07:20:00.053Z</time>
      </trkpt>
      <trkpt lat="51.589565" lon="7.044481">
        <ele>57.497551</ele>
        <time>2026-05-24T07:20:09.637Z</time>
      </trkpt>
      <trkpt lat="51.589512" lon="7.044301">
        <ele>57.693310</ele>
        <time>2026-05-24T07:20:13.435Z</time>
      </trkpt>
      <trkpt lat="51.589241" lon="7.043339">
        <ele>58.927696</ele>
        <time>2026-05-24T07:20:34.151Z</time>
      </trkpt>
      <trkpt lat="51.588732" lon="7.041554">
        <ele>61.124279</ele>
        <time>2026-05-24T07:21:12.196Z</time>
      </trkpt>
      <trkpt lat="51.588565" lon="7.040956">
        <ele>61.448740</ele>
        <time>2026-05-24T07:21:23.381Z</time>
      </trkpt>
      <trkpt lat="51.588430" lon="7.040697">
        <ele>61.616048</ele>
        <time>2026-05-24T07:21:28.742Z</time>
      </trkpt>
      <trkpt lat="51.588624" lon="7.040343">
        <ele>61.849649</ele>
        <time>2026-05-24T07:21:35.550Z</time>
      </trkpt>
      <trkpt lat="51.589194" lon="7.039303">
        <ele>62.545896</ele>
        <time>2026-05-24T07:21:55.761Z</time>
      </trkpt>
      <trkpt lat="51.588682" lon="7.038170">
        <ele>63.373009</ele>
        <time>2026-05-24T07:22:19.463Z</time>
      </trkpt>
      <trkpt lat="51.588558" lon="7.037862">
        <ele>63.589684</ele>
        <time>2026-05-24T07:22:25.988Z</time>
      </trkpt>
      <trkpt lat="51.588335" lon="7.037482">
        <ele>63.898282</ele>
        <time>2026-05-24T07:22:34.882Z</time>
      </trkpt>
      <trkpt lat="51.588107" lon="7.037186">
        <ele>64.176628</ele>
        <time>2026-05-24T07:22:42.360Z</time>
      </trkpt>
      <trkpt lat="51.587845" lon="7.036932">
        <ele>64.157093</ele>
        <time>2026-05-24T07:22:49.473Z</time>
      </trkpt>
      <trkpt lat="51.587502" lon="7.036738">
        <ele>64.111009</ele>
        <time>2026-05-24T07:22:57.119Z</time>
      </trkpt>
      <trkpt lat="51.587414" lon="7.036693">
        <ele>64.099305</ele>
        <time>2026-05-24T07:22:58.987Z</time>
      </trkpt>
      <trkpt lat="51.587453" lon="7.036395">
        <ele>64.075321</ele>
        <time>2026-05-24T07:23:03.019Z</time>
      </trkpt>
      <trkpt lat="51.587518" lon="7.035480">
        <ele>64.002789</ele>
        <time>2026-05-24T07:23:15.258Z</time>
      </trkpt>
      <trkpt lat="51.587542" lon="7.035059">
        <ele>63.969494</ele>
        <time>2026-05-24T07:23:21.149Z</time>
      </trkpt>
      <trkpt lat="51.587541" lon="7.034217">
        <ele>64.013209</ele>
        <time>2026-05-24T07:23:33.382Z</time>
      </trkpt>
      <trkpt lat="51.587424" lon="7.034219">
        <ele>64.024517</ele>
        <time>2026-05-24T07:23:36.847Z</time>
      </trkpt>
      <trkpt lat="51.587250" lon="7.034220">
        <ele>64.041334</ele>
        <time>2026-05-24T07:23:42.088Z</time>
      </trkpt>
      <trkpt lat="51.587193" lon="7.033483">
        <ele>64.085933</ele>
        <time>2026-05-24T07:23:54.025Z</time>
      </trkpt>
      <trkpt lat="51.587086" lon="7.032986">
        <ele>64.117518</ele>
        <time>2026-05-24T07:24:02.231Z</time>
      </trkpt>
      <trkpt lat="51.586998" lon="7.032644">
        <ele>64.142292</ele>
        <time>2026-05-24T07:24:07.899Z</time>
      </trkpt>
      <trkpt lat="51.586881" lon="7.032423">
        <ele>64.306808</ele>
        <time>2026-05-24T07:24:12.374Z</time>
      </trkpt>
      <trkpt lat="51.586774" lon="7.032311">
        <ele>64.423209</ele>
        <time>2026-05-24T07:24:15.571Z</time>
      </trkpt>
      <trkpt lat="51.586533" lon="7.032210">
        <ele>64.650319</ele>
        <time>2026-05-24T07:24:21.955Z</time>
      </trkpt>
      <trkpt lat="51.586232" lon="7.032322">
        <ele>64.932059</ele>
        <time>2026-05-24T07:24:30.241Z</time>
      </trkpt>
      <trkpt lat="51.585587" lon="7.031928">
        <ele>65.561213</ele>
        <time>2026-05-24T07:24:51.006Z</time>
      </trkpt>
      <trkpt lat="51.585194" lon="7.031853">
        <ele>66.002318</ele>
        <time>2026-05-24T07:25:03.729Z</time>
      </trkpt>
      <trkpt lat="51.584629" lon="7.031816">
        <ele>66.808427</ele>
        <time>2026-05-24T07:25:21.799Z</time>
      </trkpt>
      <trkpt lat="51.584240" lon="7.031974">
        <ele>67.380358</ele>
        <time>2026-05-24T07:25:34.452Z</time>
      </trkpt>
      <trkpt lat="51.584038" lon="7.031185">
        <ele>68.136250</ele>
        <time>2026-05-24T07:25:49.140Z</time>
      </trkpt>
      <trkpt lat="51.583967" lon="7.031071">
        <ele>68.279224</ele>
        <time>2026-05-24T07:25:51.658Z</time>
      </trkpt>
      <trkpt lat="51.583883" lon="7.031129">
        <ele>68.350467</ele>
        <time>2026-05-24T07:25:53.966Z</time>
      </trkpt>
      <trkpt lat="51.583460" lon="7.031258">
        <ele>68.412681</ele>
        <time>2026-05-24T07:26:04.529Z</time>
      </trkpt>
      <trkpt lat="51.583247" lon="7.031335">
        <ele>68.444228</ele>
        <time>2026-05-24T07:26:09.788Z</time>
      </trkpt>
      <trkpt lat="51.583089" lon="7.031392">
        <ele>68.467626</ele>
        <time>2026-05-24T07:26:13.658Z</time>
      </trkpt>
      <trkpt lat="51.582763" lon="7.031539">
        <ele>68.516550</ele>
        <time>2026-05-24T07:26:21.520Z</time>
      </trkpt>
      <trkpt lat="51.582684" lon="7.031521">
        <ele>68.528079</ele>
        <time>2026-05-24T07:26:23.849Z</time>
      </trkpt>
      <trkpt lat="51.582589" lon="7.031571">
        <ele>68.542523</ele>
        <time>2026-05-24T07:26:26.011Z</time>
      </trkpt>
      <trkpt lat="51.582482" lon="7.031689">
        <ele>68.561267</ele>
        <time>2026-05-24T07:26:28.730Z</time>
      </trkpt>
      <trkpt lat="51.582370" lon="7.031850">
        <ele>68.582968</ele>
        <time>2026-05-24T07:26:31.815Z</time>
      </trkpt>
      <trkpt lat="51.582263" lon="7.032071">
        <ele>68.605246</ele>
        <time>2026-05-24T07:26:35.373Z</time>
      </trkpt>
      <trkpt lat="51.582161" lon="7.032245">
        <ele>68.612687</ele>
        <time>2026-05-24T07:26:38.430Z</time>
      </trkpt>
      <trkpt lat="51.581938" lon="7.032336">
        <ele>68.624203</ele>
        <time>2026-05-24T07:26:46.746Z</time>
      </trkpt>
      <trkpt lat="51.581819" lon="7.032386">
        <ele>68.630359</ele>
        <time>2026-05-24T07:26:50.338Z</time>
      </trkpt>
      <trkpt lat="51.581654" lon="7.032417">
        <ele>68.638675</ele>
        <time>2026-05-24T07:26:55.219Z</time>
      </trkpt>
      <trkpt lat="51.581412" lon="7.032455">
        <ele>68.650846</ele>
        <time>2026-05-24T07:27:02.364Z</time>
      </trkpt>
      <trkpt lat="51.581093" lon="7.032492">
        <ele>68.666856</ele>
        <time>2026-05-24T07:27:11.744Z</time>
      </trkpt>
      <trkpt lat="51.580320" lon="7.032827">
        <ele>68.888787</ele>
        <time>2026-05-24T07:27:36.020Z</time>
      </trkpt>
      <trkpt lat="51.579636" lon="7.033160">
        <ele>69.418376</ele>
        <time>2026-05-24T07:27:59.201Z</time>
      </trkpt>
      <trkpt lat="51.579282" lon="7.033322">
        <ele>69.691120</ele>
        <time>2026-05-24T07:28:11.324Z</time>
      </trkpt>
      <trkpt lat="51.577874" lon="7.033963">
        <ele>70.801544</ele>
        <time>2026-05-24T07:28:49.431Z</time>
      </trkpt>
      <trkpt lat="51.577777" lon="7.033981">
        <ele>70.876420</ele>
        <time>2026-05-24T07:28:51.801Z</time>
      </trkpt>
      <trkpt lat="51.577674" lon="7.033938">
        <ele>70.958019</ele>
        <time>2026-05-24T07:28:54.398Z</time>
      </trkpt>
      <trkpt lat="51.577375" lon="7.033555">
        <ele>71.251081</ele>
        <time>2026-05-24T07:29:03.559Z</time>
      </trkpt>
      <trkpt lat="51.577135" lon="7.033318">
        <ele>71.405348</ele>
        <time>2026-05-24T07:29:10.499Z</time>
      </trkpt>
      <trkpt lat="51.576796" lon="7.033082">
        <ele>71.402495</ele>
        <time>2026-05-24T07:29:19.898Z</time>
      </trkpt>
      <trkpt lat="51.576741" lon="7.033039">
        <ele>71.402023</ele>
        <time>2026-05-24T07:29:21.444Z</time>
      </trkpt>
      <trkpt lat="51.576555" lon="7.032895">
        <ele>71.400428</ele>
        <time>2026-05-24T07:29:26.552Z</time>
      </trkpt>
      <trkpt lat="51.576499" lon="7.032850">
        <ele>71.399945</ele>
        <time>2026-05-24T07:29:28.073Z</time>
      </trkpt>
      <trkpt lat="51.575917" lon="7.032412">
        <ele>71.394982</ele>
        <time>2026-05-24T07:29:42.309Z</time>
      </trkpt>
      <trkpt lat="51.575883" lon="7.032387">
        <ele>71.394693</ele>
        <time>2026-05-24T07:29:43.071Z</time>
      </trkpt>
      <trkpt lat="51.575565" lon="7.032266">
        <ele>71.392169</ele>
        <time>2026-05-24T07:29:49.477Z</time>
      </trkpt>
      <trkpt lat="51.575349" lon="7.032253">
        <ele>71.077038</ele>
        <time>2026-05-24T07:29:53.615Z</time>
      </trkpt>
      <trkpt lat="51.575107" lon="7.032279">
        <ele>70.701211</ele>
        <time>2026-05-24T07:29:58.109Z</time>
      </trkpt>
      <trkpt lat="51.575072" lon="7.032174">
        <ele>70.586467</ele>
        <time>2026-05-24T07:29:59.414Z</time>
      </trkpt>
      <trkpt lat="51.574975" lon="7.031935">
        <ele>70.311571</ele>
        <time>2026-05-24T07:30:02.541Z</time>
      </trkpt>
      <trkpt lat="51.574840" lon="7.031613">
        <ele>69.937512</ele>
        <time>2026-05-24T07:30:06.756Z</time>
      </trkpt>
      <trkpt lat="51.574793" lon="7.031542">
        <ele>69.837615</ele>
        <time>2026-05-24T07:30:07.877Z</time>
      </trkpt>
      <trkpt lat="51.574582" lon="7.031277">
        <ele>69.422851</ele>
        <time>2026-05-24T07:30:12.617Z</time>
      </trkpt>
      <trkpt lat="51.574528" lon="7.031384">
        <ele>69.290110</ele>
        <time>2026-05-24T07:30:14.178Z</time>
      </trkpt>
      <trkpt lat="51.574348" lon="7.031675">
        <ele>68.894719</ele>
        <time>2026-05-24T07:30:18.803Z</time>
      </trkpt>
      <trkpt lat="51.574090" lon="7.032030">
        <ele>68.313838</ele>
        <time>2026-05-24T07:30:25.235Z</time>
      </trkpt>
      <trkpt lat="51.574047" lon="7.032073">
        <ele>68.217177</ele>
        <time>2026-05-24T07:30:26.177Z</time>
      </trkpt>
      <trkpt lat="51.573705" lon="7.032411">
        <ele>67.450878</ele>
        <time>2026-05-24T07:30:33.488Z</time>
      </trkpt>
      <trkpt lat="51.573514" lon="7.032602">
        <ele>67.021522</ele>
        <time>2026-05-24T07:30:37.584Z</time>
      </trkpt>
      <trkpt lat="51.573469" lon="7.032656">
        <ele>66.914343</ele>
        <time>2026-05-24T07:30:38.604Z</time>
      </trkpt>
      <trkpt lat="51.573311" lon="7.032816">
        <ele>66.557910</ele>
        <time>2026-05-24T07:30:42.090Z</time>
      </trkpt>
      <trkpt lat="51.572823" lon="7.033313">
        <ele>65.455237</ele>
        <time>2026-05-24T07:30:52.122Z</time>
      </trkpt>
      <trkpt lat="51.572742" lon="7.033126">
        <ele>65.184765</ele>
        <time>2026-05-24T07:30:55.341Z</time>
      </trkpt>
      <trkpt lat="51.572695" lon="7.032971">
        <ele>64.952315</ele>
        <time>2026-05-24T07:30:57.086Z</time>
      </trkpt>
      <trkpt lat="51.572594" lon="7.032769">
        <ele>64.599860</ele>
        <time>2026-05-24T07:30:59.706Z</time>
      </trkpt>
      <trkpt lat="51.572447" lon="7.032585">
        <ele>64.192470</ele>
        <time>2026-05-24T07:31:02.738Z</time>
      </trkpt>
      <trkpt lat="51.572368" lon="7.032577">
        <ele>64.019325</ele>
        <time>2026-05-24T07:31:04.096Z</time>
      </trkpt>
      <trkpt lat="51.572020" lon="7.032099">
        <ele>63.018453</ele>
        <time>2026-05-24T07:31:12.231Z</time>
      </trkpt>
      <trkpt lat="51.571978" lon="7.032048">
        <ele>62.903355</ele>
        <time>2026-05-24T07:31:13.209Z</time>
      </trkpt>
      <trkpt lat="51.571945" lon="7.032009">
        <ele>62.813791</ele>
        <time>2026-05-24T07:31:13.966Z</time>
      </trkpt>
      <trkpt lat="51.571874" lon="7.031929">
        <ele>62.624190</ele>
        <time>2026-05-24T07:31:15.543Z</time>
      </trkpt>
      <trkpt lat="51.571196" lon="7.031203">
        <ele>61.209402</ele>
        <time>2026-05-24T07:31:30.946Z</time>
      </trkpt>
      <trkpt lat="51.570439" lon="7.030338">
        <ele>61.069075</ele>
        <time>2026-05-24T07:31:51.662Z</time>
      </trkpt>
      <trkpt lat="51.570066" lon="7.029796">
        <ele>60.993112</ele>
        <time>2026-05-24T07:32:04.568Z</time>
      </trkpt>
      <trkpt lat="51.569932" lon="7.029558">
        <ele>60.969451</ele>
        <time>2026-05-24T07:32:09.818Z</time>
      </trkpt>
      <trkpt lat="51.569431" lon="7.028580">
        <ele>61.272430</ele>
        <time>2026-05-24T07:32:29.527Z</time>
      </trkpt>
      <trkpt lat="51.569197" lon="7.028008">
        <ele>61.436137</ele>
        <time>2026-05-24T07:32:39.607Z</time>
      </trkpt>
      <trkpt lat="51.569108" lon="7.027845">
        <ele>61.488005</ele>
        <time>2026-05-24T07:32:42.885Z</time>
      </trkpt>
      <trkpt lat="51.569012" lon="7.027726">
        <ele>61.534617</ele>
        <time>2026-05-24T07:32:45.816Z</time>
      </trkpt>
      <trkpt lat="51.568750" lon="7.027605">
        <ele>61.639457</ele>
        <time>2026-05-24T07:32:52.391Z</time>
      </trkpt>
      <trkpt lat="51.568406" lon="7.027557">
        <ele>61.821434</ele>
        <time>2026-05-24T07:33:00.786Z</time>
      </trkpt>
      <trkpt lat="51.568433" lon="7.026285">
        <ele>62.255038</ele>
        <time>2026-05-24T07:33:20.976Z</time>
      </trkpt>
      <trkpt lat="51.568459" lon="7.025729">
        <ele>62.444993</ele>
        <time>2026-05-24T07:33:30.492Z</time>
      </trkpt>
      <trkpt lat="51.568502" lon="7.024817">
        <ele>62.321873</ele>
        <time>2026-05-24T07:33:44.143Z</time>
      </trkpt>
      <trkpt lat="51.568478" lon="7.024207">
        <ele>61.737350</ele>
        <time>2026-05-24T07:33:51.474Z</time>
      </trkpt>
      <trkpt lat="51.568415" lon="7.023446">
        <ele>61.003163</ele>
        <time>2026-05-24T07:33:59.990Z</time>
      </trkpt>
      <trkpt lat="51.568257" lon="7.023089">
        <ele>60.584055</ele>
        <time>2026-05-24T07:34:04.593Z</time>
      </trkpt>
      <trkpt lat="51.568149" lon="7.022857">
        <ele>60.306864</ele>
        <time>2026-05-24T07:34:07.604Z</time>
      </trkpt>
      <trkpt lat="51.567917" lon="7.022593">
        <ele>59.867875</ele>
        <time>2026-05-24T07:34:12.330Z</time>
      </trkpt>
      <trkpt lat="51.567215" lon="7.021901">
        <ele>58.187816</ele>
        <time>2026-05-24T07:34:26.459Z</time>
      </trkpt>
      <trkpt lat="51.566923" lon="7.021558">
        <ele>57.450014</ele>
        <time>2026-05-24T07:34:32.980Z</time>
      </trkpt>
      <trkpt lat="51.566479" lon="7.020986">
        <ele>56.289259</ele>
        <time>2026-05-24T07:34:43.235Z</time>
      </trkpt>
      <trkpt lat="51.566294" lon="7.020733">
        <ele>55.858105</ele>
        <time>2026-05-24T07:34:47.613Z</time>
      </trkpt>
      <trkpt lat="51.564931" lon="7.018284">
        <ele>52.449896</ele>
        <time>2026-05-24T07:35:24.293Z</time>
      </trkpt>
      <trkpt lat="51.564174" lon="7.016992">
        <ele>50.819381</ele>
        <time>2026-05-24T07:35:44.906Z</time>
      </trkpt>
      <trkpt lat="51.562990" lon="7.014505">
        <ele>48.180065</ele>
        <time>2026-05-24T07:36:20.958Z</time>
      </trkpt>
      <trkpt lat="51.562865" lon="7.014243">
        <ele>47.949040</ele>
        <time>2026-05-24T07:36:24.752Z</time>
      </trkpt>
      <trkpt lat="51.562367" lon="7.013204">
        <ele>47.196233</ele>
        <time>2026-05-24T07:36:40.672Z</time>
      </trkpt>
      <trkpt lat="51.561999" lon="7.012487">
        <ele>46.662716</ele>
        <time>2026-05-24T07:36:52.399Z</time>
      </trkpt>
      <trkpt lat="51.561697" lon="7.011894">
        <ele>45.992870</ele>
        <time>2026-05-24T07:37:01.829Z</time>
      </trkpt>
      <trkpt lat="51.561269" lon="7.011097">
        <ele>44.536205</ele>
        <time>2026-05-24T07:37:13.872Z</time>
      </trkpt>
      <trkpt lat="51.561132" lon="7.010860">
        <ele>44.088594</ele>
        <time>2026-05-24T07:37:17.301Z</time>
      </trkpt>
      <trkpt lat="51.560823" lon="7.010351">
        <ele>43.104601</ele>
        <time>2026-05-24T07:37:24.568Z</time>
      </trkpt>
      <trkpt lat="51.560341" lon="7.009508">
        <ele>41.266060</ele>
        <time>2026-05-24T07:37:35.902Z</time>
      </trkpt>
      <trkpt lat="51.559676" lon="7.008292">
        <ele>38.366275</ele>
        <time>2026-05-24T07:37:52.384Z</time>
      </trkpt>
      <trkpt lat="51.559192" lon="7.007345">
        <ele>36.867903</ele>
        <time>2026-05-24T07:38:05.894Z</time>
      </trkpt>
      <trkpt lat="51.559116" lon="7.007131">
        <ele>36.724288</ele>
        <time>2026-05-24T07:38:08.755Z</time>
      </trkpt>
      <trkpt lat="51.559064" lon="7.006527">
        <ele>36.368964</ele>
        <time>2026-05-24T07:38:16.001Z</time>
      </trkpt>
      <trkpt lat="51.558975" lon="7.006259">
        <ele>36.191911</ele>
        <time>2026-05-24T07:38:19.750Z</time>
      </trkpt>
      <trkpt lat="51.558843" lon="7.006346">
        <ele>36.058203</ele>
        <time>2026-05-24T07:38:22.652Z</time>
      </trkpt>
      <trkpt lat="51.558480" lon="7.006537">
        <ele>35.700222</ele>
        <time>2026-05-24T07:38:30.631Z</time>
      </trkpt>
      <trkpt lat="51.558353" lon="7.006592">
        <ele>35.576947</ele>
        <time>2026-05-24T07:38:33.544Z</time>
      </trkpt>
      <trkpt lat="51.558297" lon="7.006032">
        <ele>35.669635</ele>
        <time>2026-05-24T07:38:44.083Z</time>
      </trkpt>
      <trkpt lat="51.558294" lon="7.005658">
        <ele>35.791125</ele>
        <time>2026-05-24T07:38:51.402Z</time>
      </trkpt>
      <trkpt lat="51.558195" lon="7.005416">
        <ele>35.885221</ele>
        <time>2026-05-24T07:38:57.183Z</time>
      </trkpt>
      <trkpt lat="51.558179" lon="7.005378">
        <ele>35.900128</ele>
        <time>2026-05-24T07:38:58.104Z</time>
      </trkpt>
      <trkpt lat="51.558187" lon="7.005224">
        <ele>35.950324</ele>
        <time>2026-05-24T07:39:01.202Z</time>
      </trkpt>
      <trkpt lat="51.558090" lon="7.005166">
        <ele>36.004389</ele>
        <time>2026-05-24T07:39:03.787Z</time>
      </trkpt>
      <trkpt lat="51.558062" lon="7.005107">
        <ele>36.028499</ele>
        <time>2026-05-24T07:39:04.933Z</time>
      </trkpt>
      <trkpt lat="51.557830" lon="7.004616">
        <ele>36.228815</ele>
        <time>2026-05-24T07:39:14.851Z</time>
      </trkpt>
      <trkpt lat="51.557639" lon="7.004194">
        <ele>36.398363</ele>
        <time>2026-05-24T07:39:23.146Z</time>
      </trkpt>
      <trkpt lat="51.557430" lon="7.003735">
        <ele>36.476745</ele>
        <time>2026-05-24T07:39:31.827Z</time>
      </trkpt>
      <trkpt lat="51.557423" lon="7.003719">
        <ele>36.477703</ele>
        <time>2026-05-24T07:39:32.113Z</time>
      </trkpt>
      <trkpt lat="51.557012" lon="7.002815">
        <ele>36.532532</ele>
        <time>2026-05-24T07:39:48.050Z</time>
      </trkpt>
      <trkpt lat="51.556691" lon="7.002119">
        <ele>36.574959</ele>
        <time>2026-05-24T07:39:59.569Z</time>
      </trkpt>
      <trkpt lat="51.556506" lon="7.001715">
        <ele>36.599559</ele>
        <time>2026-05-24T07:40:08.350Z</time>
      </trkpt>
      <trkpt lat="51.556424" lon="7.001292">
        <ele>36.645289</ele>
        <time>2026-05-24T07:40:14.180Z</time>
      </trkpt>
      <trkpt lat="51.556237" lon="7.000324">
        <ele>36.749906</ele>
        <time>2026-05-24T07:40:27.856Z</time>
      </trkpt>
      <trkpt lat="51.556108" lon="6.999700">
        <ele>36.817775</ele>
        <time>2026-05-24T07:40:37.271Z</time>
      </trkpt>
      <trkpt lat="51.556070" lon="6.999532">
        <ele>36.836226</ele>
        <time>2026-05-24T07:40:39.924Z</time>
      </trkpt>
      <trkpt lat="51.556057" lon="6.999473">
        <ele>36.842686</ele>
        <time>2026-05-24T07:40:40.864Z</time>
      </trkpt>
      <trkpt lat="51.555963" lon="6.999024">
        <ele>36.891584</ele>
        <time>2026-05-24T07:40:48.487Z</time>
      </trkpt>
      <trkpt lat="51.555879" lon="6.998605">
        <ele>36.982986</ele>
        <time>2026-05-24T07:40:55.715Z</time>
      </trkpt>
      <trkpt lat="51.555872" lon="6.998568">
        <ele>36.991687</ele>
        <time>2026-05-24T07:40:56.343Z</time>
      </trkpt>
      <trkpt lat="51.555716" lon="6.997785">
        <ele>37.176674</ele>
        <time>2026-05-24T07:41:09.203Z</time>
      </trkpt>
      <trkpt lat="51.555682" lon="6.997624">
        <ele>37.214930</ele>
        <time>2026-05-24T07:41:11.736Z</time>
      </trkpt>
      <trkpt lat="51.555652" lon="6.997471">
        <ele>37.251024</ele>
        <time>2026-05-24T07:41:14.086Z</time>
      </trkpt>
      <trkpt lat="51.555625" lon="6.997331">
        <ele>37.284002</ele>
        <time>2026-05-24T07:41:16.144Z</time>
      </trkpt>
      <trkpt lat="51.555529" lon="6.996797">
        <ele>37.409066</ele>
        <time>2026-05-24T07:41:23.834Z</time>
      </trkpt>
      <trkpt lat="51.554833" lon="6.996984">
        <ele>37.669045</ele>
        <time>2026-05-24T07:41:44.160Z</time>
      </trkpt>
      <trkpt lat="51.554493" lon="6.997078">
        <ele>37.798892</ele>
        <time>2026-05-24T07:41:54.142Z</time>
      </trkpt>
      <trkpt lat="51.554459" lon="6.997021">
        <ele>37.817377</ele>
        <time>2026-05-24T07:41:55.354Z</time>
      </trkpt>
      <trkpt lat="51.554260" lon="6.996461">
        <ele>37.968325</ele>
        <time>2026-05-24T07:42:05.799Z</time>
      </trkpt>
      <trkpt lat="51.554147" lon="6.996252">
        <ele>38.033141</ele>
        <time>2026-05-24T07:42:10.574Z</time>
      </trkpt>
      <trkpt lat="51.553906" lon="6.995941">
        <ele>38.149439</ele>
        <time>2026-05-24T07:42:19.536Z</time>
      </trkpt>
      <trkpt lat="51.553799" lon="6.995804">
        <ele>38.200916</ele>
        <time>2026-05-24T07:42:23.581Z</time>
      </trkpt>
      <trkpt lat="51.553229" lon="6.994772">
        <ele>38.117320</ele>
        <time>2026-05-24T07:42:47.563Z</time>
      </trkpt>
      <trkpt lat="51.552960" lon="6.994462">
        <ele>38.071948</ele>
        <time>2026-05-24T07:42:55.478Z</time>
      </trkpt>
      <trkpt lat="51.552613" lon="6.993888">
        <ele>38.003700</ele>
        <time>2026-05-24T07:43:06.515Z</time>
      </trkpt>
      <trkpt lat="51.552465" lon="6.993708">
        <ele>37.964858</ele>
        <time>2026-05-24T07:43:10.447Z</time>
      </trkpt>
      <trkpt lat="51.551393" lon="6.992850">
        <ele>35.676025</ele>
        <time>2026-05-24T07:43:34.093Z</time>
      </trkpt>
      <trkpt lat="51.551076" lon="6.992698">
        <ele>35.043730</ele>
        <time>2026-05-24T07:43:40.548Z</time>
      </trkpt>
      <trkpt lat="51.550643" lon="6.992586">
        <ele>34.377316</ele>
        <time>2026-05-24T07:43:49.242Z</time>
      </trkpt>
      <trkpt lat="51.550423" lon="6.992395">
        <ele>34.144037</ele>
        <time>2026-05-24T07:43:54.306Z</time>
      </trkpt>
      <trkpt lat="51.550423" lon="6.992352">
        <ele>34.119088</ele>
        <time>2026-05-24T07:43:54.791Z</time>
      </trkpt>
      <trkpt lat="51.550427" lon="6.992224">
        <ele>34.044727</ele>
        <time>2026-05-24T07:43:56.225Z</time>
      </trkpt>
      <trkpt lat="51.550428" lon="6.992174">
        <ele>34.015702</ele>
        <time>2026-05-24T07:43:56.812Z</time>
      </trkpt>
      <trkpt lat="51.550280" lon="6.992113">
        <ele>33.873144</ele>
        <time>2026-05-24T07:43:59.777Z</time>
      </trkpt>
      <trkpt lat="51.550144" lon="6.991885">
        <ele>33.689832</ele>
        <time>2026-05-24T07:44:03.664Z</time>
      </trkpt>
      <trkpt lat="51.550039" lon="6.991575">
        <ele>33.485014</ele>
        <time>2026-05-24T07:44:08.194Z</time>
      </trkpt>
      <trkpt lat="51.549740" lon="6.991085">
        <ele>33.086687</ele>
        <time>2026-05-24T07:44:17.647Z</time>
      </trkpt>
      <trkpt lat="51.548602" lon="6.988970">
        <ele>33.682945</ele>
        <time>2026-05-24T07:45:00.107Z</time>
      </trkpt>
      <trkpt lat="51.547649" lon="6.987702">
        <ele>35.369644</ele>
        <time>2026-05-24T07:45:36.031Z</time>
      </trkpt>
      <trkpt lat="51.547322" lon="6.987145">
        <ele>36.143353</ele>
        <time>2026-05-24T07:45:51.062Z</time>
      </trkpt>
      <trkpt lat="51.547676" lon="6.986824">
        <ele>36.787886</ele>
        <time>2026-05-24T07:46:04.374Z</time>
      </trkpt>
      <trkpt lat="51.547924" lon="6.986547">
        <ele>37.062899</ele>
        <time>2026-05-24T07:46:13.987Z</time>
      </trkpt>
      <trkpt lat="51.547907" lon="6.986461">
        <ele>37.114009</ele>
        <time>2026-05-24T07:46:15.615Z</time>
      </trkpt>
      <trkpt lat="51.547866" lon="6.986185">
        <ele>37.274727</ele>
        <time>2026-05-24T07:46:20.563Z</time>
      </trkpt>
      <trkpt lat="51.547831" lon="6.985943">
        <ele>37.415448</ele>
        <time>2026-05-24T07:46:24.792Z</time>
      </trkpt>
      <trkpt lat="51.547774" lon="6.985757">
        <ele>37.532892</ele>
        <time>2026-05-24T07:46:28.271Z</time>
      </trkpt>
      <trkpt lat="51.547441" lon="6.985338">
        <ele>37.917991</ele>
        <time>2026-05-24T07:46:38.950Z</time>
      </trkpt>
      <trkpt lat="51.546592" lon="6.984302">
        <ele>38.314124</ele>
        <time>2026-05-24T07:47:02.503Z</time>
      </trkpt>
      <trkpt lat="51.546484" lon="6.984138">
        <ele>38.288312</ele>
        <time>2026-05-24T07:47:05.624Z</time>
      </trkpt>
      <trkpt lat="51.546374" lon="6.984059">
        <ele>38.267378</ele>
        <time>2026-05-24T07:47:08.157Z</time>
      </trkpt>
      <trkpt lat="51.546219" lon="6.984014">
        <ele>38.240010</ele>
        <time>2026-05-24T07:47:11.498Z</time>
      </trkpt>
      <trkpt lat="51.544621" lon="6.984510">
        <ele>37.997040</ele>
        <time>2026-05-24T07:47:46.436Z</time>
      </trkpt>
      <trkpt lat="51.544467" lon="6.984483">
        <ele>37.977981</ele>
        <time>2026-05-24T07:47:49.736Z</time>
      </trkpt>
      <trkpt lat="51.544232" lon="6.984266">
        <ele>37.944639</ele>
        <time>2026-05-24T07:47:55.588Z</time>
      </trkpt>
      <trkpt lat="51.543719" lon="6.983815">
        <ele>37.872704</ele>
        <time>2026-05-24T07:48:08.360Z</time>
      </trkpt>
      <trkpt lat="51.543686" lon="6.983758">
        <ele>37.873623</ele>
        <time>2026-05-24T07:48:09.478Z</time>
      </trkpt>
      <trkpt lat="51.543436" lon="6.983729">
        <ele>37.880665</ele>
        <time>2026-05-24T07:48:15.111Z</time>
      </trkpt>
      <trkpt lat="51.543428" lon="6.983615">
        <ele>37.882669</ele>
        <time>2026-05-24T07:48:17.285Z</time>
      </trkpt>
      <trkpt lat="51.543414" lon="6.983417">
        <ele>37.886151</ele>
        <time>2026-05-24T07:48:21.011Z</time>
      </trkpt>
      <trkpt lat="51.543391" lon="6.983212">
        <ele>37.889790</ele>
        <time>2026-05-24T07:48:24.911Z</time>
      </trkpt>
      <trkpt lat="51.543098" lon="6.983118">
        <ele>37.898184</ele>
        <time>2026-05-24T07:48:33.921Z</time>
      </trkpt>
      <trkpt lat="51.542838" lon="6.983241">
        <ele>37.905798</ele>
        <time>2026-05-24T07:48:41.996Z</time>
      </trkpt>
      <trkpt lat="51.542454" lon="6.983315">
        <ele>37.916663</ele>
        <time>2026-05-24T07:48:53.117Z</time>
      </trkpt>
      <trkpt lat="51.542406" lon="6.982709">
        <ele>37.959633</ele>
        <time>2026-05-24T07:49:03.981Z</time>
      </trkpt>
      <trkpt lat="51.542360" lon="6.982710">
        <ele>37.970279</ele>
        <time>2026-05-24T07:49:04.972Z</time>
      </trkpt>
      <trkpt lat="51.541998" lon="6.982211">
        <ele>38.080632</ele>
        <time>2026-05-24T07:49:15.161Z</time>
      </trkpt>
      <trkpt lat="51.541616" lon="6.981664">
        <ele>38.199016</ele>
        <time>2026-05-24T07:49:26.526Z</time>
      </trkpt>
      <trkpt lat="51.541241" lon="6.981128">
        <ele>38.315138</ele>
        <time>2026-05-24T07:49:38.706Z</time>
      </trkpt>
      <trkpt lat="51.540879" lon="6.980611">
        <ele>39.018222</ele>
        <time>2026-05-24T07:49:51.994Z</time>
      </trkpt>
      <trkpt lat="51.540650" lon="6.980291">
        <ele>39.559731</ele>
        <time>2026-05-24T07:50:00.745Z</time>
      </trkpt>
      <trkpt lat="51.540441" lon="6.980002">
        <ele>40.051732</ele>
        <time>2026-05-24T07:50:09.145Z</time>
      </trkpt>
      <trkpt lat="51.540247" lon="6.979680">
        <ele>40.549382</ele>
        <time>2026-05-24T07:50:17.952Z</time>
      </trkpt>
      <trkpt lat="51.540082" lon="6.979313">
        <ele>41.052074</ele>
        <time>2026-05-24T07:50:26.796Z</time>
      </trkpt>
      <trkpt lat="51.539954" lon="6.978781">
        <ele>41.672237</ele>
        <time>2026-05-24T07:50:37.736Z</time>
      </trkpt>
      <trkpt lat="51.539918" lon="6.978615">
        <ele>41.848659</ele>
        <time>2026-05-24T07:50:41.119Z</time>
      </trkpt>
      <trkpt lat="51.539785" lon="6.977984">
        <ele>42.517261</ele>
        <time>2026-05-24T07:50:53.391Z</time>
      </trkpt>
      <trkpt lat="51.539522" lon="6.976723">
        <ele>43.851972</ele>
        <time>2026-05-24T07:51:16.262Z</time>
      </trkpt>
      <trkpt lat="51.539462" lon="6.976447">
        <ele>44.145379</ele>
        <time>2026-05-24T07:51:21.182Z</time>
      </trkpt>
      <trkpt lat="51.539420" lon="6.976257">
        <ele>44.347736</ele>
        <time>2026-05-24T07:51:24.620Z</time>
      </trkpt>
      <trkpt lat="51.539235" lon="6.975367">
        <ele>45.343210</ele>
        <time>2026-05-24T07:51:41.162Z</time>
      </trkpt>
      <trkpt lat="51.538971" lon="6.974110">
        <ele>46.760060</ele>
        <time>2026-05-24T07:52:05.827Z</time>
      </trkpt>
      <trkpt lat="51.538878" lon="6.974164">
        <ele>46.929833</ele>
        <time>2026-05-24T07:52:09.612Z</time>
      </trkpt>
      <trkpt lat="51.538971" lon="6.974110">
        <ele>47.099607</ele>
        <time>2026-05-24T07:52:13.250Z</time>
      </trkpt>
      <trkpt lat="51.538794" lon="6.973262">
        <ele>47.813923</ele>
        <time>2026-05-24T07:52:29.811Z</time>
      </trkpt>
      <trkpt lat="51.538707" lon="6.973074">
        <ele>47.947148</ele>
        <time>2026-05-24T07:52:33.897Z</time>
      </trkpt>
      <trkpt lat="51.538596" lon="6.972965">
        <ele>48.066039</ele>
        <time>2026-05-24T07:52:37.374Z</time>
      </trkpt>
      <trkpt lat="51.537841" lon="6.972320">
        <ele>48.847548</ele>
        <time>2026-05-24T07:52:58.576Z</time>
      </trkpt>
      <trkpt lat="51.537438" lon="6.971982">
        <ele>49.167111</ele>
        <time>2026-05-24T07:53:09.561Z</time>
      </trkpt>
      <trkpt lat="51.537394" lon="6.971945">
        <ele>49.157594</ele>
        <time>2026-05-24T07:53:11.055Z</time>
      </trkpt>
      <trkpt lat="51.537053" lon="6.971643">
        <ele>49.082973</ele>
        <time>2026-05-24T07:53:22.650Z</time>
      </trkpt>
      <trkpt lat="51.536979" lon="6.971499">
        <ele>49.060704</ele>
        <time>2026-05-24T07:53:25.230Z</time>
      </trkpt>
      <trkpt lat="51.536905" lon="6.971505">
        <ele>49.046502</ele>
        <time>2026-05-24T07:53:26.881Z</time>
      </trkpt>
      <trkpt lat="51.536898" lon="6.971230">
        <ele>49.013688</ele>
        <time>2026-05-24T07:53:30.455Z</time>
      </trkpt>
      <trkpt lat="51.536538" lon="6.971497">
        <ele>48.937698</ele>
        <time>2026-05-24T07:53:41.914Z</time>
      </trkpt>
      <trkpt lat="51.536329" lon="6.971714">
        <ele>48.890010</ele>
        <time>2026-05-24T07:53:49.055Z</time>
      </trkpt>
      <trkpt lat="51.536247" lon="6.971704">
        <ele>48.874248</ele>
        <time>2026-05-24T07:53:51.345Z</time>
      </trkpt>
      <trkpt lat="51.536105" lon="6.971828">
        <ele>48.843275</ele>
        <time>2026-05-24T07:53:55.700Z</time>
      </trkpt>
      <trkpt lat="51.535692" lon="6.972352">
        <ele>48.099821</ele>
        <time>2026-05-24T07:54:09.191Z</time>
      </trkpt>
      <trkpt lat="51.535678" lon="6.972473">
        <ele>47.987491</ele>
        <time>2026-05-24T07:54:10.630Z</time>
      </trkpt>
      <trkpt lat="51.535283" lon="6.972971">
        <ele>47.250943</ele>
        <time>2026-05-24T07:54:19.879Z</time>
      </trkpt>
      <trkpt lat="51.535135" lon="6.973094">
        <ele>47.006483</ele>
        <time>2026-05-24T07:54:22.926Z</time>
      </trkpt>
      <trkpt lat="51.534935" lon="6.973120">
        <ele>46.712067</ele>
        <time>2026-05-24T07:54:26.538Z</time>
      </trkpt>
      <trkpt lat="51.534707" lon="6.973166">
        <ele>46.374901</ele>
        <time>2026-05-24T07:54:30.601Z</time>
      </trkpt>
      <trkpt lat="51.534154" lon="6.973285">
        <ele>45.328645</ele>
        <time>2026-05-24T07:54:40.287Z</time>
      </trkpt>
      <trkpt lat="51.533589" lon="6.973417">
        <ele>44.194660</ele>
        <time>2026-05-24T07:54:50.254Z</time>
      </trkpt>
      <trkpt lat="51.533483" lon="6.973446">
        <ele>43.981097</ele>
        <time>2026-05-24T07:54:52.141Z</time>
      </trkpt>
      <trkpt lat="51.533374" lon="6.973474">
        <ele>43.761856</ele>
        <time>2026-05-24T07:54:54.071Z</time>
      </trkpt>
      <trkpt lat="51.532954" lon="6.973561">
        <ele>42.920761</ele>
        <time>2026-05-24T07:55:01.502Z</time>
      </trkpt>
      <trkpt lat="51.532119" lon="6.973869">
        <ele>41.729072</ele>
        <time>2026-05-24T07:55:16.977Z</time>
      </trkpt>
      <trkpt lat="51.532082" lon="6.973782">
        <ele>41.646005</ele>
        <time>2026-05-24T07:55:18.181Z</time>
      </trkpt>
      <trkpt lat="51.532041" lon="6.973757">
        <ele>41.590444</ele>
        <time>2026-05-24T07:55:18.991Z</time>
      </trkpt>
      <trkpt lat="51.531845" lon="6.973099">
        <ele>41.015416</ele>
        <time>2026-05-24T07:55:27.466Z</time>
      </trkpt>
      <trkpt lat="51.531462" lon="6.971892">
        <ele>40.212915</ele>
        <time>2026-05-24T07:55:44.484Z</time>
      </trkpt>
      <trkpt lat="51.531282" lon="6.971314">
        <ele>40.040717</ele>
        <time>2026-05-24T07:55:52.926Z</time>
      </trkpt>
      <trkpt lat="51.531267" lon="6.971265">
        <ele>40.026168</ele>
        <time>2026-05-24T07:55:53.636Z</time>
      </trkpt>
      <trkpt lat="51.530986" lon="6.970544">
        <ele>39.799508</ele>
        <time>2026-05-24T07:56:04.932Z</time>
      </trkpt>
      <trkpt lat="51.530955" lon="6.970503">
        <ele>39.782316</ele>
        <time>2026-05-24T07:56:06.094Z</time>
      </trkpt>
      <trkpt lat="51.530788" lon="6.970222">
        <ele>39.678785</ele>
        <time>2026-05-24T07:56:12.939Z</time>
      </trkpt>
      <trkpt lat="51.530511" lon="6.969767">
        <ele>39.508723</ele>
        <time>2026-05-24T07:56:23.655Z</time>
      </trkpt>
      <trkpt lat="51.530361" lon="6.969572">
        <ele>39.425558</ele>
        <time>2026-05-24T07:56:28.846Z</time>
      </trkpt>
      <trkpt lat="51.529985" lon="6.968934">
        <ele>39.189867</ele>
        <time>2026-05-24T07:56:43.758Z</time>
      </trkpt>
      <trkpt lat="51.529826" lon="6.968562">
        <ele>39.068823</ele>
        <time>2026-05-24T07:56:51.502Z</time>
      </trkpt>
      <trkpt lat="51.529616" lon="6.967771">
        <ele>38.838175</ele>
        <time>2026-05-24T07:57:06.517Z</time>
      </trkpt>
      <trkpt lat="51.529595" lon="6.967692">
        <ele>38.815135</ele>
        <time>2026-05-24T07:57:08.041Z</time>
      </trkpt>
      <trkpt lat="51.529540" lon="6.967471">
        <ele>38.848935</ele>
        <time>2026-05-24T07:57:11.257Z</time>
      </trkpt>
      <trkpt lat="51.529484" lon="6.967367">
        <ele>38.881970</ele>
        <time>2026-05-24T07:57:13.138Z</time>
      </trkpt>
      <trkpt lat="51.529330" lon="6.967242">
        <ele>38.948574</ele>
        <time>2026-05-24T07:57:16.970Z</time>
      </trkpt>
      <trkpt lat="51.528201" lon="6.966756">
        <ele>39.399803</ele>
        <time>2026-05-24T07:57:44.624Z</time>
      </trkpt>
      <trkpt lat="51.527874" lon="6.966536">
        <ele>39.625855</ele>
        <time>2026-05-24T07:57:54.636Z</time>
      </trkpt>
      <trkpt lat="51.527590" lon="6.966344">
        <ele>40.013692</ele>
        <time>2026-05-24T07:58:03.875Z</time>
      </trkpt>
      <trkpt lat="51.526975" lon="6.965781">
        <ele>40.904618</ele>
        <time>2026-05-24T07:58:26.594Z</time>
      </trkpt>
      <trkpt lat="51.526905" lon="6.965752">
        <ele>40.995615</ele>
        <time>2026-05-24T07:58:29.010Z</time>
      </trkpt>
      <trkpt lat="51.526779" lon="6.965801">
        <ele>41.158802</ele>
        <time>2026-05-24T07:58:33.072Z</time>
      </trkpt>
      <trkpt lat="51.526640" lon="6.965845">
        <ele>41.337138</ele>
        <time>2026-05-24T07:58:37.383Z</time>
      </trkpt>
      <trkpt lat="51.526487" lon="6.965803">
        <ele>41.532525</ele>
        <time>2026-05-24T07:58:41.934Z</time>
      </trkpt>
      <trkpt lat="51.525906" lon="6.965429">
        <ele>41.529604</ele>
        <time>2026-05-24T07:58:58.356Z</time>
      </trkpt>
      <trkpt lat="51.525874" lon="6.965408">
        <ele>41.511565</ele>
        <time>2026-05-24T07:58:59.356Z</time>
      </trkpt>
      <trkpt lat="51.525894" lon="6.965317">
        <ele>41.480229</ele>
        <time>2026-05-24T07:59:00.999Z</time>
      </trkpt>
      <trkpt lat="51.525917" lon="6.965161">
        <ele>41.428175</ele>
        <time>2026-05-24T07:59:03.373Z</time>
      </trkpt>
      <trkpt lat="51.525892" lon="6.965066">
        <ele>41.394683</ele>
        <time>2026-05-24T07:59:04.838Z</time>
      </trkpt>
      <trkpt lat="51.525776" lon="6.964812">
        <ele>41.292378</ele>
        <time>2026-05-24T07:59:09.292Z</time>
      </trkpt>
      <trkpt lat="51.525580" lon="6.964191">
        <ele>41.066282</ele>
        <time>2026-05-24T07:59:18.841Z</time>
      </trkpt>
      <trkpt lat="51.525354" lon="6.963798">
        <ele>40.892519</ele>
        <time>2026-05-24T07:59:25.623Z</time>
      </trkpt>
      <trkpt lat="51.525114" lon="6.963017">
        <ele>40.334061</ele>
        <time>2026-05-24T07:59:36.893Z</time>
      </trkpt>
      <trkpt lat="51.524359" lon="6.961206">
        <ele>38.710288</ele>
        <time>2026-05-24T08:00:05.879Z</time>
      </trkpt>
      <trkpt lat="51.524312" lon="6.961149">
        <ele>38.651957</ele>
        <time>2026-05-24T08:00:07.138Z</time>
      </trkpt>
      <trkpt lat="51.524149" lon="6.960797">
        <ele>38.459451</ele>
        <time>2026-05-24T08:00:12.968Z</time>
      </trkpt>
      <trkpt lat="51.523778" lon="6.959860">
        <ele>37.972191</ele>
        <time>2026-05-24T08:00:28.217Z</time>
      </trkpt>
      <trkpt lat="51.523250" lon="6.958527">
        <ele>37.346853</ele>
        <time>2026-05-24T08:00:51.118Z</time>
      </trkpt>
      <trkpt lat="51.522951" lon="6.957879">
        <ele>37.189690</ele>
        <time>2026-05-24T08:01:03.074Z</time>
      </trkpt>
      <trkpt lat="51.522455" lon="6.956931">
        <ele>36.948392</ele>
        <time>2026-05-24T08:01:21.416Z</time>
      </trkpt>
      <trkpt lat="51.522246" lon="6.956598">
        <ele>36.856247</ele>
        <time>2026-05-24T08:01:28.280Z</time>
      </trkpt>
      <trkpt lat="51.522065" lon="6.956385">
        <ele>36.760241</ele>
        <time>2026-05-24T08:01:33.420Z</time>
      </trkpt>
      <trkpt lat="51.521680" lon="6.955657">
        <ele>36.481779</ele>
        <time>2026-05-24T08:01:47.157Z</time>
      </trkpt>
      <trkpt lat="51.521365" lon="6.955151">
        <ele>36.273164</ele>
        <time>2026-05-24T08:01:57.433Z</time>
      </trkpt>
      <trkpt lat="51.521188" lon="6.954884">
        <ele>36.159456</ele>
        <time>2026-05-24T08:02:03.027Z</time>
      </trkpt>
      <trkpt lat="51.519861" lon="6.952911">
        <ele>34.837389</ele>
        <time>2026-05-24T08:02:44.383Z</time>
      </trkpt>
      <trkpt lat="51.519190" lon="6.951915">
        <ele>33.591480</ele>
        <time>2026-05-24T08:03:01.000Z</time>
      </trkpt>
      <trkpt lat="51.518997" lon="6.951671">
        <ele>33.173222</ele>
        <time>2026-05-24T08:03:05.285Z</time>
      </trkpt>
      <trkpt lat="51.518906" lon="6.951581">
        <ele>32.991226</ele>
        <time>2026-05-24T08:03:07.858Z</time>
      </trkpt>
      <trkpt lat="51.518822" lon="6.951547">
        <ele>32.843684</ele>
        <time>2026-05-24T08:03:09.384Z</time>
      </trkpt>
      <trkpt lat="51.518573" lon="6.951659">
        <ele>32.403273</ele>
        <time>2026-05-24T08:03:13.928Z</time>
      </trkpt>
      <trkpt lat="51.518464" lon="6.951652">
        <ele>32.217470</ele>
        <time>2026-05-24T08:03:15.840Z</time>
      </trkpt>
      <trkpt lat="51.517970" lon="6.951148">
        <ele>31.479349</ele>
        <time>2026-05-24T08:03:26.271Z</time>
      </trkpt>
      <trkpt lat="51.517644" lon="6.950880">
        <ele>31.427218</ele>
        <time>2026-05-24T08:03:33.325Z</time>
      </trkpt>
      <trkpt lat="51.517249" lon="6.950637">
        <ele>31.367004</ele>
        <time>2026-05-24T08:03:42.971Z</time>
      </trkpt>
      <trkpt lat="51.517074" lon="6.950447">
        <ele>31.336937</ele>
        <time>2026-05-24T08:03:48.024Z</time>
      </trkpt>
      <trkpt lat="51.516848" lon="6.950096">
        <ele>31.292192</ele>
        <time>2026-05-24T08:03:55.705Z</time>
      </trkpt>
      <trkpt lat="51.516762" lon="6.949951">
        <ele>31.274446</ele>
        <time>2026-05-24T08:03:59.088Z</time>
      </trkpt>
      <trkpt lat="51.514148" lon="6.945309">
        <ele>33.804783</ele>
        <time>2026-05-24T08:05:46.650Z</time>
      </trkpt>
      <trkpt lat="51.514068" lon="6.945131">
        <ele>33.847011</ele>
        <time>2026-05-24T08:05:50.991Z</time>
      </trkpt>
      <trkpt lat="51.513989" lon="6.944982">
        <ele>33.884658</ele>
        <time>2026-05-24T08:05:54.824Z</time>
      </trkpt>
      <trkpt lat="51.513510" lon="6.944127">
        <ele>34.105915</ele>
        <time>2026-05-24T08:06:13.774Z</time>
      </trkpt>
      <trkpt lat="51.513193" lon="6.943628">
        <ele>34.243058</ele>
        <time>2026-05-24T08:06:24.977Z</time>
      </trkpt>
      <trkpt lat="51.512872" lon="6.943208">
        <ele>34.308732</ele>
        <time>2026-05-24T08:06:35.221Z</time>
      </trkpt>
      <trkpt lat="51.512489" lon="6.942776">
        <ele>34.242719</ele>
        <time>2026-05-24T08:06:46.218Z</time>
      </trkpt>
      <trkpt lat="51.512234" lon="6.942547">
        <ele>34.201509</ele>
        <time>2026-05-24T08:06:53.059Z</time>
      </trkpt>
      <trkpt lat="51.511729" lon="6.942186">
        <ele>34.123537</ele>
        <time>2026-05-24T08:07:06.231Z</time>
      </trkpt>
      <trkpt lat="51.511437" lon="6.941836">
        <ele>34.072559</ele>
        <time>2026-05-24T08:07:15.484Z</time>
      </trkpt>
      <trkpt lat="51.511397" lon="6.941825">
        <ele>34.067835</ele>
        <time>2026-05-24T08:07:16.547Z</time>
      </trkpt>
      <trkpt lat="51.511138" lon="6.941893">
        <ele>34.037283</ele>
        <time>2026-05-24T08:07:22.455Z</time>
      </trkpt>
      <trkpt lat="51.511010" lon="6.941815">
        <ele>34.021347</ele>
        <time>2026-05-24T08:07:25.509Z</time>
      </trkpt>
      <trkpt lat="51.511124" lon="6.941428">
        <ele>33.990325</ele>
        <time>2026-05-24T08:07:31.402Z</time>
      </trkpt>
      <trkpt lat="51.511191" lon="6.941286">
        <ele>33.977415</ele>
        <time>2026-05-24T08:07:33.867Z</time>
      </trkpt>
      <trkpt lat="51.511123" lon="6.941184">
        <ele>33.966585</ele>
        <time>2026-05-24T08:07:35.872Z</time>
      </trkpt>
      <trkpt lat="51.510024" lon="6.939723">
        <ele>33.879310</ele>
        <time>2026-05-24T08:08:06.030Z</time>
      </trkpt>
      <trkpt lat="51.509813" lon="6.939447">
        <ele>33.886268</ele>
        <time>2026-05-24T08:08:12.188Z</time>
      </trkpt>
      <trkpt lat="51.509487" lon="6.939004">
        <ele>33.897188</ele>
        <time>2026-05-24T08:08:22.195Z</time>
      </trkpt>
      <trkpt lat="51.509405" lon="6.938840">
        <ele>33.900536</ele>
        <time>2026-05-24T08:08:25.323Z</time>
      </trkpt>
      <trkpt lat="51.509263" lon="6.938372">
        <ele>33.908823</ele>
        <time>2026-05-24T08:08:33.215Z</time>
      </trkpt>
      <trkpt lat="51.509120" lon="6.937898">
        <ele>33.748436</ele>
        <time>2026-05-24T08:08:40.767Z</time>
      </trkpt>
      <trkpt lat="51.508917" lon="6.937332">
        <ele>33.470564</ele>
        <time>2026-05-24T08:08:49.186Z</time>
      </trkpt>
      <trkpt lat="51.508681" lon="6.936957">
        <ele>33.243716</ele>
        <time>2026-05-24T08:08:55.546Z</time>
      </trkpt>
      <trkpt lat="51.508330" lon="6.936629">
        <ele>32.966205</ele>
        <time>2026-05-24T08:09:03.018Z</time>
      </trkpt>
      <trkpt lat="51.507796" lon="6.936138">
        <ele>32.690126</ele>
        <time>2026-05-24T08:09:15.010Z</time>
      </trkpt>
      <trkpt lat="51.507541" lon="6.935732">
        <ele>32.705035</ele>
        <time>2026-05-24T08:09:22.161Z</time>
      </trkpt>
      <trkpt lat="51.507514" lon="6.935415">
        <ele>32.713305</ele>
        <time>2026-05-24T08:09:26.244Z</time>
      </trkpt>
      <trkpt lat="51.507519" lon="6.935285">
        <ele>32.716671</ele>
        <time>2026-05-24T08:09:27.934Z</time>
      </trkpt>
      <trkpt lat="51.507514" lon="6.935077">
        <ele>32.722052</ele>
        <time>2026-05-24T08:09:30.767Z</time>
      </trkpt>
      <trkpt lat="51.507355" lon="6.935079">
        <ele>32.728655</ele>
        <time>2026-05-24T08:09:34.474Z</time>
      </trkpt>
      <trkpt lat="51.506573" lon="6.935094">
        <ele>32.892983</ele>
        <time>2026-05-24T08:09:55.605Z</time>
      </trkpt>
      <trkpt lat="51.506179" lon="6.935105">
        <ele>33.380012</ele>
        <time>2026-05-24T08:10:06.938Z</time>
      </trkpt>
      <trkpt lat="51.505773" lon="6.933357">
        <ele>34.815290</ele>
        <time>2026-05-24T08:10:39.971Z</time>
      </trkpt>
      <trkpt lat="51.505522" lon="6.932838">
        <ele>35.020318</ele>
        <time>2026-05-24T08:10:50.365Z</time>
      </trkpt>
      <trkpt lat="51.505261" lon="6.932298">
        <ele>35.083144</ele>
        <time>2026-05-24T08:10:59.613Z</time>
      </trkpt>
      <trkpt lat="51.504806" lon="6.931236">
        <ele>35.201620</ele>
        <time>2026-05-24T08:11:16.228Z</time>
      </trkpt>
      <trkpt lat="51.504731" lon="6.930954">
        <ele>35.229801</ele>
        <time>2026-05-24T08:11:20.476Z</time>
      </trkpt>
      <trkpt lat="51.504710" lon="6.930787">
        <ele>35.248051</ele>
        <time>2026-05-24T08:11:22.897Z</time>
      </trkpt>
      <trkpt lat="51.504747" lon="6.930576">
        <ele>35.407812</ele>
        <time>2026-05-24T08:11:26.109Z</time>
      </trkpt>
      <trkpt lat="51.504921" lon="6.930166">
        <ele>35.769459</ele>
        <time>2026-05-24T08:11:33.957Z</time>
      </trkpt>
      <trkpt lat="51.504889" lon="6.930065">
        <ele>35.852054</ele>
        <time>2026-05-24T08:11:35.871Z</time>
      </trkpt>
      <trkpt lat="51.504901" lon="6.929922">
        <ele>35.957214</ele>
        <time>2026-05-24T08:11:38.310Z</time>
      </trkpt>
      <trkpt lat="51.504796" lon="6.929809">
        <ele>36.105187</ele>
        <time>2026-05-24T08:11:41.842Z</time>
      </trkpt>
      <trkpt lat="51.504769" lon="6.929733">
        <ele>36.168962</ele>
        <time>2026-05-24T08:11:43.403Z</time>
      </trkpt>
      <trkpt lat="51.504348" lon="6.928590">
        <ele>37.136891</ele>
        <time>2026-05-24T08:12:07.983Z</time>
      </trkpt>
      <trkpt lat="51.504171" lon="6.927786">
        <ele>37.410745</ele>
        <time>2026-05-24T08:12:22.182Z</time>
      </trkpt>
      <trkpt lat="51.504070" lon="6.927164">
        <ele>37.479428</ele>
        <time>2026-05-24T08:12:31.724Z</time>
      </trkpt>
      <trkpt lat="51.503973" lon="6.926551">
        <ele>37.547009</ele>
        <time>2026-05-24T08:12:40.157Z</time>
      </trkpt>
      <trkpt lat="51.503757" lon="6.924780">
        <ele>37.523903</ele>
        <time>2026-05-24T08:13:03.128Z</time>
      </trkpt>
      <trkpt lat="51.503600" lon="6.923480">
        <ele>37.283834</ele>
        <time>2026-05-24T08:13:20.599Z</time>
      </trkpt>
      <trkpt lat="51.503508" lon="6.923509">
        <ele>37.256529</ele>
        <time>2026-05-24T08:13:22.640Z</time>
      </trkpt>
      <trkpt lat="51.502853" lon="6.923726">
        <ele>37.065259</ele>
        <time>2026-05-24T08:13:37.226Z</time>
      </trkpt>
      <trkpt lat="51.502666" lon="6.923791">
        <ele>37.012171</ele>
        <time>2026-05-24T08:13:41.387Z</time>
      </trkpt>
      <trkpt lat="51.502107" lon="6.923984">
        <ele>36.853524</ele>
        <time>2026-05-24T08:13:53.517Z</time>
      </trkpt>
      <trkpt lat="51.501841" lon="6.924021">
        <ele>36.779441</ele>
        <time>2026-05-24T08:13:59.096Z</time>
      </trkpt>
      <trkpt lat="51.501591" lon="6.923273">
        <ele>36.633808</ele>
        <time>2026-05-24T08:14:10.177Z</time>
      </trkpt>
      <trkpt lat="51.500561" lon="6.921071">
        <ele>36.276375</ele>
        <time>2026-05-24T08:14:46.662Z</time>
      </trkpt>
      <trkpt lat="51.500396" lon="6.920586">
        <ele>36.289483</ele>
        <time>2026-05-24T08:14:54.321Z</time>
      </trkpt>
      <trkpt lat="51.500383" lon="6.920532">
        <ele>36.293103</ele>
        <time>2026-05-24T08:14:55.118Z</time>
      </trkpt>
      <trkpt lat="51.499867" lon="6.917969">
        <ele>36.446763</ele>
        <time>2026-05-24T08:15:33.570Z</time>
      </trkpt>
      <trkpt lat="51.499675" lon="6.917175">
        <ele>36.458555</ele>
        <time>2026-05-24T08:15:45.550Z</time>
      </trkpt>
      <trkpt lat="51.499397" lon="6.916284">
        <ele>36.472352</ele>
        <time>2026-05-24T08:15:59.780Z</time>
      </trkpt>
      <trkpt lat="51.499251" lon="6.916001">
        <ele>36.477441</ele>
        <time>2026-05-24T08:16:04.879Z</time>
      </trkpt>
      <trkpt lat="51.499134" lon="6.916137">
        <ele>36.480652</ele>
        <time>2026-05-24T08:16:08.050Z</time>
      </trkpt>
      <trkpt lat="51.498866" lon="6.916312">
        <ele>36.254575</ele>
        <time>2026-05-24T08:16:14.223Z</time>
      </trkpt>
      <trkpt lat="51.498711" lon="6.916384">
        <ele>36.073775</ele>
        <time>2026-05-24T08:16:17.552Z</time>
      </trkpt>
      <trkpt lat="51.498080" lon="6.916558">
        <ele>35.356370</ele>
        <time>2026-05-24T08:16:30.312Z</time>
      </trkpt>
      <trkpt lat="51.497603" lon="6.916626">
        <ele>34.819771</ele>
        <time>2026-05-24T08:16:39.091Z</time>
      </trkpt>
      <trkpt lat="51.496902" lon="6.916618">
        <ele>33.850560</ele>
        <time>2026-05-24T08:16:51.132Z</time>
      </trkpt>
      <trkpt lat="51.496747" lon="6.916613">
        <ele>33.603120</ele>
        <time>2026-05-24T08:16:53.773Z</time>
      </trkpt>
      <trkpt lat="51.496440" lon="6.916629">
        <ele>33.112869</ele>
        <time>2026-05-24T08:16:59.120Z</time>
      </trkpt>
      <trkpt lat="51.496103" lon="6.916680">
        <ele>32.572612</ele>
        <time>2026-05-24T08:17:05.137Z</time>
      </trkpt>
      <trkpt lat="51.495998" lon="6.916690">
        <ele>32.404731</ele>
        <time>2026-05-24T08:17:07.049Z</time>
      </trkpt>
      <trkpt lat="51.495929" lon="6.916655">
        <ele>32.289241</ele>
        <time>2026-05-24T08:17:08.366Z</time>
      </trkpt>
      <trkpt lat="51.495886" lon="6.916601">
        <ele>32.202124</ele>
        <time>2026-05-24T08:17:09.373Z</time>
      </trkpt>
      <trkpt lat="51.495865" lon="6.916521">
        <ele>32.115854</ele>
        <time>2026-05-24T08:17:10.361Z</time>
      </trkpt>
      <trkpt lat="51.495481" lon="6.914517">
        <ele>31.794379</ele>
        <time>2026-05-24T08:17:38.618Z</time>
      </trkpt>
      <trkpt lat="51.495173" lon="6.912882">
        <ele>31.869832</ele>
        <time>2026-05-24T08:18:06.370Z</time>
      </trkpt>
      <trkpt lat="51.495155" lon="6.911621">
        <ele>31.581049</ele>
        <time>2026-05-24T08:18:23.849Z</time>
      </trkpt>
      <trkpt lat="51.495094" lon="6.911394">
        <ele>31.524442</ele>
        <time>2026-05-24T08:18:26.946Z</time>
      </trkpt>
      <trkpt lat="51.494996" lon="6.911286">
        <ele>31.480736</ele>
        <time>2026-05-24T08:18:29.255Z</time>
      </trkpt>
      <trkpt lat="51.494877" lon="6.909745">
        <ele>30.792389</ele>
        <time>2026-05-24T08:18:49.059Z</time>
      </trkpt>
      <trkpt lat="51.494780" lon="6.908935">
        <ele>30.240590</ele>
        <time>2026-05-24T08:18:59.721Z</time>
      </trkpt>
      <trkpt lat="51.494771" lon="6.907887">
        <ele>29.539442</ele>
        <time>2026-05-24T08:19:14.203Z</time>
      </trkpt>
      <trkpt lat="51.494756" lon="6.905945">
        <ele>29.080541</ele>
        <time>2026-05-24T08:19:43.251Z</time>
      </trkpt>
      <trkpt lat="51.494870" lon="6.901624">
        <ele>28.635009</ele>
        <time>2026-05-24T08:20:47.015Z</time>
      </trkpt>
      <trkpt lat="51.494898" lon="6.900164">
        <ele>29.194455</ele>
        <time>2026-05-24T08:21:12.875Z</time>
      </trkpt>
      <trkpt lat="51.494812" lon="6.899493">
        <ele>29.456838</ele>
        <time>2026-05-24T08:21:25.288Z</time>
      </trkpt>
      <trkpt lat="51.494814" lon="6.899211">
        <ele>29.564851</ele>
        <time>2026-05-24T08:21:30.139Z</time>
      </trkpt>
      <trkpt lat="51.494836" lon="6.898524">
        <ele>29.572356</ele>
        <time>2026-05-24T08:21:41.119Z</time>
      </trkpt>
      <trkpt lat="51.494971" lon="6.897818">
        <ele>29.440750</ele>
        <time>2026-05-24T08:21:51.944Z</time>
      </trkpt>
      <trkpt lat="51.494995" lon="6.896816">
        <ele>29.262065</ele>
        <time>2026-05-24T08:22:06.055Z</time>
      </trkpt>
      <trkpt lat="51.495012" lon="6.896093">
        <ele>29.135823</ele>
        <time>2026-05-24T08:22:16.155Z</time>
      </trkpt>
      <trkpt lat="51.495121" lon="6.891796">
        <ele>28.986728</ele>
        <time>2026-05-24T08:23:21.293Z</time>
      </trkpt>
      <trkpt lat="51.495188" lon="6.888968">
        <ele>29.425965</ele>
        <time>2026-05-24T08:24:07.387Z</time>
      </trkpt>
      <trkpt lat="51.495263" lon="6.886585">
        <ele>29.887818</ele>
        <time>2026-05-24T08:24:46.628Z</time>
      </trkpt>
      <trkpt lat="51.495286" lon="6.885308">
        <ele>30.054036</ele>
        <time>2026-05-24T08:25:07.062Z</time>
      </trkpt>
      <trkpt lat="51.495347" lon="6.883108">
        <ele>30.165083</ele>
        <time>2026-05-24T08:25:40.320Z</time>
      </trkpt>
      <trkpt lat="51.495318" lon="6.881616">
        <ele>30.194368</ele>
        <time>2026-05-24T08:26:03.471Z</time>
      </trkpt>
      <trkpt lat="51.495339" lon="6.879604">
        <ele>30.560486</ele>
        <time>2026-05-24T08:26:36.340Z</time>
      </trkpt>
      <trkpt lat="51.495325" lon="6.878529">
        <ele>30.721160</ele>
        <time>2026-05-24T08:26:53.687Z</time>
      </trkpt>
      <trkpt lat="51.495228" lon="6.874435">
        <ele>30.935916</ele>
        <time>2026-05-24T08:27:57.150Z</time>
      </trkpt>
      <trkpt lat="51.495181" lon="6.874076">
        <ele>30.953758</ele>
        <time>2026-05-24T08:28:02.580Z</time>
      </trkpt>
      <trkpt lat="51.495160" lon="6.873408">
        <ele>30.986288</ele>
        <time>2026-05-24T08:28:12.781Z</time>
      </trkpt>
      <trkpt lat="51.495156" lon="6.872985">
        <ele>31.021524</ele>
        <time>2026-05-24T08:28:19.414Z</time>
      </trkpt>
      <trkpt lat="51.495108" lon="6.870847">
        <ele>31.727467</ele>
        <time>2026-05-24T08:28:56.193Z</time>
      </trkpt>
      <trkpt lat="51.495059" lon="6.869913">
        <ele>31.888204</ele>
        <time>2026-05-24T08:29:12.186Z</time>
      </trkpt>
      <trkpt lat="51.494974" lon="6.868999">
        <ele>31.620666</ele>
        <time>2026-05-24T08:29:26.069Z</time>
      </trkpt>
      <trkpt lat="51.494616" lon="6.865879">
        <ele>30.948443</ele>
        <time>2026-05-24T08:30:09.200Z</time>
      </trkpt>
      <trkpt lat="51.494647" lon="6.865516">
        <ele>30.904697</ele>
        <time>2026-05-24T08:30:14.920Z</time>
      </trkpt>
      <trkpt lat="51.494677" lon="6.865455">
        <ele>30.895416</ele>
        <time>2026-05-24T08:30:16.151Z</time>
      </trkpt>
      <trkpt lat="51.495050" lon="6.865397">
        <ele>30.823552</ele>
        <time>2026-05-24T08:30:26.395Z</time>
      </trkpt>
      <trkpt lat="51.495038" lon="6.864567">
        <ele>30.752916</ele>
        <time>2026-05-24T08:30:39.860Z</time>
      </trkpt>
      <trkpt lat="51.495038" lon="6.864491">
        <ele>30.748822</ele>
        <time>2026-05-24T08:30:41.007Z</time>
      </trkpt>
      <trkpt lat="51.495008" lon="6.863986">
        <ele>30.721493</ele>
        <time>2026-05-24T08:30:48.393Z</time>
      </trkpt>
      <trkpt lat="51.494984" lon="6.863624">
        <ele>30.701880</ele>
        <time>2026-05-24T08:30:53.454Z</time>
      </trkpt>
      <trkpt lat="51.494887" lon="6.863633">
        <ele>30.693473</ele>
        <time>2026-05-24T08:30:55.537Z</time>
      </trkpt>
      <trkpt lat="51.494851" lon="6.863388">
        <ele>30.679911</ele>
        <time>2026-05-24T08:30:58.861Z</time>
      </trkpt>
      <trkpt lat="51.494545" lon="6.863458">
        <ele>30.653165</ele>
        <time>2026-05-24T08:31:05.244Z</time>
      </trkpt>
      <trkpt lat="51.494433" lon="6.863473">
        <ele>30.643440</ele>
        <time>2026-05-24T08:31:08.270Z</time>
      </trkpt>
      <trkpt lat="51.494258" lon="6.862807">
        <ele>30.561304</ele>
        <time>2026-05-24T08:31:20.159Z</time>
      </trkpt>
      <trkpt lat="51.494129" lon="6.861742">
        <ele>30.347052</ele>
        <time>2026-05-24T08:31:38.153Z</time>
      </trkpt>
      <trkpt lat="51.494096" lon="6.861404">
        <ele>30.279491</ele>
        <time>2026-05-24T08:31:44.505Z</time>
      </trkpt>
      <trkpt lat="51.494111" lon="6.861298">
        <ele>30.258025</ele>
        <time>2026-05-24T08:31:46.546Z</time>
      </trkpt>
      <trkpt lat="51.494055" lon="6.860741">
        <ele>30.146608</ele>
        <time>2026-05-24T08:31:56.975Z</time>
      </trkpt>
      <trkpt lat="51.493948" lon="6.860122">
        <ele>30.034848</ele>
        <time>2026-05-24T08:32:07.064Z</time>
      </trkpt>
      <trkpt lat="51.493853" lon="6.859678">
        <ele>29.988091</ele>
        <time>2026-05-24T08:32:14.443Z</time>
      </trkpt>
      <trkpt lat="51.493744" lon="6.859165">
        <ele>29.934107</ele>
        <time>2026-05-24T08:32:22.860Z</time>
      </trkpt>
      <trkpt lat="51.493530" lon="6.858341">
        <ele>29.845189</ele>
        <time>2026-05-24T08:32:36.101Z</time>
      </trkpt>
      <trkpt lat="51.492749" lon="6.855297">
        <ele>29.264759</ele>
        <time>2026-05-24T08:33:23.453Z</time>
      </trkpt>
      <trkpt lat="51.492565" lon="6.854593">
        <ele>29.191659</ele>
        <time>2026-05-24T08:33:37.716Z</time>
      </trkpt>
      <trkpt lat="51.492591" lon="6.854082">
        <ele>29.211749</ele>
        <time>2026-05-24T08:33:47.314Z</time>
      </trkpt>
      <trkpt lat="51.492699" lon="6.853737">
        <ele>29.226881</ele>
        <time>2026-05-24T08:33:54.452Z</time>
      </trkpt>
      <trkpt lat="51.492776" lon="6.853609">
        <ele>29.233855</ele>
        <time>2026-05-24T08:33:57.755Z</time>
      </trkpt>
      <trkpt lat="51.493169" lon="6.853133">
        <ele>29.264833</ele>
        <time>2026-05-24T08:34:12.080Z</time>
      </trkpt>
      <trkpt lat="51.493247" lon="6.852992">
        <ele>29.272224</ele>
        <time>2026-05-24T08:34:15.507Z</time>
      </trkpt>
      <trkpt lat="51.493302" lon="6.852820">
        <ele>29.279801</ele>
        <time>2026-05-24T08:34:19.005Z</time>
      </trkpt>
      <trkpt lat="51.493296" lon="6.852746">
        <ele>29.282725</ele>
        <time>2026-05-24T08:34:20.383Z</time>
      </trkpt>
      <trkpt lat="51.493348" lon="6.852732">
        <ele>29.286043</ele>
        <time>2026-05-24T08:34:21.924Z</time>
      </trkpt>
      <trkpt lat="51.493403" lon="6.852711">
        <ele>29.289601</ele>
        <time>2026-05-24T08:34:23.621Z</time>
      </trkpt>
      <trkpt lat="51.493566" lon="6.852648">
        <ele>29.351739</ele>
        <time>2026-05-24T08:34:28.685Z</time>
      </trkpt>
      <trkpt lat="51.493606" lon="6.852561">
        <ele>29.381737</ele>
        <time>2026-05-24T08:34:30.695Z</time>
      </trkpt>
      <trkpt lat="51.493307" lon="6.852221">
        <ele>29.544943</ele>
        <time>2026-05-24T08:34:39.260Z</time>
      </trkpt>
      <trkpt lat="51.493046" lon="6.851773">
        <ele>29.715120</ele>
        <time>2026-05-24T08:34:48.630Z</time>
      </trkpt>
      <trkpt lat="51.492419" lon="6.850072">
        <ele>30.090739</ele>
        <time>2026-05-24T08:35:19.065Z</time>
      </trkpt>
      <trkpt lat="51.492360" lon="6.849899">
        <ele>30.090030</ele>
        <time>2026-05-24T08:35:21.785Z</time>
      </trkpt>
      <trkpt lat="51.492271" lon="6.849655">
        <ele>30.089014</ele>
        <time>2026-05-24T08:35:25.642Z</time>
      </trkpt>
      <trkpt lat="51.492209" lon="6.849704">
        <ele>30.088615</ele>
        <time>2026-05-24T08:35:27.315Z</time>
      </trkpt>
      <trkpt lat="51.492180" lon="6.849760">
        <ele>30.088353</ele>
        <time>2026-05-24T08:35:28.437Z</time>
      </trkpt>
      <trkpt lat="51.492000" lon="6.849876">
        <ele>30.087233</ele>
        <time>2026-05-24T08:35:33.079Z</time>
      </trkpt>
      <trkpt lat="51.491789" lon="6.849832">
        <ele>30.086004</ele>
        <time>2026-05-24T08:35:38.090Z</time>
      </trkpt>
      <trkpt lat="51.491551" lon="6.849864">
        <ele>30.084625</ele>
        <time>2026-05-24T08:35:43.633Z</time>
      </trkpt>
      <trkpt lat="51.491365" lon="6.849813">
        <ele>30.083536</ele>
        <time>2026-05-24T08:35:47.970Z</time>
      </trkpt>
      <trkpt lat="51.491207" lon="6.849452">
        <ele>30.082566</ele>
        <time>2026-05-24T08:35:54.531Z</time>
      </trkpt>
      <trkpt lat="51.490682" lon="6.847411">
        <ele>30.082596</ele>
        <time>2026-05-24T08:36:28.841Z</time>
      </trkpt>
      <trkpt lat="51.490454" lon="6.846618">
        <ele>30.068164</ele>
        <time>2026-05-24T08:36:42.377Z</time>
      </trkpt>
      <trkpt lat="51.489533" lon="6.843084">
        <ele>29.847251</ele>
        <time>2026-05-24T08:37:40.397Z</time>
      </trkpt>
      <trkpt lat="51.488769" lon="6.840149">
        <ele>29.391916</ele>
        <time>2026-05-24T08:38:27.989Z</time>
      </trkpt>
      <trkpt lat="51.488602" lon="6.839401">
        <ele>29.238272</ele>
        <time>2026-05-24T08:38:39.502Z</time>
      </trkpt>
      <trkpt lat="51.488532" lon="6.839278">
        <ele>29.206052</ele>
        <time>2026-05-24T08:38:41.876Z</time>
      </trkpt>
      <trkpt lat="51.487969" lon="6.836975">
        <ele>28.730975</ele>
        <time>2026-05-24T08:39:17.609Z</time>
      </trkpt>
      <trkpt lat="51.487803" lon="6.835860">
        <ele>28.619884</ele>
        <time>2026-05-24T08:39:35.055Z</time>
      </trkpt>
      <trkpt lat="51.486659" lon="6.831476">
        <ele>29.043026</ele>
        <time>2026-05-24T08:40:50.512Z</time>
      </trkpt>
      <trkpt lat="51.485758" lon="6.828195">
        <ele>29.144701</ele>
        <time>2026-05-24T08:41:46.180Z</time>
      </trkpt>
      <trkpt lat="51.485598" lon="6.827510">
        <ele>29.074756</ele>
        <time>2026-05-24T08:41:57.126Z</time>
      </trkpt>
      <trkpt lat="51.485481" lon="6.827120">
        <ele>29.033369</ele>
        <time>2026-05-24T08:42:03.594Z</time>
      </trkpt>
      <trkpt lat="51.485406" lon="6.826802">
        <ele>29.000859</ele>
        <time>2026-05-24T08:42:08.675Z</time>
      </trkpt>
      <trkpt lat="51.485397" lon="6.826675">
        <ele>28.988638</ele>
        <time>2026-05-24T08:42:10.597Z</time>
      </trkpt>
      <trkpt lat="51.485256" lon="6.825861">
        <ele>28.907860</ele>
        <time>2026-05-24T08:42:21.904Z</time>
      </trkpt>
      <trkpt lat="51.485186" lon="6.825135">
        <ele>28.839469</ele>
        <time>2026-05-24T08:42:31.641Z</time>
      </trkpt>
      <trkpt lat="51.485111" lon="6.824942">
        <ele>28.818767</ele>
        <time>2026-05-24T08:42:34.733Z</time>
      </trkpt>
      <trkpt lat="51.484959" lon="6.824854">
        <ele>28.795155</ele>
        <time>2026-05-24T08:42:38.270Z</time>
      </trkpt>
      <trkpt lat="51.484676" lon="6.824821">
        <ele>28.753691</ele>
        <time>2026-05-24T08:42:44.511Z</time>
      </trkpt>
      <trkpt lat="51.484600" lon="6.824793">
        <ele>28.742296</ele>
        <time>2026-05-24T08:42:46.212Z</time>
      </trkpt>
      <trkpt lat="51.484494" lon="6.824654">
        <ele>28.722298</ele>
        <time>2026-05-24T08:42:49.238Z</time>
      </trkpt>
      <trkpt lat="51.484081" lon="6.823413">
        <ele>28.577433</ele>
        <time>2026-05-24T08:43:08.105Z</time>
      </trkpt>
      <trkpt lat="51.483926" lon="6.823100">
        <ele>28.508550</ele>
        <time>2026-05-24T08:43:13.397Z</time>
      </trkpt>
      <trkpt lat="51.483350" lon="6.821970">
        <ele>28.257014</ele>
        <time>2026-05-24T08:43:32.842Z</time>
      </trkpt>
      <trkpt lat="51.483314" lon="6.821991">
        <ele>28.246419</ele>
        <time>2026-05-24T08:43:33.629Z</time>
      </trkpt>
      <trkpt lat="51.483158" lon="6.821896">
        <ele>28.200271</ele>
        <time>2026-05-24T08:43:37.126Z</time>
      </trkpt>
      <trkpt lat="51.482991" lon="6.821440">
        <ele>28.113228</ele>
        <time>2026-05-24T08:43:46.306Z</time>
      </trkpt>
      <trkpt lat="51.482872" lon="6.821186">
        <ele>28.093232</ele>
        <time>2026-05-24T08:43:51.848Z</time>
      </trkpt>
      <trkpt lat="51.482467" lon="6.820444">
        <ele>28.031160</ele>
        <time>2026-05-24T08:44:09.307Z</time>
      </trkpt>
      <trkpt lat="51.482182" lon="6.819968">
        <ele>27.989619</ele>
        <time>2026-05-24T08:44:20.973Z</time>
      </trkpt>
      <trkpt lat="51.482062" lon="6.819769">
        <ele>27.972193</ele>
        <time>2026-05-24T08:44:25.872Z</time>
      </trkpt>
      <trkpt lat="51.481848" lon="6.819346">
        <ele>27.937907</ele>
        <time>2026-05-24T08:44:35.993Z</time>
      </trkpt>
      <trkpt lat="51.481622" lon="6.819013">
        <ele>28.054069</ele>
        <time>2026-05-24T08:44:45.465Z</time>
      </trkpt>
      <trkpt lat="51.481511" lon="6.819168">
        <ele>28.120329</ele>
        <time>2026-05-24T08:44:50.121Z</time>
      </trkpt>
      <trkpt lat="51.481466" lon="6.819226">
        <ele>28.146321</ele>
        <time>2026-05-24T08:44:51.960Z</time>
      </trkpt>
      <trkpt lat="51.481416" lon="6.819294">
        <ele>28.175835</ele>
        <time>2026-05-24T08:44:54.027Z</time>
      </trkpt>
      <trkpt lat="51.481321" lon="6.819422">
        <ele>28.231695</ele>
        <time>2026-05-24T08:44:57.135Z</time>
      </trkpt>
      <trkpt lat="51.481306" lon="6.819443">
        <ele>28.240659</ele>
        <time>2026-05-24T08:44:57.768Z</time>
      </trkpt>
      <trkpt lat="51.481282" lon="6.819474">
        <ele>28.254533</ele>
        <time>2026-05-24T08:44:58.757Z</time>
      </trkpt>
      <trkpt lat="51.481238" lon="6.819532">
        <ele>28.280176</ele>
        <time>2026-05-24T08:45:00.592Z</time>
      </trkpt>
      <trkpt lat="51.481144" lon="6.819655">
        <ele>28.334795</ele>
        <time>2026-05-24T08:45:03.627Z</time>
      </trkpt>
      <trkpt lat="51.481091" lon="6.819723">
        <ele>28.365353</ele>
        <time>2026-05-24T08:45:05.773Z</time>
      </trkpt>
      <trkpt lat="51.481058" lon="6.819766">
        <ele>28.384496</ele>
        <time>2026-05-24T08:45:07.121Z</time>
      </trkpt>
      <trkpt lat="51.480998" lon="6.819843">
        <ele>28.419094</ele>
        <time>2026-05-24T08:45:09.557Z</time>
      </trkpt>
      <trkpt lat="51.480976" lon="6.820014">
        <ele>28.468076</ele>
        <time>2026-05-24T08:45:12.980Z</time>
      </trkpt>
      <trkpt lat="51.480737" lon="6.820344">
        <ele>28.610058</ele>
        <time>2026-05-24T08:45:22.876Z</time>
      </trkpt>
      <trkpt lat="51.480653" lon="6.820464">
        <ele>28.660702</ele>
        <time>2026-05-24T08:45:25.732Z</time>
      </trkpt>
      <trkpt lat="51.480504" lon="6.820251">
        <ele>28.742910</ele>
        <time>2026-05-24T08:45:31.977Z</time>
      </trkpt>
      <trkpt lat="51.480457" lon="6.820265">
        <ele>28.739129</ele>
        <time>2026-05-24T08:45:33.459Z</time>
      </trkpt>
      <trkpt lat="51.480341" lon="6.820051">
        <ele>28.725154</ele>
        <time>2026-05-24T08:45:38.834Z</time>
      </trkpt>
      <trkpt lat="51.480201" lon="6.819789">
        <ele>28.708148</ele>
        <time>2026-05-24T08:45:45.187Z</time>
      </trkpt>
      <trkpt lat="51.480131" lon="6.819751">
        <ele>28.702304</ele>
        <time>2026-05-24T08:45:47.379Z</time>
      </trkpt>
      <trkpt lat="51.479888" lon="6.819286">
        <ele>28.672402</ele>
        <time>2026-05-24T08:45:58.285Z</time>
      </trkpt>
      <trkpt lat="51.479814" lon="6.819077">
        <ele>28.660559</ele>
        <time>2026-05-24T08:46:02.537Z</time>
      </trkpt>
      <trkpt lat="51.479515" lon="6.818573">
        <ele>28.626270</ele>
        <time>2026-05-24T08:46:14.659Z</time>
      </trkpt>
      <trkpt lat="51.479389" lon="6.818404">
        <ele>28.613284</ele>
        <time>2026-05-24T08:46:19.240Z</time>
      </trkpt>
      <trkpt lat="51.479279" lon="6.818312">
        <ele>28.603474</ele>
        <time>2026-05-24T08:46:22.683Z</time>
      </trkpt>
      <trkpt lat="51.479245" lon="6.818184">
        <ele>28.588164</ele>
        <time>2026-05-24T08:46:24.481Z</time>
      </trkpt>
      <trkpt lat="51.479205" lon="6.818068">
        <ele>28.570944</ele>
        <time>2026-05-24T08:46:26.197Z</time>
      </trkpt>
      <trkpt lat="51.478281" lon="6.816320">
        <ele>28.273192</ele>
        <time>2026-05-24T08:46:56.634Z</time>
      </trkpt>
      <trkpt lat="51.477897" lon="6.815293">
        <ele>28.208112</ele>
        <time>2026-05-24T08:47:13.359Z</time>
      </trkpt>
      <trkpt lat="51.477827" lon="6.815222">
        <ele>28.205166</ele>
        <time>2026-05-24T08:47:15.231Z</time>
      </trkpt>
      <trkpt lat="51.477783" lon="6.814844">
        <ele>28.196643</ele>
        <time>2026-05-24T08:47:21.165Z</time>
      </trkpt>
      <trkpt lat="51.477807" lon="6.814716">
        <ele>28.193681</ele>
        <time>2026-05-24T08:47:23.292Z</time>
      </trkpt>
      <trkpt lat="51.477867" lon="6.814608">
        <ele>28.190473</ele>
        <time>2026-05-24T08:47:25.497Z</time>
      </trkpt>
      <trkpt lat="51.477820" lon="6.814497">
        <ele>28.187499</ele>
        <time>2026-05-24T08:47:27.581Z</time>
      </trkpt>
      <trkpt lat="51.477594" lon="6.813965">
        <ele>28.173227</ele>
        <time>2026-05-24T08:47:37.244Z</time>
      </trkpt>
      <trkpt lat="51.476920" lon="6.812762">
        <ele>28.117118</ele>
        <time>2026-05-24T08:48:02.066Z</time>
      </trkpt>
      <trkpt lat="51.476295" lon="6.811794">
        <ele>28.061548</ele>
        <time>2026-05-24T08:48:23.738Z</time>
      </trkpt>
      <trkpt lat="51.475737" lon="6.810888">
        <ele>27.731200</ele>
        <time>2026-05-24T08:48:42.447Z</time>
      </trkpt>
      <trkpt lat="51.475714" lon="6.810813">
        <ele>27.702601</ele>
        <time>2026-05-24T08:48:43.607Z</time>
      </trkpt>
      <trkpt lat="51.475660" lon="6.810647">
        <ele>27.638533</ele>
        <time>2026-05-24T08:48:46.210Z</time>
      </trkpt>
      <trkpt lat="51.475489" lon="6.810380">
        <ele>27.507519</ele>
        <time>2026-05-24T08:48:51.394Z</time>
      </trkpt>
      <trkpt lat="51.474542" lon="6.809038">
        <ele>26.995549</ele>
        <time>2026-05-24T08:49:19.780Z</time>
      </trkpt>
      <trkpt lat="51.474390" lon="6.809008">
        <ele>26.973607</ele>
        <time>2026-05-24T08:49:24.081Z</time>
      </trkpt>
      <trkpt lat="51.473755" lon="6.808186">
        <ele>26.856736</ele>
        <time>2026-05-24T08:49:44.343Z</time>
      </trkpt>
      <trkpt lat="51.473227" lon="6.807449">
        <ele>26.796890</ele>
        <time>2026-05-24T08:50:02.262Z</time>
      </trkpt>
      <trkpt lat="51.472848" lon="6.806968">
        <ele>26.789103</ele>
        <time>2026-05-24T08:50:14.172Z</time>
      </trkpt>
      <trkpt lat="51.472715" lon="6.806792">
        <ele>26.786325</ele>
        <time>2026-05-24T08:50:18.363Z</time>
      </trkpt>
      <trkpt lat="51.472341" lon="6.806192">
        <ele>26.777804</ele>
        <time>2026-05-24T08:50:31.275Z</time>
      </trkpt>
      <trkpt lat="51.471898" lon="6.805649">
        <ele>26.837941</ele>
        <time>2026-05-24T08:50:44.807Z</time>
      </trkpt>
      <trkpt lat="51.471788" lon="6.805517">
        <ele>26.872151</ele>
        <time>2026-05-24T08:50:48.205Z</time>
      </trkpt>
      <trkpt lat="51.471728" lon="6.805434">
        <ele>26.891880</ele>
        <time>2026-05-24T08:50:50.197Z</time>
      </trkpt>
      <trkpt lat="51.471225" lon="6.804793">
        <ele>27.051856</ele>
        <time>2026-05-24T08:51:07.183Z</time>
      </trkpt>
      <trkpt lat="51.470623" lon="6.804128">
        <ele>27.207883</ele>
        <time>2026-05-24T08:51:26.517Z</time>
      </trkpt>
      <trkpt lat="51.470230" lon="6.803761">
        <ele>27.091427</ele>
        <time>2026-05-24T08:51:37.918Z</time>
      </trkpt>
      <trkpt lat="51.469826" lon="6.803435">
        <ele>26.975609</ele>
        <time>2026-05-24T08:51:48.886Z</time>
      </trkpt>
      <trkpt lat="51.469557" lon="6.803167">
        <ele>26.894517</ele>
        <time>2026-05-24T08:51:56.146Z</time>
      </trkpt>
      <trkpt lat="51.468931" lon="6.802779">
        <ele>26.715149</ele>
        <time>2026-05-24T08:52:10.965Z</time>
      </trkpt>
      <trkpt lat="51.468847" lon="6.802677">
        <ele>26.682816</ele>
        <time>2026-05-24T08:52:13.288Z</time>
      </trkpt>
      <trkpt lat="51.467959" lon="6.802259">
        <ele>26.398739</ele>
        <time>2026-05-24T08:52:34.765Z</time>
      </trkpt>
      <trkpt lat="51.467771" lon="6.802182">
        <ele>26.339178</ele>
        <time>2026-05-24T08:52:39.416Z</time>
      </trkpt>
      <trkpt lat="51.467275" lon="6.802139">
        <ele>26.227430</ele>
        <time>2026-05-24T08:52:51.935Z</time>
      </trkpt>
      <trkpt lat="51.466162" lon="6.801615">
        <ele>26.545407</ele>
        <time>2026-05-24T08:53:23.003Z</time>
      </trkpt>
      <trkpt lat="51.462770" lon="6.800113">
        <ele>26.859411</ele>
        <time>2026-05-24T08:54:50.204Z</time>
      </trkpt>
      <trkpt lat="51.462023" lon="6.799732">
        <ele>26.989998</ele>
        <time>2026-05-24T08:55:09.987Z</time>
      </trkpt>
      <trkpt lat="51.461795" lon="6.799491">
        <ele>27.147517</ele>
        <time>2026-05-24T08:55:16.983Z</time>
      </trkpt>
      <trkpt lat="51.461713" lon="6.799398">
        <ele>27.205451</ele>
        <time>2026-05-24T08:55:19.620Z</time>
      </trkpt>
      <trkpt lat="51.461400" lon="6.799175">
        <ele>27.403042</ele>
        <time>2026-05-24T08:55:28.627Z</time>
      </trkpt>
      <trkpt lat="51.461078" lon="6.799079">
        <ele>27.592011</ele>
        <time>2026-05-24T08:55:37.595Z</time>
      </trkpt>
      <trkpt lat="51.461018" lon="6.799138">
        <ele>27.632611</ele>
        <time>2026-05-24T08:55:39.871Z</time>
      </trkpt>
      <trkpt lat="51.460403" lon="6.799051">
        <ele>27.982237</ele>
        <time>2026-05-24T08:56:00.267Z</time>
      </trkpt>
      <trkpt lat="51.460218" lon="6.799036">
        <ele>28.071411</ele>
        <time>2026-05-24T08:56:05.589Z</time>
      </trkpt>
      <trkpt lat="51.460185" lon="6.799069">
        <ele>28.090129</ele>
        <time>2026-05-24T08:56:06.894Z</time>
      </trkpt>
      <trkpt lat="51.460112" lon="6.799132">
        <ele>28.130030</ele>
        <time>2026-05-24T08:56:09.614Z</time>
      </trkpt>
      <trkpt lat="51.460000" lon="6.799303">
        <ele>28.204447</ele>
        <time>2026-05-24T08:56:14.721Z</time>
      </trkpt>
      <trkpt lat="51.459924" lon="6.799396">
        <ele>28.250455</ele>
        <time>2026-05-24T08:56:17.931Z</time>
      </trkpt>
      <trkpt lat="51.459064" lon="6.798560">
        <ele>28.734484</ele>
        <time>2026-05-24T08:56:49.149Z</time>
      </trkpt>
      <trkpt lat="51.458509" lon="6.797916">
        <ele>28.706264</ele>
        <time>2026-05-24T08:57:08.216Z</time>
      </trkpt>
      <trkpt lat="51.458401" lon="6.797682">
        <ele>28.668207</ele>
        <time>2026-05-24T08:57:13.247Z</time>
      </trkpt>
      <trkpt lat="51.458081" lon="6.796759">
        <ele>28.530164</ele>
        <time>2026-05-24T08:57:31.702Z</time>
      </trkpt>
      <trkpt lat="51.457943" lon="6.796461">
        <ele>28.481640</ele>
        <time>2026-05-24T08:57:38.345Z</time>
      </trkpt>
      <trkpt lat="51.457752" lon="6.796138">
        <ele>28.451057</ele>
        <time>2026-05-24T08:57:46.390Z</time>
      </trkpt>
      <trkpt lat="51.457630" lon="6.795988">
        <ele>28.481596</ele>
        <time>2026-05-24T08:57:50.908Z</time>
      </trkpt>
      <trkpt lat="51.457537" lon="6.795902">
        <ele>28.502924</ele>
        <time>2026-05-24T08:57:54.082Z</time>
      </trkpt>
      <trkpt lat="51.457512" lon="6.795950">
        <ele>28.510670</ele>
        <time>2026-05-24T08:57:54.971Z</time>
      </trkpt>
      <trkpt lat="51.457385" lon="6.795796">
        <ele>28.542300</ele>
        <time>2026-05-24T08:57:58.772Z</time>
      </trkpt>
      <trkpt lat="51.456792" lon="6.795200">
        <ele>28.681334</ele>
        <time>2026-05-24T08:58:15.695Z</time>
      </trkpt>
      <trkpt lat="51.456684" lon="6.795089">
        <ele>28.706818</ele>
        <time>2026-05-24T08:58:18.888Z</time>
      </trkpt>
      <trkpt lat="51.455995" lon="6.794545">
        <ele>28.779896</ele>
        <time>2026-05-24T08:58:37.586Z</time>
      </trkpt>
      <trkpt lat="51.455627" lon="6.794348">
        <ele>28.761773</ele>
        <time>2026-05-24T08:58:46.845Z</time>
      </trkpt>
      <trkpt lat="51.453841" lon="6.793376">
        <ele>28.397178</ele>
        <time>2026-05-24T08:59:28.713Z</time>
      </trkpt>
      <trkpt lat="51.453170" lon="6.793103">
        <ele>28.125340</ele>
        <time>2026-05-24T08:59:43.477Z</time>
      </trkpt>
      <trkpt lat="51.452585" lon="6.792929">
        <ele>28.049636</ele>
        <time>2026-05-24T08:59:56.399Z</time>
      </trkpt>
      <trkpt lat="51.452317" lon="6.792899">
        <ele>28.091621</ele>
        <time>2026-05-24T09:00:02.426Z</time>
      </trkpt>
      <trkpt lat="51.451954" lon="6.792782">
        <ele>28.149484</ele>
        <time>2026-05-24T09:00:10.730Z</time>
      </trkpt>
      <trkpt lat="51.451783" lon="6.792713">
        <ele>28.177040</ele>
        <time>2026-05-24T09:00:14.801Z</time>
      </trkpt>
      <trkpt lat="51.451694" lon="6.792666">
        <ele>28.191683</ele>
        <time>2026-05-24T09:00:17.011Z</time>
      </trkpt>
      <trkpt lat="51.448980" lon="6.791426">
        <ele>29.468150</ele>
        <time>2026-05-24T09:01:29.632Z</time>
      </trkpt>
      <trkpt lat="51.448783" lon="6.791327">
        <ele>29.481976</ele>
        <time>2026-05-24T09:01:35.256Z</time>
      </trkpt>
      <trkpt lat="51.448754" lon="6.791230">
        <ele>29.486467</ele>
        <time>2026-05-24T09:01:37.354Z</time>
      </trkpt>
      <trkpt lat="51.448629" lon="6.791088">
        <ele>29.496725</ele>
        <time>2026-05-24T09:01:42.173Z</time>
      </trkpt>
      <trkpt lat="51.448428" lon="6.790954">
        <ele>29.511302</ele>
        <time>2026-05-24T09:01:48.764Z</time>
      </trkpt>
      <trkpt lat="51.448317" lon="6.790891">
        <ele>29.519188</ele>
        <time>2026-05-24T09:01:52.202Z</time>
      </trkpt>
      <trkpt lat="51.448236" lon="6.790864">
        <ele>29.524729</ele>
        <time>2026-05-24T09:01:54.668Z</time>
      </trkpt>
      <trkpt lat="51.448161" lon="6.790832">
        <ele>29.529927</ele>
        <time>2026-05-24T09:01:56.938Z</time>
      </trkpt>
      <trkpt lat="51.448119" lon="6.790830">
        <ele>29.532741</ele>
        <time>2026-05-24T09:01:58.135Z</time>
      </trkpt>
      <trkpt lat="51.447806" lon="6.790843">
        <ele>29.553711</ele>
        <time>2026-05-24T09:02:06.854Z</time>
      </trkpt>
      <trkpt lat="51.447510" lon="6.790941">
        <ele>29.313375</ele>
        <time>2026-05-24T09:02:14.655Z</time>
      </trkpt>
      <trkpt lat="51.447369" lon="6.791030">
        <ele>29.128342</ele>
        <time>2026-05-24T09:02:18.406Z</time>
      </trkpt>
      <trkpt lat="51.447161" lon="6.791224">
        <ele>28.834536</ele>
        <time>2026-05-24T09:02:24.179Z</time>
      </trkpt>
      <trkpt lat="51.447061" lon="6.790989">
        <ele>28.617965</ele>
        <time>2026-05-24T09:02:27.247Z</time>
      </trkpt>
      <trkpt lat="51.446812" lon="6.790402">
        <ele>28.077537</ele>
        <time>2026-05-24T09:02:35.274Z</time>
      </trkpt>
      <trkpt lat="51.446128" lon="6.788758">
        <ele>27.164151</ele>
        <time>2026-05-24T09:03:00.055Z</time>
      </trkpt>
      <trkpt lat="51.445992" lon="6.788410">
        <ele>27.085182</ele>
        <time>2026-05-24T09:03:05.578Z</time>
      </trkpt>
      <trkpt lat="51.445491" lon="6.787088">
        <ele>26.805068</ele>
        <time>2026-05-24T09:03:26.789Z</time>
      </trkpt>
      <trkpt lat="51.445335" lon="6.786533">
        <ele>26.783049</ele>
        <time>2026-05-24T09:03:35.074Z</time>
      </trkpt>
      <trkpt lat="51.445332" lon="6.786522">
        <ele>26.782615</ele>
        <time>2026-05-24T09:03:35.253Z</time>
      </trkpt>
      <trkpt lat="51.445253" lon="6.786158">
        <ele>26.768675</ele>
        <time>2026-05-24T09:03:40.437Z</time>
      </trkpt>
      <trkpt lat="51.445189" lon="6.785818">
        <ele>26.755830</ele>
        <time>2026-05-24T09:03:45.215Z</time>
      </trkpt>
      <trkpt lat="51.445147" lon="6.785586">
        <ele>26.747093</ele>
        <time>2026-05-24T09:03:48.461Z</time>
      </trkpt>
      <trkpt lat="51.445116" lon="6.785420">
        <ele>26.740825</ele>
        <time>2026-05-24T09:03:50.804Z</time>
      </trkpt>
      <trkpt lat="51.444928" lon="6.784371">
        <ele>26.722979</ele>
        <time>2026-05-24T09:04:05.892Z</time>
      </trkpt>
      <trkpt lat="51.444773" lon="6.783872">
        <ele>26.832372</ele>
        <time>2026-05-24T09:04:13.604Z</time>
      </trkpt>
      <trkpt lat="51.444724" lon="6.783714">
        <ele>26.866999</ele>
        <time>2026-05-24T09:04:16.095Z</time>
      </trkpt>
      <trkpt lat="51.444791" lon="6.781455">
        <ele>27.329006</ele>
        <time>2026-05-24T09:04:49.988Z</time>
      </trkpt>
      <trkpt lat="51.444713" lon="6.781480">
        <ele>27.365540</ele>
        <time>2026-05-24T09:04:51.966Z</time>
      </trkpt>
      <trkpt lat="51.444344" lon="6.781582">
        <ele>27.537523</ele>
        <time>2026-05-24T09:05:01.483Z</time>
      </trkpt>
      <trkpt lat="51.444106" lon="6.781648">
        <ele>27.648460</ele>
        <time>2026-05-24T09:05:07.376Z</time>
      </trkpt>
      <trkpt lat="51.444003" lon="6.781680">
        <ele>27.696648</ele>
        <time>2026-05-24T09:05:10.003Z</time>
      </trkpt>
      <trkpt lat="51.443698" lon="6.781763">
        <ele>27.838740</ele>
        <time>2026-05-24T09:05:17.649Z</time>
      </trkpt>
      <trkpt lat="51.443048" lon="6.781922">
        <ele>28.163638</ele>
        <time>2026-05-24T09:05:33.392Z</time>
      </trkpt>
      <trkpt lat="51.442831" lon="6.781965">
        <ele>28.316730</ele>
        <time>2026-05-24T09:05:38.619Z</time>
      </trkpt>
      <trkpt lat="51.442803" lon="6.781971">
        <ele>28.336508</ele>
        <time>2026-05-24T09:05:39.301Z</time>
      </trkpt>
      <trkpt lat="51.442309" lon="6.782078">
        <ele>28.685530</ele>
        <time>2026-05-24T09:05:51.990Z</time>
      </trkpt>
      <trkpt lat="51.442237" lon="6.782096">
        <ele>28.736550</ele>
        <time>2026-05-24T09:05:53.866Z</time>
      </trkpt>
      <trkpt lat="51.442013" lon="6.782155">
        <ele>28.895488</ele>
        <time>2026-05-24T09:05:59.773Z</time>
      </trkpt>
      <trkpt lat="51.441674" lon="6.782239">
        <ele>29.135660</ele>
        <time>2026-05-24T09:06:08.810Z</time>
      </trkpt>
      <trkpt lat="51.441393" lon="6.782306">
        <ele>29.334568</ele>
        <time>2026-05-24T09:06:16.670Z</time>
      </trkpt>
      <trkpt lat="51.440552" lon="6.782479">
        <ele>30.228035</ele>
        <time>2026-05-24T09:06:39.765Z</time>
      </trkpt>
      <trkpt lat="51.440447" lon="6.782483">
        <ele>30.340131</ele>
        <time>2026-05-24T09:06:42.331Z</time>
      </trkpt>
      <trkpt lat="51.440397" lon="6.782480">
        <ele>30.393532</ele>
        <time>2026-05-24T09:06:43.536Z</time>
      </trkpt>
      <trkpt lat="51.439985" lon="6.782364">
        <ele>30.839973</ele>
        <time>2026-05-24T09:06:54.274Z</time>
      </trkpt>
      <trkpt lat="51.439623" lon="6.782369">
        <ele>31.226343</ele>
        <time>2026-05-24T09:07:04.949Z</time>
      </trkpt>
      <trkpt lat="51.439427" lon="6.782479">
        <ele>31.526709</ele>
        <time>2026-05-24T09:07:11.279Z</time>
      </trkpt>
      <trkpt lat="51.439230" lon="6.782630">
        <ele>31.866498</ele>
        <time>2026-05-24T09:07:18.030Z</time>
      </trkpt>
      <trkpt lat="51.439142" lon="6.782715">
        <ele>32.026361</ele>
        <time>2026-05-24T09:07:21.051Z</time>
      </trkpt>
      <trkpt lat="51.439045" lon="6.782808">
        <ele>32.202228</ele>
        <time>2026-05-24T09:07:24.503Z</time>
      </trkpt>
      <trkpt lat="51.438977" lon="6.782860">
        <ele>32.319464</ele>
        <time>2026-05-24T09:07:26.798Z</time>
      </trkpt>
      <trkpt lat="51.438920" lon="6.782904">
        <ele>32.417909</ele>
        <time>2026-05-24T09:07:28.705Z</time>
      </trkpt>
      <trkpt lat="51.438820" lon="6.782986">
        <ele>32.592692</ele>
        <time>2026-05-24T09:07:31.980Z</time>
      </trkpt>
      <trkpt lat="51.438289" lon="6.783420">
        <ele>33.520161</ele>
        <time>2026-05-24T09:07:50.028Z</time>
      </trkpt>
      <trkpt lat="51.438248" lon="6.783458">
        <ele>33.593854</ele>
        <time>2026-05-24T09:07:51.500Z</time>
      </trkpt>
      <trkpt lat="51.438071" lon="6.782787">
        <ele>34.111023</ele>
        <time>2026-05-24T09:08:03.470Z</time>
      </trkpt>
      <trkpt lat="51.437856" lon="6.781886">
        <ele>34.259272</ele>
        <time>2026-05-24T09:08:16.881Z</time>
      </trkpt>
      <trkpt lat="51.437827" lon="6.781762">
        <ele>34.279623</ele>
        <time>2026-05-24T09:08:18.619Z</time>
      </trkpt>
      <trkpt lat="51.437772" lon="6.781610">
        <ele>34.306630</ele>
        <time>2026-05-24T09:08:20.935Z</time>
      </trkpt>
      <trkpt lat="51.437657" lon="6.781427">
        <ele>34.346560</ele>
        <time>2026-05-24T09:08:24.377Z</time>
      </trkpt>
      <trkpt lat="51.437612" lon="6.781352">
        <ele>34.362556</ele>
        <time>2026-05-24T09:08:25.805Z</time>
      </trkpt>
      <trkpt lat="51.437542" lon="6.781221">
        <ele>34.389070</ele>
        <time>2026-05-24T09:08:28.125Z</time>
      </trkpt>
      <trkpt lat="51.437497" lon="6.781276">
        <ele>34.403016</ele>
        <time>2026-05-24T09:08:29.382Z</time>
      </trkpt>
      <trkpt lat="51.437483" lon="6.781292">
        <ele>34.407253</ele>
        <time>2026-05-24T09:08:29.763Z</time>
      </trkpt>
      <trkpt lat="51.437384" lon="6.781361">
        <ele>34.433861</ele>
        <time>2026-05-24T09:08:32.150Z</time>
      </trkpt>
      <trkpt lat="51.437357" lon="6.781373">
        <ele>34.440768</ele>
        <time>2026-05-24T09:08:32.782Z</time>
      </trkpt>
      <trkpt lat="51.437271" lon="6.781396">
        <ele>34.462260</ele>
        <time>2026-05-24T09:08:34.725Z</time>
      </trkpt>
      <trkpt lat="51.437166" lon="6.781423">
        <ele>34.488474</ele>
        <time>2026-05-24T09:08:37.163Z</time>
      </trkpt>
      <trkpt lat="51.437128" lon="6.781431">
        <ele>34.497921</ele>
        <time>2026-05-24T09:08:38.011Z</time>
      </trkpt>
      <trkpt lat="51.437036" lon="6.781452">
        <ele>34.525270</ele>
        <time>2026-05-24T09:08:40.173Z</time>
      </trkpt>
      <trkpt lat="51.436721" lon="6.781531">
        <ele>34.768362</ele>
        <time>2026-05-24T09:08:47.796Z</time>
      </trkpt>
      <trkpt lat="51.436582" lon="6.781575">
        <ele>34.876387</ele>
        <time>2026-05-24T09:08:51.394Z</time>
      </trkpt>
      <trkpt lat="51.436478" lon="6.781608">
        <ele>34.957219</ele>
        <time>2026-05-24T09:08:54.084Z</time>
      </trkpt>
      <trkpt lat="51.436412" lon="6.781625">
        <ele>35.008185</ele>
        <time>2026-05-24T09:08:55.815Z</time>
      </trkpt>
      <trkpt lat="51.435970" lon="6.781740">
        <ele>35.349595</ele>
        <time>2026-05-24T09:09:07.585Z</time>
      </trkpt>
      <trkpt lat="51.435938" lon="6.781748">
        <ele>35.374288</ele>
        <time>2026-05-24T09:09:08.449Z</time>
      </trkpt>
      <trkpt lat="51.435404" lon="6.781859">
        <ele>35.784844</ele>
        <time>2026-05-24T09:09:22.477Z</time>
      </trkpt>
      <trkpt lat="51.435368" lon="6.781866">
        <ele>35.812493</ele>
        <time>2026-05-24T09:09:23.430Z</time>
      </trkpt>
      <trkpt lat="51.435235" lon="6.781894">
        <ele>35.909226</ele>
        <time>2026-05-24T09:09:26.883Z</time>
      </trkpt>
      <trkpt lat="51.435135" lon="6.781916">
        <ele>35.968898</ele>
        <time>2026-05-24T09:09:29.611Z</time>
      </trkpt>
      <trkpt lat="51.435025" lon="6.781944">
        <ele>36.034742</ele>
        <time>2026-05-24T09:09:32.613Z</time>
      </trkpt>
      <trkpt lat="51.434978" lon="6.781957">
        <ele>36.062938</ele>
        <time>2026-05-24T09:09:33.914Z</time>
      </trkpt>
      <trkpt lat="51.434756" lon="6.782008">
        <ele>36.195520</ele>
        <time>2026-05-24T09:09:40.051Z</time>
      </trkpt>
      <trkpt lat="51.433575" lon="6.782289">
        <ele>36.901348</ele>
        <time>2026-05-24T09:10:09.051Z</time>
      </trkpt>
      <trkpt lat="51.433236" lon="6.782374">
        <ele>36.930110</ele>
        <time>2026-05-24T09:10:16.831Z</time>
      </trkpt>
      <trkpt lat="51.433127" lon="6.782401">
        <ele>36.920028</ele>
        <time>2026-05-24T09:10:19.304Z</time>
      </trkpt>
      <trkpt lat="51.432823" lon="6.782474">
        <ele>36.891929</ele>
        <time>2026-05-24T09:10:26.145Z</time>
      </trkpt>
      <trkpt lat="51.432477" lon="6.782526">
        <ele>36.860162</ele>
        <time>2026-05-24T09:10:34.090Z</time>
      </trkpt>
      <trkpt lat="51.432453" lon="6.782290">
        <ele>36.846535</ele>
        <time>2026-05-24T09:10:37.476Z</time>
      </trkpt>
      <trkpt lat="51.432336" lon="6.780787">
        <ele>36.520705</ele>
        <time>2026-05-24T09:10:58.919Z</time>
      </trkpt>
      <trkpt lat="51.432258" lon="6.779862">
        <ele>36.024983</ele>
        <time>2026-05-24T09:11:09.902Z</time>
      </trkpt>
      <trkpt lat="51.432256" lon="6.779289">
        <ele>35.720669</ele>
        <time>2026-05-24T09:11:16.801Z</time>
      </trkpt>
      <trkpt lat="51.432262" lon="6.779197">
        <ele>35.671543</ele>
        <time>2026-05-24T09:11:17.912Z</time>
      </trkpt>
      <trkpt lat="51.432265" lon="6.779143">
        <ele>35.642751</ele>
        <time>2026-05-24T09:11:18.587Z</time>
      </trkpt>
      <trkpt lat="51.432229" lon="6.779051">
        <ele>35.585065</ele>
        <time>2026-05-24T09:11:19.897Z</time>
      </trkpt>
      <trkpt lat="51.432171" lon="6.778906">
        <ele>35.493571</ele>
        <time>2026-05-24T09:11:21.943Z</time>
      </trkpt>
      <trkpt lat="51.432122" lon="6.778800">
        <ele>35.423489</ele>
        <time>2026-05-24T09:11:23.567Z</time>
      </trkpt>
      <trkpt lat="51.432085" lon="6.778747">
        <ele>35.381232</ele>
        <time>2026-05-24T09:11:24.586Z</time>
      </trkpt>
      <trkpt lat="51.432067" lon="6.778725">
        <ele>35.361954</ele>
        <time>2026-05-24T09:11:25.042Z</time>
      </trkpt>
      <trkpt lat="51.432049" lon="6.778709">
        <ele>35.344424</ele>
        <time>2026-05-24T09:11:25.479Z</time>
      </trkpt>
      <trkpt lat="51.431945" lon="6.778636">
        <ele>35.263640</ele>
        <time>2026-05-24T09:11:27.862Z</time>
      </trkpt>
      <trkpt lat="51.431924" lon="6.778620">
        <ele>35.278474</ele>
        <time>2026-05-24T09:11:28.347Z</time>
      </trkpt>
      <trkpt lat="51.431856" lon="6.778553">
        <ele>35.329395</ele>
        <time>2026-05-24T09:11:30.090Z</time>
      </trkpt>
      <trkpt lat="51.431824" lon="6.778509">
        <ele>35.356289</ele>
        <time>2026-05-24T09:11:31.072Z</time>
      </trkpt>
      <trkpt lat="51.431726" lon="6.778526">
        <ele>35.419184</ele>
        <time>2026-05-24T09:11:34.019Z</time>
      </trkpt>
      <trkpt lat="51.431241" lon="6.778381">
        <ele>35.733978</ele>
        <time>2026-05-24T09:11:50.055Z</time>
      </trkpt>
      <trkpt lat="51.430753" lon="6.778314">
        <ele>36.046494</ele>
        <time>2026-05-24T09:12:07.232Z</time>
      </trkpt>
      <trkpt lat="51.430667" lon="6.778297">
        <ele>36.101784</ele>
        <time>2026-05-24T09:12:09.720Z</time>
      </trkpt>
      <trkpt lat="51.430647" lon="6.778296">
        <ele>36.114551</ele>
        <time>2026-05-24T09:12:10.272Z</time>
      </trkpt>
      <trkpt lat="51.430636" lon="6.778295">
        <ele>36.121581</ele>
        <time>2026-05-24T09:12:10.597Z</time>
      </trkpt>
      <trkpt lat="51.430490" lon="6.778280">
        <ele>36.214930</ele>
        <time>2026-05-24T09:12:14.590Z</time>
      </trkpt>
      <trkpt lat="51.430052" lon="6.778227">
        <ele>36.404482</ele>
        <time>2026-05-24T09:12:25.732Z</time>
      </trkpt>
      <trkpt lat="51.429778" lon="6.778204">
        <ele>36.404482</ele>
        <time>2026-05-24T09:12:32.174Z</time>
      </trkpt>
      <trkpt lat="51.429739" lon="6.778185">
        <ele>36.404482</ele>
        <time>2026-05-24T09:12:33.701Z</time>
      </trkpt>
      <trkpt lat="51.429741" lon="6.778254">
        <ele>36.404482</ele>
        <time>2026-05-24T09:12:34.948Z</time>
      </trkpt>
      <trkpt lat="51.429684" lon="6.778233">
        <ele>36.404482</ele>
        <time>2026-05-24T09:12:36.192Z</time>
      </trkpt>
      <trkpt lat="51.429647" lon="6.778119">
        <ele>36.404482</ele>
        <time>2026-05-24T09:12:38.014Z</time>
      </trkpt>
      <trkpt lat="51.429576" lon="6.778059">
        <ele>36.404482</ele>
        <time>2026-05-24T09:12:39.807Z</time>
      </trkpt>
      <trkpt lat="51.429526" lon="6.777936">
        <ele>36.404482</ele>
        <time>2026-05-24T09:12:41.933Z</time>
      </trkpt>
      <trkpt lat="51.429490" lon="6.777731">
        <ele>36.404482</ele>
        <time>2026-05-24T09:12:45.020Z</time>
      </trkpt>
      <trkpt lat="51.429491" lon="6.777700">
        <ele>36.404482</ele>
        <time>2026-05-24T09:12:45.480Z</time>
      </trkpt>
      <trkpt lat="51.429503" lon="6.777371">
        <ele>36.404482</ele>
        <time>2026-05-24T09:12:50.487Z</time>
      </trkpt>
      <trkpt lat="51.429459" lon="6.777311">
        <ele>36.404482</ele>
        <time>2026-05-24T09:12:51.941Z</time>
      </trkpt>
      <trkpt lat="51.429477" lon="6.777151">
        <ele>36.404482</ele>
        <time>2026-05-24T09:12:58.990Z</time>
      </trkpt>
      <trkpt lat="51.429603" lon="6.777201">
        <ele>36.404482</ele>
        <time>2026-05-24T09:13:08.015Z</time>
      </trkpt>
      <trkpt lat="51.429611" lon="6.777149">
        <ele>36.404482</ele>
        <time>2026-05-24T09:13:10.316Z</time>
      </trkpt>
      <trkpt lat="51.429640" lon="6.776900">
        <ele>36.404482</ele>
        <time>2026-05-24T09:13:21.304Z</time>
      </trkpt>
      <trkpt lat="51.429644" lon="6.776854">
        <ele>36.404482</ele>
        <time>2026-05-24T09:13:23.330Z</time>
      </trkpt>
      <trkpt lat="51.429660" lon="6.776622">
        <ele>36.404482</ele>
        <time>2026-05-24T09:13:33.440Z</time>
      </trkpt>
      <trkpt lat="51.429664" lon="6.776567">
        <ele>36.404482</ele>
        <time>2026-05-24T09:13:35.858Z</time>
      </trkpt>
      <trkpt lat="51.429681" lon="6.776335">
        <ele>36.404482</ele>
        <time>2026-05-24T09:13:45.976Z</time>
      </trkpt>
      <trkpt lat="51.429684" lon="6.776290">
        <ele>36.404482</ele>
        <time>2026-05-24T09:13:47.933Z</time>
      </trkpt>
      <trkpt lat="51.429692" lon="6.776181">
        <ele>36.404482</ele>
        <time>2026-05-24T09:13:52.681Z</time>
      </trkpt>
    </trkseg>
  </trk>
</gpx>